Provisional Data: Tuscarora Creek near Woodhull, NY


Please select a monitoring station.
Please select start date.
Please select start date.

Toggle Unit: C/F Toggle Unit: C/F
Sample Time Temperature (C) Temperature (F) Specific Conductivity (mS/cm) pH   Turbidity (NTU+) DO (mg/L)
4/13/2022 12:00:00 AM 11.18 52.124 0.282 7.82 6.99 10.14
4/13/2022 12:15:00 AM 11.02 51.836 0.282 7.8 7 10.18
4/13/2022 12:30:00 AM 10.87 51.566 0.283 7.78 7.19 10.21
4/13/2022 12:45:00 AM 10.72 51.296 0.283 7.76 7.02 10.24
4/13/2022 1:00:00 AM 10.58 51.044 0.283 7.74 6.8 10.28
4/13/2022 1:15:00 AM 10.45 50.81 0.284 7.72 6.81 10.31
4/13/2022 1:30:00 AM 10.31 50.558 0.284 7.72 6.78 10.35
4/13/2022 1:45:00 AM 10.18 50.324 0.284 7.7 6.75 10.38
4/13/2022 2:00:00 AM 10.06 50.108 0.285 7.69 6.74 10.42
4/13/2022 2:15:00 AM 9.93 49.874 0.285 7.69 6.61 10.45
4/13/2022 2:30:00 AM 9.81 49.658 0.285 7.69 6.55 10.48
4/13/2022 2:45:00 AM 9.71 49.478 0.286 7.68 6.62 10.51
4/13/2022 3:00:00 AM 9.65 49.37 0.286 7.66 6.52 10.53
4/13/2022 3:15:00 AM 9.57 49.226 0.286 7.67 6.43 10.56
4/13/2022 3:30:00 AM 9.51 49.118 0.287 7.66 6.62 10.58
4/13/2022 3:45:00 AM 9.43 48.974 0.287 7.68 6.27 10.61
4/13/2022 4:00:00 AM 9.36 48.848 0.287 7.67 6.47 10.63
4/13/2022 4:15:00 AM 9.3 48.74 0.288 7.67 6.32 10.64
4/13/2022 4:30:00 AM 9.23 48.614 0.288 7.66 6.19 10.67
4/13/2022 4:45:00 AM 9.18 48.524 0.288 7.66 6.19 10.69
4/13/2022 5:00:00 AM 9.12 48.416 0.289 7.66 6.15 10.71
4/13/2022 5:15:00 AM 9.06 48.308 0.289 7.66 5.96 10.72
4/13/2022 5:30:00 AM 9.01 48.218 0.289 7.66 6.04 10.74
4/13/2022 5:45:00 AM 8.97 48.146 0.29 7.66 6.06 10.74
4/13/2022 6:00:00 AM 8.92 48.056 0.29 7.65 5.79 10.77
4/13/2022 6:15:00 AM 8.88 47.984 0.29 7.66 5.79 10.78
4/13/2022 6:30:00 AM 8.84 47.912 0.291 7.67 5.82 10.78
4/13/2022 6:45:00 AM 8.81 47.858 0.291 7.68 5.67 10.8
4/13/2022 7:00:00 AM 8.78 47.804 0.291 7.69 5.77 10.84
4/13/2022 7:15:00 AM 8.76 47.768 0.291 7.7 5.49 10.9
4/13/2022 7:30:00 AM 8.75 47.75 0.291 7.72 5.41 11.08
4/13/2022 7:45:00 AM 8.76 47.768 0.291 7.79 5.43 11.33
4/13/2022 8:00:00 AM 8.76 47.768 0.291 7.85 5.33 11.55
4/13/2022 8:15:00 AM 8.77 47.786 0.29 7.93 5.43 11.72
4/13/2022 8:30:00 AM 8.81 47.858 0.291 7.99 5.27 11.88
4/13/2022 8:45:00 AM 8.88 47.984 0.291 8.07 5.2 12.05
4/13/2022 9:00:00 AM 8.98 48.164 0.291 8.13 5.26 12.16
4/13/2022 9:15:00 AM 9.13 48.434 0.291 8.22 5.17 12.31
4/13/2022 9:30:00 AM 9.3 48.74 0.291 8.3 5.2 12.4
4/13/2022 9:45:00 AM 9.47 49.046 0.291 8.38 5.09 12.5
4/13/2022 10:00:00 AM 9.6 49.28 0.291 8.42 5.03 12.56
4/13/2022 10:15:00 AM 9.82 49.676 0.291 8.48 4.9 12.62
4/13/2022 10:30:00 AM 10.1 50.18 0.29 8.56 5.03 12.69
4/13/2022 10:45:00 AM 10.36 50.648 0.29 8.63 4.75 12.74
4/13/2022 11:00:00 AM 10.47 50.846 0.29 8.68 5.56 12.71
4/13/2022 11:15:00 AM 10.63 51.134 0.29 8.71 10.62 12.66
4/13/2022 11:30:00 AM 10.89 51.602 0.29 8.73 14.2 12.65
4/13/2022 11:45:00 AM 11.21 52.178 0.29 8.78 14.69 12.69
4/13/2022 12:00:00 PM 11.67 53.006 0.289 8.86 11.36 12.78
4/13/2022 12:15:00 PM 11.88 53.384 0.282 8.92 8.74 12.7
4/13/2022 12:30:00 PM 11.98 53.564 0.288 8.95 7.45 12.63
4/13/2022 12:45:00 PM 12.01 53.618 0.288 8.97 7.13 12.52
4/13/2022 1:00:00 PM 12.08 53.744 0.286 9 6.54 12.44
4/13/2022 1:15:00 PM 12.21 53.978 0.117 9.03 6.79 12.31
4/13/2022 1:30:00 PM 12.37 54.266 0.287 9.04 7.13 12.25
4/13/2022 1:45:00 PM 12.48 54.464 0.287 9.07 7.08 12.11
4/13/2022 2:00:00 PM 12.55 54.59 0.286 9.06 6.29 11.84
4/13/2022 2:15:00 PM 12.65 54.77 0.286 9.06 5.53 11.68
4/13/2022 2:30:00 PM 12.78 55.004 0.286 9.08 5.49 11.69
4/13/2022 2:45:00 PM 13.01 55.418 0.285 9.11 5.13 11.73
4/13/2022 3:00:00 PM 13.26 55.868 0.285 9.15 5.01 11.8
4/13/2022 3:15:00 PM 13.51 56.318 0.285 9.18 4.85 11.79
4/13/2022 3:30:00 PM 13.78 56.804 0.284 9.19 4.77 11.78
4/13/2022 3:45:00 PM 13.92 57.056 0.284 9.21 5.05 11.71
4/13/2022 4:00:00 PM 13.97 57.146 0.284 9.21 5.68 11.49
4/13/2022 4:15:00 PM 14.07 57.326 0.284 9.2 6.02 11.38
4/13/2022 4:30:00 PM 14.19 57.542 0.284 9.2 6.2 11.41
4/13/2022 4:45:00 PM 14.23 57.614 0.284 9.21 6.03 11.38
4/13/2022 5:00:00 PM 14.25 57.65 0.283 9.21 5.66 11.32
4/13/2022 5:15:00 PM 14.24 57.632 0.283 9.2 5.14 11.28
4/13/2022 5:30:00 PM 14.21 57.578 0.283 9.2 5.06 11.23
4/13/2022 5:45:00 PM 14.22 57.596 0.283 9.21 4.98 11.18
4/13/2022 6:00:00 PM 14.22 57.596 0.283 9.2 4.94 11.1
4/13/2022 6:15:00 PM 14.18 57.524 0.283 9.2 4.84 11
4/13/2022 6:30:00 PM 14.12 57.416 0.283 9.17 5.05 10.72
4/13/2022 6:45:00 PM 14.08 57.344 0.283 9.14 5.62 10.48
4/13/2022 7:00:00 PM 14.03 57.254 0.283 9.1 5.65 10.33
4/13/2022 7:15:00 PM 13.98 57.164 0.283 9.07 5.58 10.22
4/13/2022 7:30:00 PM 13.91 57.038 0.284 9.05 5.4 10.15
4/13/2022 7:45:00 PM 13.82 56.876 0.284 9 5.36 10.06
4/13/2022 8:00:00 PM 13.73 56.714 0.284 8.95 5.26 9.95
4/13/2022 8:15:00 PM 13.64 56.552 0.285 8.89 5.23 9.88
4/13/2022 8:30:00 PM 13.56 56.408 0.285 8.83 5.5 9.8
4/13/2022 8:45:00 PM 13.49 56.282 0.285 8.77 5.41 9.77
4/13/2022 9:00:00 PM 13.41 56.138 0.286 8.69 5.36 9.73
4/13/2022 9:15:00 PM 13.33 55.994 0.286 8.62 5.35 9.71
4/13/2022 9:30:00 PM 13.26 55.868 0.287 8.53 5.6 9.69
4/13/2022 9:45:00 PM 13.2 55.76 0.287 8.42 5.52 9.68
4/13/2022 10:00:00 PM 13.13 55.634 0.288 8.32 5.43 9.67
4/13/2022 10:15:00 PM 13.04 55.472 0.289 8.21 5.7 9.68
4/13/2022 10:30:00 PM 12.95 55.31 0.289 8.13 5.55 9.68
4/13/2022 10:45:00 PM 12.85 55.13 0.289 8.06 5.52 9.69
4/13/2022 11:00:00 PM 12.76 54.968 0.29 8 5.76 9.7
4/13/2022 11:15:00 PM 12.67 54.806 0.29 7.94 5.95 9.71
4/13/2022 11:30:00 PM 12.57 54.626 0.29 7.89 6.16 9.73
4/13/2022 11:45:00 PM 12.49 54.482 0.29 7.87 6.23 9.75
4/14/2022 12:00:00 AM 12.41 54.338 0.291 7.84 6.01 9.76
4/14/2022 12:15:00 AM 12.33 54.194 0.291 7.81 6.19 9.78
4/14/2022 12:30:00 AM 12.25 54.05 0.291 7.78 6.16 9.79
4/14/2022 12:45:00 AM 12.18 53.924 0.223 7.78 6.04 9.81
4/14/2022 1:00:00 AM 12.11 53.798 0.291 7.75 6.27 9.83
4/14/2022 1:15:00 AM 12.04 53.672 0.291 7.74 6.26 9.85
4/14/2022 1:30:00 AM 11.97 53.546 0.291 7.73 6.46 9.87
4/14/2022 1:45:00 AM 11.89 53.402 0.292 7.74 6.22 9.88
4/14/2022 2:00:00 AM 11.8 53.24 0.292 7.72 6.48 9.91
4/14/2022 2:15:00 AM 11.71 53.078 0.293 7.71 6.58 9.93
4/14/2022 2:30:00 AM 11.62 52.916 0.293 7.7 6.45 9.95
4/14/2022 2:45:00 AM 11.54 52.772 0.294 7.7 6.39 9.97
4/14/2022 3:00:00 AM 11.46 52.628 0.294 7.69 6.31 9.99
4/14/2022 3:15:00 AM 11.38 52.484 0.295 7.69 6.3 10.01
4/14/2022 3:30:00 AM 11.3 52.34 0.294 7.69 6.51 10.02
4/14/2022 3:45:00 AM 11.22 52.196 0.294 7.69 6.53 10.06
4/14/2022 4:00:00 AM 11.13 52.034 0.294 7.69 6.39 10.06
4/14/2022 4:15:00 AM 11.07 51.926 0.294 7.69 6.35 10.09
4/14/2022 4:30:00 AM 10.99 51.782 0.293 7.66 6.4 10.1
4/14/2022 4:45:00 AM 10.91 51.638 0.293 7.67 6.44 10.12
4/14/2022 5:00:00 AM 10.82 51.476 0.293 7.68 6.49 10.14
4/14/2022 5:15:00 AM 10.74 51.332 0.293 7.66 6.57 10.16
4/14/2022 5:30:00 AM 10.67 51.206 0.293 7.67 6.58 10.18
4/14/2022 5:45:00 AM 10.59 51.062 0.293 7.66 6.67 10.2
4/14/2022 6:00:00 AM 10.51 50.918 0.293 7.65 6.53 10.21
4/14/2022 6:15:00 AM 10.43 50.774 0.293 7.67 6.79 10.23
4/14/2022 6:30:00 AM 10.36 50.648 0.293 7.66 6.87 10.26
4/14/2022 6:45:00 AM 10.3 50.54 0.293 7.68 6.61 10.31
4/14/2022 7:00:00 AM 10.23 50.414 0.294 7.68 6.53 10.39
4/14/2022 7:15:00 AM 10.19 50.342 0.294 7.71 6.6 10.53
4/14/2022 7:30:00 AM 10.16 50.288 0.294 7.74 6.39 10.7
4/14/2022 7:45:00 AM 10.17 50.306 0.294 7.79 6.31 10.86
4/14/2022 8:00:00 AM 10.22 50.396 0.294 7.85 6.34 11.06
4/14/2022 8:15:00 AM 10.26 50.468 0.293 7.93 6.19 11.19
4/14/2022 8:30:00 AM 10.35 50.63 0.293 8 6.18 11.35
4/14/2022 8:45:00 AM 10.46 50.828 0.293 8.06 6.01 11.52
4/14/2022 9:00:00 AM 10.55 50.99 0.293 8.15 6.16 11.66
4/14/2022 9:15:00 AM 10.69 51.242 0.293 8.23 5.85 11.79
4/14/2022 9:30:00 AM 10.85 51.53 0.293 8.29 7 11.86
4/14/2022 9:45:00 AM 11.05 51.89 0.292 8.37 5.56 11.98
4/14/2022 10:00:00 AM 11.22 52.196 0.292 8.45 5.52 12.06
4/14/2022 10:15:00 AM 11.45 52.61 0.292 8.52 5.54 12.12
4/14/2022 10:30:00 AM 11.67 53.006 0.291 8.58 5.33 12.17
4/14/2022 10:45:00 AM 11.83 53.294 0.291 8.65 5.4 12.19
4/14/2022 11:00:00 AM 12 53.6 0.291 8.69 5.32 12.19
4/14/2022 11:15:00 AM 12.07 53.726 0.29 8.74 5.36 12.14
4/14/2022 11:30:00 AM 12.15 53.87 0.29 8.77 5.2 12.07
4/14/2022 11:45:00 AM 12.24 54.032 0.29 8.8 5.1 11.88
4/14/2022 12:00:00 PM 12.36 54.248 0.29 8.82 5.21 11.8
4/14/2022 12:15:00 PM 12.47 54.446 0.29 8.84 5.17 11.68
4/14/2022 12:30:00 PM 12.56 54.608 0.289 8.86 5.11 11.61
4/14/2022 12:45:00 PM 12.61 54.698 0.289 8.89 5.07 11.6
4/14/2022 1:00:00 PM 12.63 54.734 0.289 8.9 4.92 11.48
4/14/2022 1:15:00 PM 12.68 54.824 0.169 8.92 4.83 11.46
4/14/2022 1:30:00 PM 12.71 54.878 0.288 8.94 4.81 11.5
4/14/2022 1:45:00 PM 12.75 54.95 0.288 8.97 4.84 11.52
4/14/2022 2:00:00 PM 12.76 54.968 0.288 8.98 4.74 11.54
4/14/2022 2:15:00 PM 12.79 55.022 0.288 9 4.8 11.58
4/14/2022 2:30:00 PM 12.82 55.076 0.288 9.01 5.9 11.64
4/14/2022 2:45:00 PM 12.81 55.058 0.288 8.98 12.3 11.53
4/14/2022 3:00:00 PM 12.85 55.13 0.288 8.97 14.08 11.57
4/14/2022 3:15:00 PM 12.83 55.094 0.288 8.97 14.7 11.58
4/14/2022 3:30:00 PM 12.84 55.112 0.288 8.95 21.34 11.51
4/14/2022 3:45:00 PM 12.85 55.13 0.288 8.97 22.16 11.56
4/14/2022 4:00:00 PM 12.83 55.094 0.287 9.02 15.64 11.67
4/14/2022 4:15:00 PM 12.81 55.058 0.286 9.06 10.79 11.72
4/14/2022 4:30:00 PM 12.78 55.004 0.286 9.08 8.35 11.7
4/14/2022 4:45:00 PM 12.8 55.04 0.286 9.11 7.24 11.71
4/14/2022 5:00:00 PM 12.84 55.112 0.285 9.13 6.48 11.73
4/14/2022 5:15:00 PM 12.86 55.148 0.285 9.15 6.29 11.71
4/14/2022 5:30:00 PM 12.85 55.13 0.285 9.16 5.73 11.66
4/14/2022 5:45:00 PM 12.78 55.004 0.284 9.17 5.63 11.57
4/14/2022 6:00:00 PM 12.7 54.86 0.284 9.17 5.95 11.49
4/14/2022 6:15:00 PM 12.62 54.716 0.284 9.18 6.65 11.42
4/14/2022 6:30:00 PM 12.54 54.572 0.284 9.15 11.72 11.27
4/14/2022 6:45:00 PM 12.44 54.392 0.284 9.11 16.3 11.07
4/14/2022 7:00:00 PM 12.34 54.212 0.284 9.09 13.47 10.97
4/14/2022 7:15:00 PM 12.21 53.978 0.284 9.09 9.54 10.87
4/14/2022 7:30:00 PM 12.11 53.798 0.284 9.07 7.52 10.75
4/14/2022 7:45:00 PM 12.01 53.618 0.284 9.05 6.21 10.62
4/14/2022 8:00:00 PM 11.9 53.42 0.284 9.01 5.79 10.51
4/14/2022 8:15:00 PM 11.78 53.204 0.285 8.97 5.65 10.42
4/14/2022 8:30:00 PM 11.64 52.952 0.285 8.93 5.4 10.36
4/14/2022 8:45:00 PM 11.5 52.7 0.285 8.89 5.23 10.33
4/14/2022 9:00:00 PM 11.36 52.448 0.285 8.85 5.18 10.3
4/14/2022 9:15:00 PM 11.23 52.214 0.285 8.79 5.25 10.3
4/14/2022 9:30:00 PM 11.08 51.944 0.286 8.73 5.21 10.31
4/14/2022 9:45:00 PM 10.93 51.674 0.286 8.66 5.33 10.3
4/14/2022 10:00:00 PM 10.78 51.404 0.287 8.6 5.24 10.3
4/14/2022 10:15:00 PM 10.64 51.152 0.287 8.52 5.17 10.31
4/14/2022 10:30:00 PM 10.5 50.9 0.287 8.42 5.32 10.32
4/14/2022 10:45:00 PM 10.37 50.666 0.288 8.33 5.24 10.34
4/14/2022 11:00:00 PM 10.23 50.414 0.288 8.24 5.25 10.36
4/14/2022 11:15:00 PM 10.09 50.162 0.289 8.15 5.31 10.38
4/14/2022 11:30:00 PM 9.95 49.91 0.289 8.08 5.37 10.41
4/14/2022 11:45:00 PM 9.81 49.658 0.289 8.03 5.4 10.44
4/15/2022 12:00:00 AM 9.68 49.424 0.289 7.97 5.38 10.46
4/15/2022 12:15:00 AM 9.56 49.208 0.289 7.92 5.27 10.5
4/15/2022 12:30:00 AM 9.42 48.956 0.29 7.9 5.35 10.53
4/15/2022 12:45:00 AM 9.29 48.722 0.29 7.86 5.24 10.57
4/15/2022 1:00:00 AM 9.16 48.488 0.29 7.82 5.21 10.61
4/15/2022 1:15:00 AM 9.02 48.236 0.29 7.79 5.34 10.64
4/15/2022 1:30:00 AM 8.9 48.02 0.291 7.77 5.31 10.69
4/15/2022 1:45:00 AM 8.77 47.786 0.291 7.75 5.26 10.7
4/15/2022 2:00:00 AM 8.65 47.57 0.291 7.75 5.18 10.74
4/15/2022 2:15:00 AM 8.54 47.372 0.291 7.75 5.34 10.77
4/15/2022 2:30:00 AM 8.42 47.156 0.292 7.72 5.29 10.81
4/15/2022 2:45:00 AM 8.3 46.94 0.292 7.72 5.32 10.85
4/15/2022 3:00:00 AM 8.19 46.742 0.292 7.71 5.22 10.88
4/15/2022 3:15:00 AM 8.08 46.544 0.293 7.73 5.22 10.91
4/15/2022 3:30:00 AM 7.97 46.346 0.293 7.71 5.23 10.95
4/15/2022 3:45:00 AM 7.87 46.166 0.293 7.7 5.04 10.98
4/15/2022 4:00:00 AM 7.76 45.968 0.294 7.71 5.15 11.01
4/15/2022 4:15:00 AM 7.66 45.788 0.294 7.71 5 11.05
4/15/2022 4:30:00 AM 7.56 45.608 0.294 7.7 5.09 11.06
4/15/2022 4:45:00 AM 7.47 45.446 0.294 7.69 5.11 11.1
4/15/2022 5:00:00 AM 7.37 45.266 0.294 7.69 4.95 11.13
4/15/2022 5:15:00 AM 7.28 45.104 0.295 7.69 4.94 11.16
4/15/2022 5:30:00 AM 7.2 44.96 0.295 7.69 4.91 11.18
4/15/2022 5:45:00 AM 7.11 44.798 0.295 7.69 4.92 11.21
4/15/2022 6:00:00 AM 7.02 44.636 0.295 7.69 4.78 11.24
4/15/2022 6:15:00 AM 6.93 44.474 0.296 7.69 4.88 11.27
4/15/2022 6:30:00 AM 6.85 44.33 0.296 7.69 4.81 11.31
4/15/2022 6:45:00 AM 6.77 44.186 0.296 7.7 4.87 11.38
4/15/2022 7:00:00 AM 6.71 44.078 0.297 7.72 4.79 11.49
4/15/2022 7:15:00 AM 6.64 43.952 0.297 7.75 4.87 11.65
4/15/2022 7:30:00 AM 6.6 43.88 0.297 7.79 4.81 11.83
4/15/2022 7:45:00 AM 6.58 43.844 0.297 7.84 4.8 12
4/15/2022 8:00:00 AM 6.58 43.844 0.297 7.89 4.79 12.16
4/15/2022 8:15:00 AM 6.6 43.88 0.297 7.94 4.73 12.31
4/15/2022 8:30:00 AM 6.65 43.97 0.297 7.99 4.75 12.45
4/15/2022 8:45:00 AM 6.73 44.114 0.297 8.06 4.78 12.57
4/15/2022 9:00:00 AM 6.85 44.33 0.297 8.1 4.68 12.67
4/15/2022 9:15:00 AM 6.99 44.582 0.298 8.15 4.7 12.76
4/15/2022 9:30:00 AM 7.14 44.852 0.298 8.2 4.54 12.84
4/15/2022 9:45:00 AM 7.31 45.158 0.298 8.26 4.64 12.9
4/15/2022 10:00:00 AM 7.51 45.518 0.298 8.31 4.58 12.95
4/15/2022 10:15:00 AM 7.74 45.932 0.297 8.36 4.51 13.01
4/15/2022 10:30:00 AM 8 46.4 0.297 8.42 4.67 13.03
4/15/2022 10:45:00 AM 8.31 46.958 0.296 8.48 4.6 13.06
4/15/2022 11:00:00 AM 8.6 47.48 0.296 8.53 4.64 13.05
4/15/2022 11:15:00 AM 8.91 48.038 0.296 8.59 4.98 13.07
4/15/2022 11:30:00 AM 9.24 48.632 0.296 8.64 5.76 13.05
4/15/2022 11:45:00 AM 9.55 49.19 0.295 8.69 7.54 13.02
4/15/2022 12:00:00 PM 9.76 49.568 0.295 8.72 8.53 12.93
4/15/2022 12:15:00 PM 10.06 50.108 0.295 8.76 8.11 12.87
4/15/2022 12:30:00 PM 10.27 50.486 0.295 8.8 6.91 12.8
4/15/2022 12:45:00 PM 10.36 50.648 0.295 8.83 6.09 12.75
4/15/2022 1:00:00 PM 10.42 50.756 0.294 8.87 5.59 12.7
4/15/2022 1:15:00 PM 10.47 50.846 0.294 8.9 5.4 12.63
4/15/2022 1:30:00 PM 10.47 50.846 0.294 8.92 5.98 12.56
4/15/2022 1:45:00 PM 10.66 51.188 0.294 8.94 7.38 12.49
4/15/2022 2:00:00 PM 11.16 52.088 0.294 8.97 8.11 12.51
4/15/2022 2:15:00 PM 11.66 52.988 0.293 9 8.64 12.48
4/15/2022 2:30:00 PM 12.01 53.618 0.293 9.03 9.12 12.44
4/15/2022 2:45:00 PM 12.1 53.78 0.293 9.05 9.4 12.36
4/15/2022 3:00:00 PM 12.11 53.798 0.293 9.06 8.55 12.27
4/15/2022 3:15:00 PM 12.05 53.69 0.292 9.08 7.56 12.2
4/15/2022 3:30:00 PM 12.01 53.618 0.292 9.09 6.59 12.07
4/15/2022 3:45:00 PM 12.24 54.032 0.292 9.11 5.88 12.06
4/15/2022 4:00:00 PM 12.48 54.464 0.292 9.13 5.45 12.04
4/15/2022 4:15:00 PM 12.44 54.392 0.292 9.14 5.29 11.97
4/15/2022 4:30:00 PM 12.29 54.122 0.292 9.13 5.37 11.76
4/15/2022 4:45:00 PM 12.33 54.194 0.292 9.12 5.58 11.7
4/15/2022 5:00:00 PM 12.48 54.464 0.292 9.13 5.49 11.75
4/15/2022 5:15:00 PM 12.58 54.644 0.291 9.15 5.96 11.75
4/15/2022 5:30:00 PM 12.6 54.68 0.291 9.16 6.1 11.71
4/15/2022 5:45:00 PM 12.53 54.554 0.291 9.16 6.39 11.55
4/15/2022 6:00:00 PM 12.44 54.392 0.291 9.14 6.75 11.46
4/15/2022 6:15:00 PM 12.36 54.248 0.291 9.12 7.08 11.38
4/15/2022 6:30:00 PM 12.33 54.194 0.291 9.12 7.1 11.26
4/15/2022 6:45:00 PM 12.31 54.158 0.291 9.11 6.9 11.18
4/15/2022 7:00:00 PM 12.26 54.068 0.291 9.1 6.72 11.05
4/15/2022 7:15:00 PM 12.2 53.96 0.292 9.06 6.29 10.84
4/15/2022 7:30:00 PM 12.1 53.78 0.292 9.02 6.17 10.66
4/15/2022 7:45:00 PM 12 53.6 0.292 8.97 5.81 10.52
4/15/2022 8:00:00 PM 11.89 53.402 0.292 8.93 5.28 10.41
4/15/2022 8:15:00 PM 11.8 53.24 0.292 8.89 5.13 10.34
4/15/2022 8:30:00 PM 11.71 53.078 0.292 8.86 4.85 10.28
4/15/2022 8:45:00 PM 11.61 52.898 0.292 8.82 4.73 10.24
4/15/2022 9:00:00 PM 11.52 52.736 0.293 8.75 4.57 10.21
4/15/2022 9:15:00 PM 11.42 52.556 0.293 8.7 4.57 10.19
4/15/2022 9:30:00 PM 11.32 52.376 0.293 8.65 4.47 10.18
4/15/2022 9:45:00 PM 11.26 52.268 0.294 8.6 4.49 10.18
4/15/2022 10:00:00 PM 11.19 52.142 0.294 8.53 4.54 10.18
4/15/2022 10:15:00 PM 11.13 52.034 0.295 8.48 4.41 10.15
4/15/2022 10:30:00 PM 11.07 51.926 0.295 8.4 4.48 10.15
4/15/2022 10:45:00 PM 11 51.8 0.295 8.32 4.44 10.13
4/15/2022 11:00:00 PM 10.91 51.638 0.296 8.24 4.4 10.15
4/15/2022 11:15:00 PM 10.82 51.476 0.296 8.17 4.42 10.15
4/15/2022 11:30:00 PM 10.75 51.35 0.297 8.1 4.33 10.16
4/15/2022 11:45:00 PM 10.68 51.224 0.297 8.06 4.4 10.17
4/16/2022 12:00:00 AM 10.6 51.08 0.297 8 4.46 10.18
4/16/2022 12:15:00 AM 10.54 50.972 0.297 7.97 4.29 10.2
4/16/2022 12:30:00 AM 10.48 50.864 0.298 7.92 4.38 10.21
4/16/2022 12:45:00 AM 10.4 50.72 0.298 7.9 4.37 10.22
4/16/2022 1:00:00 AM 10.32 50.576 0.298 7.87 4.64 10.24
4/16/2022 1:15:00 AM 10.24 50.432 0.298 7.85 4.38 10.25
4/16/2022 1:30:00 AM 10.16 50.288 0.299 7.83 4.42 10.27
4/16/2022 1:45:00 AM 10.1 50.18 0.299 7.82 4.41 10.3
4/16/2022 2:00:00 AM 10.04 50.072 0.299 7.8 4.52 10.31
4/16/2022 2:15:00 AM 9.98 49.964 0.299 7.79 4.45 10.32
4/16/2022 2:30:00 AM 9.92 49.856 0.3 7.78 4.48 10.34
4/16/2022 2:45:00 AM 9.86 49.748 0.3 7.77 4.4 10.35
4/16/2022 3:00:00 AM 9.8 49.64 0.3 7.76 4.47 10.36
4/16/2022 3:15:00 AM 9.74 49.532 0.301 7.76 4.51 10.39
4/16/2022 3:30:00 AM 9.69 49.442 0.301 7.76 4.48 10.41
4/16/2022 3:45:00 AM 9.62 49.316 0.301 7.76 4.41 10.42
4/16/2022 4:00:00 AM 9.56 49.208 0.301 7.75 4.49 10.44
4/16/2022 4:15:00 AM 9.51 49.118 0.302 7.74 4.42 10.46
4/16/2022 4:30:00 AM 9.46 49.028 0.302 7.74 4.45 10.47
4/16/2022 4:45:00 AM 9.41 48.938 0.302 7.74 4.28 10.48
4/16/2022 5:00:00 AM 9.36 48.848 0.302 7.73 4.37 10.51
4/16/2022 5:15:00 AM 9.31 48.758 0.303 7.73 4.37 10.51
4/16/2022 5:30:00 AM 9.27 48.686 0.303 7.73 4.42 10.53
4/16/2022 5:45:00 AM 9.23 48.614 0.303 7.72 4.31 10.54
4/16/2022 6:00:00 AM 9.19 48.542 0.303 7.72 4.31 10.56
4/16/2022 6:15:00 AM 9.15 48.47 0.303 7.73 4.31 10.57
4/16/2022 6:30:00 AM 9.12 48.416 0.304 7.73 4.47 10.59
4/16/2022 6:45:00 AM 9.09 48.362 0.304 7.73 4.34 10.61
4/16/2022 7:00:00 AM 9.06 48.308 0.304 7.73 4.49 10.67
4/16/2022 7:15:00 AM 9.04 48.272 0.304 7.74 4.36 10.71
4/16/2022 7:30:00 AM 9.03 48.254 0.304 7.75 4.42 10.8
4/16/2022 7:45:00 AM 9.02 48.236 0.304 7.8 4.3 10.92
4/16/2022 8:00:00 AM 9.03 48.254 0.304 7.83 4.21 11.1
4/16/2022 8:15:00 AM 9.04 48.272 0.304 7.88 4.16 11.31
4/16/2022 8:30:00 AM 9.04 48.272 0.304 7.92 4.24 11.37
4/16/2022 8:45:00 AM 9.05 48.29 0.304 7.95 4.25 11.44
4/16/2022 9:00:00 AM 9.07 48.326 0.304 8 4.28 11.58
4/16/2022 9:15:00 AM 9.09 48.362 0.304 8.04 4.18 11.7
4/16/2022 9:30:00 AM 9.09 48.362 0.304 8.07 4.25 11.76
4/16/2022 9:45:00 AM 9.1 48.38 0.304 8.11 4.23 11.8
4/16/2022 10:00:00 AM 9.1 48.38 0.304 8.13 4.06 11.78
4/16/2022 10:15:00 AM 9.07 48.326 0.305 8.12 4.2 11.66
4/16/2022 10:30:00 AM 9.03 48.254 0.305 8.1 4.15 11.6
4/16/2022 10:45:00 AM 9 48.2 0.305 8.1 4.32 11.65
4/16/2022 11:00:00 AM 8.98 48.164 0.304 8.13 4.09 11.7
4/16/2022 11:15:00 AM 8.96 48.128 0.304 8.15 4.1 11.72
4/16/2022 11:30:00 AM 8.95 48.11 0.304 8.18 4.13 11.79
4/16/2022 11:45:00 AM 8.96 48.128 0.304 8.21 4.17 11.82
4/16/2022 12:00:00 PM 8.94 48.092 0.303 8.23 4.13 11.8
4/16/2022 12:15:00 PM 8.92 48.056 0.303 8.23 4.26 11.8
4/16/2022 12:30:00 PM 8.89 48.002 0.302 8.24 4.47 11.73
4/16/2022 12:45:00 PM 8.87 47.966 0.3 8.24 4.71 11.75
4/16/2022 1:00:00 PM 8.89 48.002 0.3 8.29 4.93 11.89
4/16/2022 1:15:00 PM 8.92 48.056 0.3 8.34 5.85 11.98
4/16/2022 1:30:00 PM 8.92 48.056 0.3 8.38 5.78 11.99
4/16/2022 1:45:00 PM 8.89 48.002 0.3 8.4 4.91 11.97
4/16/2022 2:00:00 PM 8.85 47.93 0.301 8.37 4.9 11.85
4/16/2022 2:15:00 PM 8.83 47.894 0.3 8.36 5.36 11.87
4/16/2022 2:30:00 PM 8.84 47.912 0.3 8.41 6.14 12
4/16/2022 2:45:00 PM 8.86 47.948 0.3 8.46 6.6 12.11
4/16/2022 3:00:00 PM 8.93 48.074 0.3 8.51 6.52 12.22
4/16/2022 3:15:00 PM 8.92 48.056 0.3 8.53 6.22 12.22
4/16/2022 3:30:00 PM 8.9 48.02 0.3 8.5 7.15 12.11
4/16/2022 3:45:00 PM 8.94 48.092 0.299 8.55 8.06 12.21
4/16/2022 4:00:00 PM 9.09 48.362 0.299 8.58 7.75 12.31
4/16/2022 4:15:00 PM 9.18 48.524 0.299 8.65 7.34 12.43
4/16/2022 4:30:00 PM 9.28 48.704 0.3 8.69 7.57 12.44
4/16/2022 4:45:00 PM 9.32 48.776 0.301 8.7 7.32 12.44
4/16/2022 5:00:00 PM 9.31 48.758 0.301 8.71 7.33 12.4
4/16/2022 5:15:00 PM 9.4 48.92 0.302 8.74 7.35 12.4
4/16/2022 5:30:00 PM 9.44 48.992 0.303 8.76 7.62 12.36
4/16/2022 5:45:00 PM 9.45 49.01 0.304 8.78 7.97 12.32
4/16/2022 6:00:00 PM 9.37 48.866 0.303 8.75 9.17 12.18
4/16/2022 6:15:00 PM 9.38 48.884 0.302 8.76 9.65 12.1
4/16/2022 6:30:00 PM 9.36 48.848 0.301 8.76 9.52 11.98
4/16/2022 6:45:00 PM 9.39 48.902 0.299 8.78 9.13 11.9
4/16/2022 7:00:00 PM 9.4 48.92 0.297 8.75 8.94 11.77
4/16/2022 7:15:00 PM 9.4 48.92 0.295 8.73 8.59 11.65
4/16/2022 7:30:00 PM 9.38 48.884 0.292 8.71 7.8 11.51
4/16/2022 7:45:00 PM 9.31 48.758 0.289 8.66 7.87 11.37
4/16/2022 8:00:00 PM 9.23 48.614 0.287 8.6 7.78 11.25
4/16/2022 8:15:00 PM 9.13 48.434 0.285 8.53 7.82 11.16
4/16/2022 8:30:00 PM 9.05 48.29 0.283 8.46 8.14 11.09
4/16/2022 8:45:00 PM 8.94 48.092 0.281 8.37 8.68 11.04
4/16/2022 9:00:00 PM 8.86 47.948 0.281 8.29 9.14 11.01
4/16/2022 9:15:00 PM 8.76 47.768 0.28 8.22 9.89 10.99
4/16/2022 9:30:00 PM 8.65 47.57 0.281 8.15 10.43 10.99
4/16/2022 9:45:00 PM 8.54 47.372 0.281 8.09 10.61 10.97
4/16/2022 10:00:00 PM 8.46 47.228 0.281 8.06 10.94 10.99
4/16/2022 10:15:00 PM 8.36 47.048 0.28 8 11.06 10.99
4/16/2022 10:30:00 PM 8.24 46.832 0.28 7.96 11.11 11
4/16/2022 10:45:00 PM 8.12 46.616 0.28 7.93 10.97 11.02
4/16/2022 11:00:00 PM 8 46.4 0.28 7.93 11.29 11.05
4/16/2022 11:15:00 PM 7.88 46.184 0.28 7.9 11.16 11.08
4/16/2022 11:30:00 PM 7.76 45.968 0.28 7.85 10.9 11.11
4/16/2022 11:45:00 PM 7.64 45.752 0.281 7.84 10.95 11.14
4/17/2022 12:00:00 AM 7.54 45.572 0.282 7.82 10.66 11.17
4/17/2022 12:15:00 AM 7.45 45.41 0.283 7.81 10.19 11.2
4/17/2022 12:30:00 AM 7.35 45.23 0.284 7.79 9.96 11.22
4/17/2022 12:45:00 AM 7.27 45.086 0.285 7.82 9.69 11.24
4/17/2022 1:00:00 AM 7.2 44.96 0.286 7.81 9.26 11.27
4/17/2022 1:15:00 AM 7.14 44.852 0.287 7.8 9.13 11.29
4/17/2022 1:30:00 AM 7.08 44.744 0.287 7.78 8.76 11.31
4/17/2022 1:45:00 AM 7.02 44.636 0.288 7.76 8.82 11.34
4/17/2022 2:00:00 AM 6.94 44.492 0.288 7.76 8.63 11.36
4/17/2022 2:15:00 AM 6.87 44.366 0.288 7.75 8.52 11.38
4/17/2022 2:30:00 AM 6.79 44.222 0.288 7.75 8.34 11.39
4/17/2022 2:45:00 AM 6.74 44.132 0.288 7.75 7.9 11.41
4/17/2022 3:00:00 AM 6.68 44.024 0.288 7.75 8.04 11.43
4/17/2022 3:15:00 AM 6.63 43.934 0.288 7.74 7.6 11.45
4/17/2022 3:30:00 AM 6.59 43.862 0.288 7.77 7.51 11.47
4/17/2022 3:45:00 AM 6.55 43.79 0.287 7.74 7.41 11.47
4/17/2022 4:00:00 AM 6.5 43.7 0.287 7.74 7.38 11.48
4/17/2022 4:15:00 AM 6.46 43.628 0.287 7.74 7.32 11.49
4/17/2022 4:30:00 AM 6.41 43.538 0.287 7.75 7.06 11.5
4/17/2022 4:45:00 AM 6.36 43.448 0.287 7.74 6.89 11.53
4/17/2022 5:00:00 AM 6.33 43.394 0.288 7.74 6.74 11.52
4/17/2022 5:15:00 AM 6.29 43.322 0.288 7.74 6.78 11.57
4/17/2022 5:30:00 AM 6.24 43.232 0.288 7.76 6.54 11.56
4/17/2022 5:45:00 AM 6.19 43.142 0.288 7.75 6.47 11.58
4/17/2022 6:00:00 AM 6.14 43.052 0.288 7.74 6.53 11.6
4/17/2022 6:15:00 AM 6.1 42.98 0.288 7.74 6.34 11.62
4/17/2022 6:30:00 AM 6.05 42.89 0.288 7.74 6.39 11.63
4/17/2022 6:45:00 AM 6 42.8 0.288 7.74 6.18 11.66
4/17/2022 7:00:00 AM 5.92 42.656 0.288 7.74 6.14 11.69
4/17/2022 7:15:00 AM 5.83 42.494 0.288 7.76 5.96 11.78
4/17/2022 7:30:00 AM 5.8 42.44 0.288 7.79 5.96 11.92
4/17/2022 7:45:00 AM 5.79 42.422 0.288 7.83 5.87 12.12
4/17/2022 8:00:00 AM 5.83 42.494 0.288 7.89 5.84 12.32
4/17/2022 8:15:00 AM 5.84 42.512 0.288 7.94 5.82 12.46
4/17/2022 8:30:00 AM 5.82 42.476 0.288 7.99 5.44 12.6
4/17/2022 8:45:00 AM 5.82 42.476 0.288 8.03 5.5 12.69
4/17/2022 9:00:00 AM 5.82 42.476 0.288 8.07 5.48 12.78
4/17/2022 9:15:00 AM 5.83 42.494 0.288 8.11 5.78 12.85
4/17/2022 9:30:00 AM 5.88 42.584 0.288 8.15 5.58 12.93
4/17/2022 9:45:00 AM 5.87 42.566 0.288 8.19 5.54 12.98
4/17/2022 10:00:00 AM 5.84 42.512 0.288 8.22 5.61 13.01
4/17/2022 10:15:00 AM 5.89 42.602 0.287 8.25 5.37 13.07
4/17/2022 10:30:00 AM 5.93 42.674 0.287 8.29 5.27 13.14
4/17/2022 10:45:00 AM 6.04 42.872 0.287 8.34 5.18 13.21
4/17/2022 11:00:00 AM 6.12 43.016 0.287 8.39 5.16 13.26
4/17/2022 11:15:00 AM 6.09 42.962 0.287 8.42 5.16 13.23
4/17/2022 11:30:00 AM 6.18 43.124 0.287 8.46 4.98 13.26
4/17/2022 11:45:00 AM 6.24 43.232 0.287 8.5 4.95 13.27
4/17/2022 12:00:00 PM 6.21 43.178 0.286 8.53 4.86 13.29
4/17/2022 12:15:00 PM 6.69 44.042 0.286 8.56 5.07 13.27
4/17/2022 12:30:00 PM 6.98 44.564 0.286 8.59 5 13.25
4/17/2022 12:45:00 PM 7.1 44.78 0.286 8.62 4.96 13.24
4/17/2022 1:00:00 PM 7.48 45.464 0.286 8.65 4.96 13.19
4/17/2022 1:15:00 PM 7.53 45.554 0.285 8.67 4.73 13.14
4/17/2022 1:30:00 PM 7.59 45.662 0.285 8.69 4.91 13.11
4/17/2022 1:45:00 PM 7.83 46.094 0.285 8.71 4.87 13.08
4/17/2022 2:00:00 PM 8.24 46.832 0.285 8.74 4.82 13.01
4/17/2022 2:15:00 PM 8.44 47.192 0.285 8.77 4.77 12.98
4/17/2022 2:30:00 PM 8.71 47.678 0.284 8.78 4.72 12.94
4/17/2022 2:45:00 PM 9.08 48.344 0.284 8.82 4.55 12.88
4/17/2022 3:00:00 PM 9.21 48.578 0.284 8.83 4.61 12.81
4/17/2022 3:15:00 PM 9.28 48.704 0.284 8.84 4.57 12.72
4/17/2022 3:30:00 PM 9.37 48.866 0.284 8.86 4.72 12.65
4/17/2022 3:45:00 PM 9.66 49.388 0.284 8.88 4.59 12.62
4/17/2022 4:00:00 PM 9.92 49.856 0.283 8.9 4.52 12.57
4/17/2022 4:15:00 PM 10.11 50.198 0.283 8.92 4.62 12.51
4/17/2022 4:30:00 PM 10.29 50.522 0.283 8.93 4.53 12.45
4/17/2022 4:45:00 PM 10.35 50.63 0.283 8.94 4.47 12.36
4/17/2022 5:00:00 PM 10.51 50.918 0.283 8.95 4.37 12.33
4/17/2022 5:15:00 PM 10.36 50.648 0.283 8.95 4.44 12.2
4/17/2022 5:30:00 PM 10.26 50.468 0.283 8.95 4.47 12.12
4/17/2022 5:45:00 PM 10.27 50.486 0.282 8.96 4.48 12.06
4/17/2022 6:00:00 PM 10.23 50.414 0.282 8.95 4.48 12.01
4/17/2022 6:15:00 PM 10.13 50.234 0.282 8.94 4.49 11.9
4/17/2022 6:30:00 PM 10.08 50.144 0.282 8.94 4.28 11.84
4/17/2022 6:45:00 PM 10.08 50.144 0.282 8.93 4.26 11.78
4/17/2022 7:00:00 PM 10.07 50.126 0.282 8.93 4.29 11.74
4/17/2022 7:15:00 PM 10.01 50.018 0.282 8.91 4.22 11.63
4/17/2022 7:30:00 PM 9.9 49.82 0.282 8.87 4.22 11.49
4/17/2022 7:45:00 PM 9.79 49.622 0.283 8.83 4.26 11.36
4/17/2022 8:00:00 PM 9.71 49.478 0.283 8.8 4.29 11.25
4/17/2022 8:15:00 PM 9.61 49.298 0.283 8.76 4.14 11.14
4/17/2022 8:30:00 PM 9.49 49.082 0.283 8.71 4.18 11.09
4/17/2022 8:45:00 PM 9.35 48.83 0.283 8.66 4.21 11.04
4/17/2022 9:00:00 PM 9.19 48.542 0.284 8.61 4.29 11.02
4/17/2022 9:15:00 PM 9.03 48.254 0.284 8.56 4.3 11.01
4/17/2022 9:30:00 PM 8.87 47.966 0.285 8.5 4.17 11.01
4/17/2022 9:45:00 PM 8.73 47.714 0.285 8.42 4.3 11.02
4/17/2022 10:00:00 PM 8.57 47.426 0.285 8.34 4.28 11.04
4/17/2022 10:15:00 PM 8.41 47.138 0.286 8.26 4.29 11.06
4/17/2022 10:30:00 PM 8.26 46.868 0.286 8.18 4.33 11.07
4/17/2022 10:45:00 PM 8.11 46.598 0.287 8.12 4.26 11.09
4/17/2022 11:00:00 PM 7.96 46.328 0.287 8.06 4.26 11.11
4/17/2022 11:15:00 PM 7.81 46.058 0.287 8.01 4.4 11.14
4/17/2022 11:30:00 PM 7.66 45.788 0.287 7.97 4.26 11.17
4/17/2022 11:45:00 PM 7.52 45.536 0.288 7.92 4.32 11.2
4/18/2022 12:00:00 AM 7.37 45.266 0.288 7.89 4.51 11.24
4/18/2022 12:15:00 AM 7.23 45.014 0.288 7.86 4.38 11.27
4/18/2022 12:30:00 AM 7.1 44.78 0.288 7.84 4.34 11.31
4/18/2022 12:45:00 AM 6.97 44.546 0.289 7.84 4.34 11.35
4/18/2022 1:00:00 AM 6.83 44.294 0.289 7.83 4.4 11.38
4/18/2022 1:15:00 AM 6.71 44.078 0.289 7.79 4.31 11.41
4/18/2022 1:30:00 AM 6.58 43.844 0.289 7.77 4.25 11.46
4/18/2022 1:45:00 AM 6.46 43.628 0.289 7.76 4.28 11.5
4/18/2022 2:00:00 AM 6.33 43.394 0.29 7.75 4.26 11.53
4/18/2022 2:15:00 AM 6.21 43.178 0.29 7.74 4.28 11.58
4/18/2022 2:30:00 AM 6.09 42.962 0.29 7.73 4.35 11.6
4/18/2022 2:45:00 AM 5.97 42.746 0.29 7.72 4.3 11.64
4/18/2022 3:00:00 AM 5.86 42.548 0.291 7.73 4.27 11.68
4/18/2022 3:15:00 AM 5.75 42.35 0.291 7.71 4.28 11.72
4/18/2022 3:30:00 AM 5.64 42.152 0.291 7.71 4.29 11.75
4/18/2022 3:45:00 AM 5.54 41.972 0.292 7.7 4.25 11.78
4/18/2022 4:00:00 AM 5.43 41.774 0.292 7.7 4.35 11.82
4/18/2022 4:15:00 AM 5.32 41.576 0.292 7.7 4.26 11.86
4/18/2022 4:30:00 AM 5.22 41.396 0.293 7.69 4.29 11.88
4/18/2022 4:45:00 AM 5.12 41.216 0.293 7.69 4.18 11.92
4/18/2022 5:00:00 AM 5.03 41.054 0.293 7.69 4.27 11.95
4/18/2022 5:15:00 AM 4.93 40.874 0.294 7.69 4.28 11.98
4/18/2022 5:30:00 AM 4.84 40.712 0.294 7.69 4.16 12.01
4/18/2022 5:45:00 AM 4.74 40.532 0.294 7.69 4.16 12.05
4/18/2022 6:00:00 AM 4.64 40.352 0.294 7.69 4.1 12.07
4/18/2022 6:15:00 AM 4.55 40.19 0.295 7.71 4.11 12.1
4/18/2022 6:30:00 AM 4.47 40.046 0.295 7.69 4.13 12.16
4/18/2022 6:45:00 AM 4.39 39.902 0.295 7.7 4.13 12.24
4/18/2022 7:00:00 AM 4.32 39.776 0.295 7.72 4.13 12.35
4/18/2022 7:15:00 AM 4.27 39.686 0.295 7.75 4.11 12.49
4/18/2022 7:30:00 AM 4.24 39.632 0.296 7.78 4.04 12.65
4/18/2022 7:45:00 AM 4.23 39.614 0.296 7.82 4.16 12.8
4/18/2022 8:00:00 AM 4.24 39.632 0.296 7.86 4.16 12.93
4/18/2022 8:15:00 AM 4.26 39.668 0.296 7.9 4.01 13.08
4/18/2022 8:30:00 AM 4.33 39.794 0.296 7.94 4.11 13.18
4/18/2022 8:45:00 AM 4.41 39.938 0.296 7.98 4.1 13.28
4/18/2022 9:00:00 AM 4.53 40.154 0.296 8.02 4.19 13.35
4/18/2022 9:15:00 AM 4.62 40.316 0.296 8.06 4.09 13.4
4/18/2022 9:30:00 AM 4.75 40.55 0.296 8.1 4.14 13.46
4/18/2022 9:45:00 AM 4.92 40.856 0.296 8.15 4.07 13.51
4/18/2022 10:00:00 AM 5.07 41.126 0.296 8.19 4.17 13.56
4/18/2022 10:15:00 AM 5.29 41.522 0.295 8.23 4.06 13.56
4/18/2022 10:30:00 AM 5.41 41.738 0.295 8.27 4.11 13.58
4/18/2022 10:45:00 AM 5.48 41.864 0.295 8.3 3.99 13.57
4/18/2022 11:00:00 AM 5.56 42.008 0.295 8.34 4.04 13.58
4/18/2022 11:15:00 AM 5.77 42.386 0.295 8.39 4.12 13.58
4/18/2022 11:30:00 AM 5.98 42.764 0.295 8.43 4.1 13.59
4/18/2022 11:45:00 AM 6.11 42.998 0.294 8.47 4.51 13.56
4/18/2022 12:00:00 PM 6.19 43.142 0.294 8.51 4.99 13.49
4/18/2022 12:15:00 PM 6.26 43.268 0.294 8.54 5.03 13.48
4/18/2022 12:30:00 PM 6.31 43.358 0.294 8.57 5.32 13.45
4/18/2022 12:45:00 PM 6.38 43.484 0.294 8.59 5.05 13.43
4/18/2022 1:00:00 PM 6.49 43.682 0.294 8.63 4.95 13.41
4/18/2022 1:15:00 PM 6.58 43.844 0.294 8.65 4.78 13.34
4/18/2022 1:30:00 PM 6.68 44.024 0.294 8.68 4.5 13.31
4/18/2022 1:45:00 PM 6.73 44.114 0.294 8.7 4.36 13.25
4/18/2022 2:00:00 PM 6.83 44.294 0.294 8.71 4.32 13.22
4/18/2022 2:15:00 PM 6.95 44.51 0.293 8.74 4.25 13.2
4/18/2022 2:30:00 PM 7.02 44.636 0.293 8.75 4.06 13.17
4/18/2022 2:45:00 PM 7.1 44.78 0.293 8.78 4.2 13.14
4/18/2022 3:00:00 PM 7.17 44.906 0.293 8.8 4.11 13.11
4/18/2022 3:15:00 PM 7.18 44.924 0.293 8.81 4.07 13.06
4/18/2022 3:30:00 PM 7.19 44.942 0.293 8.82 4.03 13.04
4/18/2022 3:45:00 PM 7.17 44.906 0.293 8.83 4.05 12.97
4/18/2022 4:00:00 PM 7.13 44.834 0.293 8.82 4.04 12.89
4/18/2022 4:15:00 PM 7.07 44.726 0.293 8.82 4.1 12.81
4/18/2022 4:30:00 PM 7.01 44.618 0.293 8.8 4.02 12.77
4/18/2022 4:45:00 PM 6.92 44.456 0.292 8.79 4.07 12.68
4/18/2022 5:00:00 PM 6.82 44.276 0.292 8.77 4.01 12.56
4/18/2022 5:15:00 PM 6.69 44.042 0.292 8.74 4.15 12.44
4/18/2022 5:30:00 PM 6.56 43.808 0.292 8.71 4.25 12.37
4/18/2022 5:45:00 PM 6.45 43.61 0.292 8.69 4.17 12.37
4/18/2022 6:00:00 PM 6.36 43.448 0.291 8.68 4.37 12.37
4/18/2022 6:15:00 PM 6.25 43.25 0.291 8.67 4.44 12.34
4/18/2022 6:30:00 PM 6.14 43.052 0.291 8.64 4.44 12.3
4/18/2022 6:45:00 PM 5.99 42.782 0.29 8.6 4.67 12.25
4/18/2022 7:00:00 PM 5.84 42.512 0.29 8.56 4.75 12.21
4/18/2022 7:15:00 PM 5.75 42.35 0.29 8.51 6.14 12.17
4/18/2022 7:30:00 PM 5.61 42.098 0.289 8.44 8.8 12.09
4/18/2022 7:45:00 PM 5.47 41.846 0.289 8.37 9.41 12.05
4/18/2022 8:00:00 PM 5.28 41.504 0.289 8.3 8.06 12.03
4/18/2022 8:15:00 PM 5.1 41.18 0.288 8.23 7.32 12.03
4/18/2022 8:30:00 PM 4.97 40.946 0.288 8.16 6.4 12.04
4/18/2022 8:45:00 PM 4.88 40.784 0.288 8.11 5.87 12.04
4/18/2022 9:00:00 PM 4.84 40.712 0.288 8.05 5.89 12.06
4/18/2022 9:15:00 PM 4.8 40.64 0.288 8.01 5.62 12.07
4/18/2022 9:30:00 PM 4.74 40.532 0.288 7.97 5.46 12.08
4/18/2022 9:45:00 PM 4.67 40.406 0.289 7.94 5.38 12.1
4/18/2022 10:00:00 PM 4.6 40.28 0.29 7.91 5.42 12.11
4/18/2022 10:15:00 PM 4.53 40.154 0.291 7.88 5.38 12.13
4/18/2022 10:30:00 PM 4.48 40.064 0.292 7.86 5.48 12.13
4/18/2022 10:45:00 PM 4.43 39.974 0.293 7.84 5.71 12.15
4/18/2022 11:00:00 PM 4.37 39.866 0.293 7.82 5.85 12.15
4/18/2022 11:15:00 PM 4.32 39.776 0.293 7.83 5.86 12.16
4/18/2022 11:30:00 PM 4.27 39.686 0.293 7.8 5.98 12.17
4/18/2022 11:45:00 PM 4.2 39.56 0.293 7.78 5.92 12.17
4/19/2022 12:00:00 AM 4.15 39.47 0.294 7.77 5.62 12.18
4/19/2022 12:15:00 AM 4.12 39.416 0.294 7.76 6.01 12.18
4/19/2022 12:30:00 AM 4.12 39.416 0.295 7.76 5.88 12.19
4/19/2022 12:45:00 AM 4.13 39.434 0.295 7.75 6 12.19
4/19/2022 1:00:00 AM 4.13 39.434 0.295 7.75 6.05 12.19
4/19/2022 1:15:00 AM 4.13 39.434 0.296 7.74 6.03 12.19
4/19/2022 1:30:00 AM 4.12 39.416 0.297 7.74 5.99 12.19
4/19/2022 1:45:00 AM 4.11 39.398 0.298 7.74 5.82 12.19
4/19/2022 2:00:00 AM 4.08 39.344 0.298 7.73 6.19 12.18
4/19/2022 2:15:00 AM 4.03 39.254 0.298 7.74 5.9 12.19
4/19/2022 2:30:00 AM 3.98 39.164 0.297 7.73 6.06 12.19
4/19/2022 2:45:00 AM 3.96 39.128 0.297 7.72 6.06 12.2
4/19/2022 3:00:00 AM 3.95 39.11 0.296 7.72 6.12 12.21
4/19/2022 3:15:00 AM 3.96 39.128 0.297 7.72 6.09 12.21
4/19/2022 3:30:00 AM 3.97 39.146 0.297 7.73 6.01 12.21
4/19/2022 3:45:00 AM 3.97 39.146 0.297 7.74 6.08 12.22
4/19/2022 4:00:00 AM 3.97 39.146 0.297 7.74 5.92 12.21
4/19/2022 4:15:00 AM 3.96 39.128 0.297 7.72 5.89 12.22
4/19/2022 4:30:00 AM 3.96 39.128 0.298 7.72 6.19 12.22
4/19/2022 4:45:00 AM 3.95 39.11 0.298 7.72 6.13 12.22
4/19/2022 5:00:00 AM 3.94 39.092 0.298 7.72 6.17 12.23
4/19/2022 5:15:00 AM 3.93 39.074 0.298 7.72 6.04 12.23
4/19/2022 5:30:00 AM 3.92 39.056 0.297 7.72 6.09 12.23
4/19/2022 5:45:00 AM 3.91 39.038 0.297 7.72 5.89 12.23
4/19/2022 6:00:00 AM 3.9 39.02 0.297 7.72 5.99 12.23
4/19/2022 6:15:00 AM 3.89 39.002 0.298 7.72 5.85 12.24
4/19/2022 6:30:00 AM 3.87 38.966 0.298 7.72 6.19 12.25
4/19/2022 6:45:00 AM 3.87 38.966 0.298 7.73 5.84 12.27
4/19/2022 7:00:00 AM 3.87 38.966 0.299 7.75 5.95 12.31
4/19/2022 7:15:00 AM 3.88 38.984 0.299 7.76 6.02 12.4
4/19/2022 7:30:00 AM 3.9 39.02 0.299 7.79 5.89 12.54
4/19/2022 7:45:00 AM 3.92 39.056 0.299 7.82 5.64 12.65
4/19/2022 8:00:00 AM 3.93 39.074 0.299 7.85 5.68 12.71
4/19/2022 8:15:00 AM 3.97 39.146 0.299 7.87 5.5 12.8
4/19/2022 8:30:00 AM 3.99 39.182 0.3 7.9 5.29 12.89
4/19/2022 8:45:00 AM 4.06 39.308 0.3 7.94 5.22 13
4/19/2022 9:00:00 AM 4.18 39.524 0.3 8 5.25 13.1
4/19/2022 9:15:00 AM 4.29 39.722 0.301 8.03 5.23 13.17
4/19/2022 9:30:00 AM 4.4 39.92 0.301 8.08 5.3 13.23
4/19/2022 9:45:00 AM 4.51 40.118 0.301 8.11 5.19 13.24
4/19/2022 10:00:00 AM 4.62 40.316 0.302 8.15 5.3 13.28
4/19/2022 10:15:00 AM 4.69 40.442 0.302 8.18 5.27 13.3
4/19/2022 10:30:00 AM 4.82 40.676 0.302 8.23 5.22 13.32
4/19/2022 10:45:00 AM 5.04 41.072 0.303 8.26 5.18 13.34
4/19/2022 11:00:00 AM 5.12 41.216 0.303 8.3 5.2 13.35
4/19/2022 11:15:00 AM 5.22 41.396 0.303 8.34 4.88 13.35
4/19/2022 11:30:00 AM 5.28 41.504 0.303 8.37 5.03 13.33
4/19/2022 11:45:00 AM 5.38 41.684 0.303 8.41 4.92 13.34
4/19/2022 12:00:00 PM 5.59 42.062 0.303 8.45 5.05 13.33
4/19/2022 12:15:00 PM 5.8 42.44 0.304 8.48 5.1 13.3
4/19/2022 12:30:00 PM 5.88 42.584 0.304 8.51 5.29 13.27
4/19/2022 12:45:00 PM 6.01 42.818 0.303 8.53 5 13.24
4/19/2022 1:00:00 PM 6.26 43.268 0.303 8.56 4.94 13.21
4/19/2022 1:15:00 PM 6.49 43.682 0.303 8.59 4.95 13.16
4/19/2022 1:30:00 PM 6.72 44.096 0.303 8.61 4.97 13.12
4/19/2022 1:45:00 PM 6.91 44.438 0.304 8.63 5.03 13.07
4/19/2022 2:00:00 PM 7.12 44.816 0.304 8.64 6.46 12.99
4/19/2022 2:15:00 PM 7.38 45.284 0.308 8.63 15.26 12.86
4/19/2022 2:30:00 PM 7.49 45.482 0.312 8.64 17.26 12.81
4/19/2022 2:45:00 PM 7.62 45.716 0.317 8.67 12.34 12.8
4/19/2022 3:00:00 PM 7.7 45.86 0.326 8.7 8.44 12.79
4/19/2022 3:15:00 PM 7.87 46.166 0.331 8.73 6.83 12.74
4/19/2022 3:30:00 PM 8.05 46.49 0.326 8.75 6.14 12.67
4/19/2022 3:45:00 PM 8.18 46.724 0.319 8.76 5.98 12.63
4/19/2022 4:00:00 PM 8.2 46.76 0.313 8.77 5.66 12.54
4/19/2022 4:15:00 PM 8.29 46.922 0.31 8.78 5.92 12.49
4/19/2022 4:30:00 PM 8.42 47.156 0.308 8.78 6 12.45
4/19/2022 4:45:00 PM 8.51 47.318 0.306 8.79 6.09 12.39
4/19/2022 5:00:00 PM 8.51 47.318 0.304 8.79 6.73 12.34
4/19/2022 5:15:00 PM 8.51 47.318 0.302 8.79 7.31 12.3
4/19/2022 5:30:00 PM 8.54 47.372 0.301 8.78 7.86 12.23
4/19/2022 5:45:00 PM 8.48 47.264 0.299 8.77 8.01 12.16
4/19/2022 6:00:00 PM 8.4 47.12 0.297 8.75 8.1 12.11
4/19/2022 6:15:00 PM 8.37 47.066 0.296 8.73 8.52 12.07
4/19/2022 6:30:00 PM 8.3 46.94 0.295 8.71 9.12 12.01
4/19/2022 6:45:00 PM 8.17 46.706 0.295 8.66 11.29 11.9
4/19/2022 7:00:00 PM 8.05 46.49 0.294 8.56 16.8 11.75
4/19/2022 7:15:00 PM 7.9 46.22 0.293 8.37 33.59 11.59
4/19/2022 7:30:00 PM 7.73 45.914 0.289 8.14 50.09 11.47
4/19/2022 7:45:00 PM 7.57 45.626 0.288 8.04 50.88 11.44
4/19/2022 8:00:00 PM 7.41 45.338 0.286 7.98 52.89 11.44
4/19/2022 8:15:00 PM 7.28 45.104 0.285 7.93 85.18 11.41
4/19/2022 8:30:00 PM 7.13 44.834 0.284 7.87 136.48 11.42
4/19/2022 8:45:00 PM 7.01 44.618 0.282 7.84 160.72 11.43
4/19/2022 9:00:00 PM 6.9 44.42 0.281 7.82 148.96 11.46
4/19/2022 9:15:00 PM 6.78 44.204 0.279 7.83 112.53 11.49
4/19/2022 9:30:00 PM 6.67 44.006 0.278 7.82 72.5 11.52
4/19/2022 9:45:00 PM 6.55 43.79 0.278 7.8 54.15 11.56
4/19/2022 10:00:00 PM 6.43 43.574 0.278 7.78 40.1 11.59
4/19/2022 10:15:00 PM 6.31 43.358 0.277 7.77 41.75 11.64
4/19/2022 10:30:00 PM 6.18 43.124 0.277 7.77 39.99 11.66
4/19/2022 10:45:00 PM 6.06 42.908 0.276 7.76 39.11 11.71
4/19/2022 11:00:00 PM 5.95 42.71 0.275 7.75 38.75 11.74
4/19/2022 11:15:00 PM 5.84 42.512 0.273 7.75 35.56 11.77
4/19/2022 11:30:00 PM 5.73 42.314 0.272 7.75 34.69 11.81
4/19/2022 11:45:00 PM 5.64 42.152 0.271 7.75 31.63 11.85
4/20/2022 12:00:00 AM 5.54 41.972 0.271 7.75 32 11.88
4/20/2022 12:15:00 AM 5.45 41.81 0.27 7.74 29.45 11.91
4/20/2022 12:30:00 AM 5.37 41.666 0.27 7.72 27.39 11.95
4/20/2022 12:45:00 AM 5.28 41.504 0.269 7.72 27.94 11.98
4/20/2022 1:00:00 AM 5.2 41.36 0.269 7.71 25.81 12
4/20/2022 1:15:00 AM 5.14 41.252 0.269 7.71 24.66 12.04
4/20/2022 1:30:00 AM 5.07 41.126 0.269 7.71 24.42 12.05
4/20/2022 1:45:00 AM 5 41 0.269 7.74 19.52 12.08
4/20/2022 2:00:00 AM 4.93 40.874 0.269 7.73 22.68 12.1
4/20/2022 2:15:00 AM 4.87 40.766 0.269 7.73 21.16 12.13
4/20/2022 2:30:00 AM 4.82 40.676 0.269 7.71 20.74 12.15
4/20/2022 2:45:00 AM 4.78 40.604 0.269 7.7 19.26 12.17
4/20/2022 3:00:00 AM 4.74 40.532 0.27 7.7 19.86 12.18
4/20/2022 3:15:00 AM 4.7 40.46 0.27 7.7 18.38 12.19
4/20/2022 3:30:00 AM 4.65 40.37 0.27 7.71 17.87 12.21
4/20/2022 3:45:00 AM 4.6 40.28 0.27 7.71 17.49 12.22
4/20/2022 4:00:00 AM 4.55 40.19 0.271 7.71 17.22 12.24
4/20/2022 4:15:00 AM 4.51 40.118 0.271 7.72 15.01 12.25
4/20/2022 4:30:00 AM 4.47 40.046 0.271 7.7 15.36 12.27
4/20/2022 4:45:00 AM 4.44 39.992 0.271 7.69 15.06 12.28
4/20/2022 5:00:00 AM 4.4 39.92 0.272 7.69 14.81 12.31
4/20/2022 5:15:00 AM 4.37 39.866 0.272 7.69 14.77 12.31
4/20/2022 5:30:00 AM 4.34 39.812 0.272 7.69 13.72 12.32
4/20/2022 5:45:00 AM 4.3 39.74 0.272 7.69 13.54 12.34
4/20/2022 6:00:00 AM 4.27 39.686 0.273 7.69 12.84 12.35
4/20/2022 6:15:00 AM 4.23 39.614 0.273 7.69 12.89 12.37
4/20/2022 6:30:00 AM 4.2 39.56 0.273 7.69 12.47 12.39
4/20/2022 6:45:00 AM 4.18 39.524 0.273 7.71 12.22 12.42
4/20/2022 7:00:00 AM 4.16 39.488 0.273 7.73 11.91 12.47
4/20/2022 7:15:00 AM 4.15 39.47 0.274 7.74 11.43 12.51
4/20/2022 7:30:00 AM 4.14 39.452 0.274 7.74 11.55 12.59
4/20/2022 7:45:00 AM 4.12 39.416 0.274 7.75 11.46 12.68
4/20/2022 8:00:00 AM 4.11 39.398 0.274 7.77 11.32 12.75
4/20/2022 8:15:00 AM 4.15 39.47 0.274 7.81 10.44 12.81
4/20/2022 8:30:00 AM 4.23 39.614 0.275 7.83 10.47 12.9
4/20/2022 8:45:00 AM 4.32 39.776 0.275 7.86 10.1 12.97
4/20/2022 9:00:00 AM 4.41 39.938 0.275 7.88 10.13 13.02
4/20/2022 9:15:00 AM 4.54 40.172 0.275 7.91 9.74 13.07
4/20/2022 9:30:00 AM 4.72 40.496 0.275 7.94 9.45 13.11
4/20/2022 9:45:00 AM 4.91 40.838 0.275 7.96 9.52 13.13
4/20/2022 10:00:00 AM 5.12 41.216 0.275 8 9.08 13.15
4/20/2022 10:15:00 AM 5.34 41.612 0.275 8.02 8.88 13.13
4/20/2022 10:30:00 AM 5.56 42.008 0.275 8.05 8.46 13.12
4/20/2022 10:45:00 AM 5.83 42.494 0.275 8.09 8.6 13.12
4/20/2022 11:00:00 AM 6.14 43.052 0.275 8.12 8.4 13.07
4/20/2022 11:15:00 AM 6.42 43.556 0.275 8.15 8.14 13.03
4/20/2022 11:30:00 AM 6.74 44.132 0.275 8.19 7.95 13
4/20/2022 11:45:00 AM 7.08 44.744 0.275 8.22 7.69 12.95
4/20/2022 12:00:00 PM 7.4 45.32 0.275 8.24 7.79 12.88
4/20/2022 12:15:00 PM 7.75 45.95 0.275 8.27 7.46 12.81
4/20/2022 12:30:00 PM 8.1 46.58 0.275 8.31 7.39 12.74
4/20/2022 12:45:00 PM 8.43 47.174 0.275 8.33 7.36 12.67
4/20/2022 1:00:00 PM 8.77 47.786 0.275 8.36 7.25 12.58
4/20/2022 1:15:00 PM 9.1 48.38 0.275 8.39 6.97 12.52
4/20/2022 1:30:00 PM 9.43 48.974 0.275 8.41 6.66 12.45
4/20/2022 1:45:00 PM 9.78 49.604 0.275 8.44 6.62 12.36
4/20/2022 2:00:00 PM 10.09 50.162 0.275 8.46 6.96 12.29
4/20/2022 2:15:00 PM 10.43 50.774 0.275 8.49 6.6 12.2
4/20/2022 2:30:00 PM 10.72 51.296 0.275 8.52 6.66 12.13
4/20/2022 2:45:00 PM 11.02 51.836 0.275 8.53 6.35 12.04
4/20/2022 3:00:00 PM 11.29 52.322 0.275 8.56 6.24 11.96
4/20/2022 3:15:00 PM 11.52 52.736 0.275 8.58 5.99 11.9
4/20/2022 3:30:00 PM 11.72 53.096 0.275 8.6 6 11.83
4/20/2022 3:45:00 PM 11.9 53.42 0.275 8.61 5.89 11.76
4/20/2022 4:00:00 PM 12.06 53.708 0.275 8.63 5.69 11.71
4/20/2022 4:15:00 PM 12.21 53.978 0.275 8.64 5.79 11.64
4/20/2022 4:30:00 PM 12.32 54.176 0.275 8.66 5.8 11.59
4/20/2022 4:45:00 PM 12.4 54.32 0.275 8.66 5.82 11.51
4/20/2022 5:00:00 PM 12.45 54.41 0.275 8.67 5.56 11.46
4/20/2022 5:15:00 PM 12.46 54.428 0.275 8.67 5.78 11.4
4/20/2022 5:30:00 PM 12.44 54.392 0.275 8.67 5.55 11.36
4/20/2022 5:45:00 PM 12.39 54.302 0.276 8.66 5.64 11.3
4/20/2022 6:00:00 PM 12.32 54.176 0.276 8.66 6.97 11.25
4/20/2022 6:15:00 PM 12.24 54.032 0.277 8.63 10.09 11.17
4/20/2022 6:30:00 PM 12.13 53.834 0.277 8.58 15.63 11.09
4/20/2022 6:45:00 PM 11.99 53.582 0.279 8.51 21.41 10.96
4/20/2022 7:00:00 PM 11.85 53.33 0.279 8.42 25.44 10.86
4/20/2022 7:15:00 PM 11.72 53.096 0.28 8.32 28.15 10.75
4/20/2022 7:30:00 PM 11.6 52.88 0.281 8.22 30.37 10.65
4/20/2022 7:45:00 PM 11.46 52.628 0.28 8.12 38.37 10.57
4/20/2022 8:00:00 PM 11.31 52.358 0.281 8.04 45.57 10.52
4/20/2022 8:15:00 PM 11.15 52.07 0.282 7.96 53.41 10.46
4/20/2022 8:30:00 PM 10.98 51.764 0.282 7.91 57.26 10.46
4/20/2022 8:45:00 PM 10.83 51.494 0.282 7.88 60.01 10.47
4/20/2022 9:00:00 PM 10.66 51.188 0.282 7.85 52.66 10.49
4/20/2022 9:15:00 PM 10.5 50.9 0.282 7.83 50.58 10.51
4/20/2022 9:30:00 PM 10.35 50.63 0.282 7.8 52.62 10.52
4/20/2022 9:45:00 PM 10.18 50.324 0.282 7.78 54.64 10.55
4/20/2022 10:00:00 PM 10.02 50.036 0.282 7.77 48.77 10.59
4/20/2022 10:15:00 PM 9.87 49.766 0.282 7.76 42.27 10.61
4/20/2022 10:30:00 PM 9.71 49.478 0.134 7.74 33.03 10.64
4/20/2022 10:45:00 PM 9.55 49.19 0.282 7.74 24.42 10.67
4/20/2022 11:00:00 PM 9.39 48.902 0.282 7.73 19.13 10.72
4/20/2022 11:15:00 PM 9.23 48.614 0.283 7.72 15.39 10.76
4/20/2022 11:30:00 PM 9.08 48.344 0.283 7.72 12.73 10.8
4/20/2022 11:45:00 PM 8.95 48.11 0.272 7.71 11.2 10.83
4/21/2022 12:00:00 AM 8.82 47.876 0.284 7.7 9.81 10.86
4/21/2022 12:15:00 AM 8.69 47.642 0.284 7.7 9.05 10.91
4/21/2022 12:30:00 AM 8.53 47.354 0.284 7.7 8.68 10.95
4/21/2022 12:45:00 AM 8.39 47.102 0.285 7.69 8.19 10.98
4/21/2022 1:00:00 AM 8.25 46.85 0.285 7.68 8.07 11.01
4/21/2022 1:15:00 AM 8.14 46.652 0.285 7.68 7.94 11.05
4/21/2022 1:30:00 AM 8.03 46.454 0.286 7.68 7.77 11.08
4/21/2022 1:45:00 AM 7.93 46.274 0.286 7.68 7.6 11.11
4/21/2022 2:00:00 AM 7.84 46.112 0.286 7.67 7.47 11.14
4/21/2022 2:15:00 AM 7.74 45.932 0.287 7.67 7.23 11.17
4/21/2022 2:30:00 AM 7.65 45.77 0.287 7.67 6.9 11.2
4/21/2022 2:45:00 AM 7.54 45.572 0.287 7.67 7.1 11.22
4/21/2022 3:00:00 AM 7.44 45.392 0.288 7.68 7.32 11.25
4/21/2022 3:15:00 AM 7.34 45.212 0.288 7.66 6.92 11.27
4/21/2022 3:30:00 AM 7.27 45.086 0.288 7.67 7.15 11.3
4/21/2022 3:45:00 AM 7.19 44.942 0.288 7.67 6.94 11.32
4/21/2022 4:00:00 AM 7.13 44.834 0.288 7.66 7.08 11.35
4/21/2022 4:15:00 AM 7.08 44.744 0.289 7.66 6.95 11.37
4/21/2022 4:30:00 AM 7.02 44.636 0.289 7.66 6.71 11.39
4/21/2022 4:45:00 AM 6.97 44.546 0.289 7.67 6.77 11.4
4/21/2022 5:00:00 AM 6.92 44.456 0.289 7.67 6.57 11.43
4/21/2022 5:15:00 AM 6.87 44.366 0.29 7.69 6.26 11.44
4/21/2022 5:30:00 AM 6.82 44.276 0.29 7.69 6.51 11.46
4/21/2022 5:45:00 AM 6.78 44.204 0.29 7.69 6.28 11.47
4/21/2022 6:00:00 AM 6.73 44.114 0.29 7.67 6.18 11.48
4/21/2022 6:15:00 AM 6.7 44.06 0.277 7.67 6.26 11.5
4/21/2022 6:30:00 AM 6.66 43.988 0.29 7.68 5.97 11.52
4/21/2022 6:45:00 AM 6.62 43.916 0.291 7.69 6.01 11.59
4/21/2022 7:00:00 AM 6.61 43.898 0.291 7.74 5.81 11.7
4/21/2022 7:15:00 AM 6.6 43.88 0.291 7.75 5.88 11.84
4/21/2022 7:30:00 AM 6.59 43.862 0.291 7.78 5.79 11.93
4/21/2022 7:45:00 AM 6.63 43.934 0.291 7.81 5.72 12.08
4/21/2022 8:00:00 AM 6.65 43.97 0.291 7.85 5.79 12.15
4/21/2022 8:15:00 AM 6.68 44.024 0.291 7.89 5.41 12.23
4/21/2022 8:30:00 AM 6.71 44.078 0.291 7.91 5.58 12.3
4/21/2022 8:45:00 AM 6.73 44.114 0.291 7.94 5.69 12.36
4/21/2022 9:00:00 AM 6.79 44.222 0.291 7.98 5.7 12.45
4/21/2022 9:15:00 AM 6.86 44.348 0.291 8.02 5.5 12.5
4/21/2022 9:30:00 AM 6.99 44.582 0.291 8.06 5.39 12.56
4/21/2022 9:45:00 AM 7.04 44.672 0.29 8.1 5.57 12.62
4/21/2022 10:00:00 AM 7.15 44.87 0.29 8.13 5.31 12.65
4/21/2022 10:15:00 AM 7.26 45.068 0.29 8.18 5.39 12.67
4/21/2022 10:30:00 AM 7.29 45.122 0.29 8.2 5.27 12.69
4/21/2022 10:45:00 AM 7.36 45.248 0.29 8.24 5.26 12.66
4/21/2022 11:00:00 AM 7.44 45.392 0.29 8.26 5.19 12.68
4/21/2022 11:15:00 AM 7.56 45.608 0.29 8.3 5.11 12.68
4/21/2022 11:30:00 AM 7.72 45.896 0.289 8.33 4.92 12.69
4/21/2022 11:45:00 AM 7.88 46.184 0.289 8.37 4.91 12.7
4/21/2022 12:00:00 PM 8.02 46.436 0.289 8.4 5.02 12.67
4/21/2022 12:15:00 PM 8.07 46.526 0.289 8.42 5.01 12.62
4/21/2022 12:30:00 PM 8.12 46.616 0.289 8.43 5.11 12.58
4/21/2022 12:45:00 PM 8.19 46.742 0.289 8.45 4.92 12.53
4/21/2022 1:00:00 PM 8.25 46.85 0.289 8.46 4.86 12.48
4/21/2022 1:15:00 PM 8.3 46.94 0.288 8.48 4.82 12.42
4/21/2022 1:30:00 PM 8.32 46.976 0.289 8.46 4.75 12.32
4/21/2022 1:45:00 PM 8.35 47.03 0.289 8.4 16.63 12.14
4/21/2022 2:00:00 PM 8.39 47.102 0.289 8.43 6.02 12.16
4/21/2022 2:15:00 PM 8.45 47.21 0.288 8.44 5.05 12.16
4/21/2022 2:30:00 PM 8.53 47.354 0.288 8.47 4.77 12.16
4/21/2022 2:45:00 PM 8.59 47.462 0.288 8.47 4.75 12.19
4/21/2022 3:00:00 PM 8.66 47.588 0.288 8.48 4.79 12.2
4/21/2022 3:15:00 PM 8.74 47.732 0.288 8.51 4.71 12.24
4/21/2022 3:30:00 PM 8.77 47.786 0.288 8.52 4.64 12.24
4/21/2022 3:45:00 PM 8.78 47.804 0.288 8.52 4.67 12.19
4/21/2022 4:00:00 PM 8.77 47.786 0.276 8.51 4.64 12.09
4/21/2022 4:15:00 PM 8.76 47.768 0.288 8.48 4.62 12.05
4/21/2022 4:30:00 PM 8.75 47.75 0.288 8.47 4.58 11.98
4/21/2022 4:45:00 PM 8.76 47.768 0.288 8.45 4.52 11.94
4/21/2022 5:00:00 PM 8.78 47.804 0.288 8.44 4.48 11.95
4/21/2022 5:15:00 PM 8.78 47.804 0.289 8.44 4.55 11.95
4/21/2022 5:30:00 PM 8.79 47.822 0.288 8.44 4.64 11.95
4/21/2022 5:45:00 PM 8.81 47.858 0.288 8.43 4.43 11.96
4/21/2022 6:00:00 PM 8.83 47.894 0.287 8.43 4.54 11.96
4/21/2022 6:15:00 PM 8.84 47.912 0.287 8.44 4.46 11.98
4/21/2022 6:30:00 PM 8.85 47.93 0.288 8.42 5.94 11.95
4/21/2022 6:45:00 PM 8.84 47.912 0.288 8.4 7.05 11.9
4/21/2022 7:00:00 PM 8.81 47.858 0.288 8.36 6.61 11.82
4/21/2022 7:15:00 PM 8.77 47.786 0.288 8.34 5.66 11.79
4/21/2022 7:30:00 PM 8.74 47.732 0.289 8.29 5.13 11.69
4/21/2022 7:45:00 PM 8.71 47.678 0.289 8.24 5.09 11.6
4/21/2022 8:00:00 PM 8.65 47.57 0.289 8.18 5.02 11.45
4/21/2022 8:15:00 PM 8.61 47.498 0.289 8.12 4.97 11.35
4/21/2022 8:30:00 PM 8.58 47.444 0.289 8.07 5.32 11.3
4/21/2022 8:45:00 PM 8.55 47.39 0.29 8.02 6.72 11.24
4/21/2022 9:00:00 PM 8.51 47.318 0.29 7.97 10.06 11.18
4/21/2022 9:15:00 PM 8.46 47.228 0.291 7.92 15.52 11.15
4/21/2022 9:30:00 PM 8.4 47.12 0.292 7.88 24.41 11.12
4/21/2022 9:45:00 PM 8.34 47.012 0.292 7.85 33.52 11.1
4/21/2022 10:00:00 PM 8.29 46.922 0.292 7.81 41.4 11.1
4/21/2022 10:15:00 PM 8.23 46.814 0.282 7.79 43.42 11.09
4/21/2022 10:30:00 PM 8.17 46.706 0.292 7.77 41.61 11.1
4/21/2022 10:45:00 PM 8.1 46.58 0.292 7.76 40.75 11.1
4/21/2022 11:00:00 PM 8.02 46.436 0.292 7.75 35.19 11.11
4/21/2022 11:15:00 PM 7.94 46.292 0.291 7.73 28.28 11.12
4/21/2022 11:30:00 PM 7.87 46.166 0.291 7.73 23.04 11.14
4/21/2022 11:45:00 PM 7.79 46.022 0.291 7.71 18.52 11.16
4/22/2022 12:00:00 AM 7.71 45.878 0.291 7.7 15.34 11.18
4/22/2022 12:15:00 AM 7.64 45.752 0.291 7.7 12.62 11.2
4/22/2022 12:30:00 AM 7.57 45.626 0.291 7.72 11.05 11.2
4/22/2022 12:45:00 AM 7.49 45.482 0.291 7.69 9.75 11.23
4/22/2022 1:00:00 AM 7.41 45.338 0.291 7.7 8.39 11.26
4/22/2022 1:15:00 AM 7.34 45.212 0.291 7.69 7.88 11.27
4/22/2022 1:30:00 AM 7.27 45.086 0.291 7.69 7.43 11.29
4/22/2022 1:45:00 AM 7.2 44.96 0.291 7.69 6.78 11.31
4/22/2022 2:00:00 AM 7.13 44.834 0.291 7.68 6.56 11.32
4/22/2022 2:15:00 AM 7.07 44.726 0.292 7.68 6.42 11.34
4/22/2022 2:30:00 AM 6.99 44.582 0.292 7.67 6.23 11.37
4/22/2022 2:45:00 AM 6.93 44.474 0.292 7.68 6.1 11.39
4/22/2022 3:00:00 AM 6.86 44.348 0.292 7.68 5.96 11.41
4/22/2022 3:15:00 AM 6.8 44.24 0.292 7.66 5.74 11.43
4/22/2022 3:30:00 AM 6.74 44.132 0.292 7.68 5.84 11.46
4/22/2022 3:45:00 AM 6.68 44.024 0.292 7.68 5.81 11.48
4/22/2022 4:00:00 AM 6.62 43.916 0.293 7.66 5.75 11.5
4/22/2022 4:15:00 AM 6.56 43.808 0.293 7.66 5.75 11.52
4/22/2022 4:30:00 AM 6.51 43.718 0.293 7.66 5.56 11.54
4/22/2022 4:45:00 AM 6.45 43.61 0.293 7.67 5.58 11.56
4/22/2022 5:00:00 AM 6.37 43.466 0.293 7.67 5.46 11.59
4/22/2022 5:15:00 AM 6.31 43.358 0.293 7.68 5.55 11.62
4/22/2022 5:30:00 AM 6.23 43.214 0.293 7.67 5.51 11.64
4/22/2022 5:45:00 AM 6.16 43.088 0.293 7.67 5.47 11.64
4/22/2022 6:00:00 AM 6.1 42.98 0.294 7.67 5.33 11.68
4/22/2022 6:15:00 AM 6.04 42.872 0.294 7.67 5.4 11.71
4/22/2022 6:30:00 AM 5.97 42.746 0.294 7.68 5.62 11.75
4/22/2022 6:45:00 AM 5.91 42.638 0.294 7.68 5.51 11.83
4/22/2022 7:00:00 AM 5.86 42.548 0.294 7.7 5.56 11.95
4/22/2022 7:15:00 AM 5.83 42.494 0.294 7.73 5.92 12.08
4/22/2022 7:30:00 AM 5.82 42.476 0.294 7.77 5.32 12.22
4/22/2022 7:45:00 AM 5.83 42.494 0.294 7.8 5.32 12.35
4/22/2022 8:00:00 AM 5.86 42.548 0.294 7.85 5.14 12.46
4/22/2022 8:15:00 AM 5.93 42.674 0.294 7.88 5.15 12.57
4/22/2022 8:30:00 AM 6.02 42.836 0.294 7.92 5.24 12.66
4/22/2022 8:45:00 AM 6.13 43.034 0.294 7.95 5.12 12.75
4/22/2022 9:00:00 AM 6.24 43.232 0.294 8 5.04 12.82
4/22/2022 9:15:00 AM 6.38 43.484 0.294 8.03 5.08 12.86
4/22/2022 9:30:00 AM 6.52 43.736 0.293 8.06 4.99 12.91
4/22/2022 9:45:00 AM 6.72 44.096 0.293 8.1 5.09 12.96
4/22/2022 10:00:00 AM 6.95 44.51 0.293 8.14 5.03 12.97
4/22/2022 10:15:00 AM 7.21 44.978 0.293 8.19 4.94 13
4/22/2022 10:30:00 AM 7.49 45.482 0.293 8.23 5.07 13
4/22/2022 10:45:00 AM 7.78 46.004 0.292 8.27 4.84 12.99
4/22/2022 11:00:00 AM 8.1 46.58 0.292 8.31 4.83 12.97
4/22/2022 11:15:00 AM 8.44 47.192 0.292 8.37 4.95 12.94
4/22/2022 11:30:00 AM 8.78 47.804 0.292 8.41 5.64 12.89
4/22/2022 11:45:00 AM 9.12 48.416 0.291 8.45 5.91 12.84
4/22/2022 12:00:00 PM 9.49 49.082 0.291 8.49 6.09 12.8
4/22/2022 12:15:00 PM 9.86 49.748 0.291 8.53 6.45 12.73
4/22/2022 12:30:00 PM 10.24 50.432 0.291 8.56 6.16 12.68
4/22/2022 12:45:00 PM 10.6 51.08 0.291 8.6 5.94 12.59
4/22/2022 1:00:00 PM 10.96 51.728 0.29 8.63 5.78 12.52
4/22/2022 1:15:00 PM 11.3 52.34 0.29 8.66 5.38 12.46
4/22/2022 1:30:00 PM 11.63 52.934 0.29 8.68 5.17 12.36
4/22/2022 1:45:00 PM 11.98 53.564 0.29 8.71 6.05 12.29
4/22/2022 2:00:00 PM 12.31 54.158 0.29 8.73 6.78 12.2
4/22/2022 2:15:00 PM 12.61 54.698 0.29 8.76 6.89 12.14
4/22/2022 2:30:00 PM 12.91 55.238 0.29 8.78 6.6 12.05
4/22/2022 2:45:00 PM 13.2 55.76 0.29 8.81 6.36 11.98
4/22/2022 3:00:00 PM 13.47 56.246 0.289 8.83 5.84 11.9
4/22/2022 3:15:00 PM 13.72 56.696 0.289 8.84 5.16 11.82
4/22/2022 3:30:00 PM 13.94 57.092 0.289 8.85 4.95 11.73
4/22/2022 3:45:00 PM 14.11 57.398 0.287 8.88 4.68 11.65
4/22/2022 4:00:00 PM 14.22 57.596 0.289 8.89 4.84 11.58
4/22/2022 4:15:00 PM 14.32 57.776 0.288 8.9 4.91 11.53
4/22/2022 4:30:00 PM 14.42 57.956 0.288 8.91 5.42 11.46
4/22/2022 4:45:00 PM 14.45 58.01 0.282 8.93 6.71 11.41
4/22/2022 5:00:00 PM 14.46 58.028 0.288 8.93 7.78 11.34
4/22/2022 5:15:00 PM 14.45 58.01 0.288 8.94 7.46 11.28
4/22/2022 5:30:00 PM 14.41 57.938 0.288 8.94 6.76 11.22
4/22/2022 5:45:00 PM 14.33 57.794 0.288 8.94 5.85 11.16
4/22/2022 6:00:00 PM 14.27 57.686 0.16 8.94 5.38 11.11
4/22/2022 6:15:00 PM 14.18 57.524 0.288 8.93 5.01 11.05
4/22/2022 6:30:00 PM 14.1 57.38 0.11 8.92 4.81 10.98
4/22/2022 6:45:00 PM 13.99 57.182 0.288 8.91 4.5 10.89
4/22/2022 7:00:00 PM 13.87 56.966 0.288 8.9 4.53 10.79
4/22/2022 7:15:00 PM 13.74 56.732 0.289 8.87 4.54 10.69
4/22/2022 7:30:00 PM 13.61 56.498 0.289 8.84 4.46 10.56
4/22/2022 7:45:00 PM 13.47 56.246 0.289 8.8 4.33 10.43
4/22/2022 8:00:00 PM 13.33 55.994 0.29 8.74 4.42 10.3
4/22/2022 8:15:00 PM 13.17 55.706 0.29 8.69 4.36 10.18
4/22/2022 8:30:00 PM 13 55.4 0.29 8.63 4.41 10.11
4/22/2022 8:45:00 PM 12.85 55.13 0.291 8.57 4.31 10.07
4/22/2022 9:00:00 PM 12.69 54.842 0.291 8.52 4.51 10.05
4/22/2022 9:15:00 PM 12.53 54.554 0.291 8.46 4.69 10.04
4/22/2022 9:30:00 PM 12.36 54.248 0.292 8.39 4.54 10.04
4/22/2022 9:45:00 PM 12.19 53.942 0.292 8.32 4.65 10.05
4/22/2022 10:00:00 PM 12.02 53.636 0.292 8.24 4.55 10.06
4/22/2022 10:15:00 PM 11.87 53.366 0.292 8.18 4.54 10.08
4/22/2022 10:30:00 PM 11.71 53.078 0.293 8.12 4.47 10.09
4/22/2022 10:45:00 PM 11.57 52.826 0.294 8.04 4.59 10.11
4/22/2022 11:00:00 PM 11.41 52.538 0.294 7.98 4.58 10.12
4/22/2022 11:15:00 PM 11.28 52.304 0.294 7.93 4.59 10.16
4/22/2022 11:30:00 PM 11.13 52.034 0.295 7.89 4.59 10.19
4/22/2022 11:45:00 PM 11 51.8 0.295 7.86 4.73 10.2
4/23/2022 12:00:00 AM 10.87 51.566 0.296 7.82 4.72 10.23
4/23/2022 12:15:00 AM 10.76 51.368 0.296 7.8 4.58 10.25
4/23/2022 12:30:00 AM 10.63 51.134 0.296 7.78 4.71 10.29
4/23/2022 12:45:00 AM 10.53 50.954 0.296 7.76 4.7 10.32
4/23/2022 1:00:00 AM 10.42 50.756 0.297 7.75 4.77 10.33
4/23/2022 1:15:00 AM 10.31 50.558 0.297 7.74 4.67 10.37
4/23/2022 1:30:00 AM 10.2 50.36 0.297 7.73 4.7 10.39
4/23/2022 1:45:00 AM 10.09 50.162 0.298 7.73 4.67 10.43
4/23/2022 2:00:00 AM 10.01 50.018 0.298 7.71 4.79 10.45
4/23/2022 2:15:00 AM 9.91 49.838 0.298 7.7 4.69 10.48
4/23/2022 2:30:00 AM 9.82 49.676 0.298 7.7 4.75 10.5
4/23/2022 2:45:00 AM 9.73 49.514 0.299 7.69 4.76 10.52
4/23/2022 3:00:00 AM 9.65 49.37 0.299 7.69 4.78 10.55
4/23/2022 3:15:00 AM 9.57 49.226 0.299 7.69 4.86 10.57
4/23/2022 3:30:00 AM 9.49 49.082 0.299 7.69 4.85 10.6
4/23/2022 3:45:00 AM 9.42 48.956 0.3 7.69 4.81 10.61
4/23/2022 4:00:00 AM 9.37 48.866 0.3 7.69 4.89 10.63
4/23/2022 4:15:00 AM 9.3 48.74 0.3 7.69 4.67 10.64
4/23/2022 4:30:00 AM 9.25 48.65 0.3 7.68 4.71 10.67
4/23/2022 4:45:00 AM 9.19 48.542 0.3 7.68 4.83 10.68
4/23/2022 5:00:00 AM 9.14 48.452 0.301 7.68 4.77 10.7
4/23/2022 5:15:00 AM 9.09 48.362 0.301 7.67 4.84 10.72
4/23/2022 5:30:00 AM 9.04 48.272 0.301 7.67 4.77 10.72
4/23/2022 5:45:00 AM 9 48.2 0.301 7.67 4.81 10.75
4/23/2022 6:00:00 AM 8.96 48.128 0.301 7.68 4.87 10.76
4/23/2022 6:15:00 AM 8.9 48.02 0.302 7.68 4.98 10.78
4/23/2022 6:30:00 AM 8.85 47.93 0.302 7.68 4.83 10.78
4/23/2022 6:45:00 AM 8.81 47.858 0.302 7.68 4.76 10.82
4/23/2022 7:00:00 AM 8.78 47.804 0.302 7.68 4.61 10.88
4/23/2022 7:15:00 AM 8.75 47.75 0.302 7.7 4.6 10.99
4/23/2022 7:30:00 AM 8.73 47.714 0.302 7.73 4.62 11.1
4/23/2022 7:45:00 AM 8.73 47.714 0.302 7.77 4.6 11.29
4/23/2022 8:00:00 AM 8.75 47.75 0.302 7.83 4.6 11.49
4/23/2022 8:15:00 AM 8.74 47.732 0.302 7.87 4.44 11.59
4/23/2022 8:30:00 AM 8.74 47.732 0.302 7.92 4.36 11.74
4/23/2022 8:45:00 AM 8.77 47.786 0.302 7.96 4.41 11.88
4/23/2022 9:00:00 AM 8.83 47.894 0.302 8.01 4.38 12.01
4/23/2022 9:15:00 AM 8.92 48.056 0.302 8.07 4.41 12.15
4/23/2022 9:30:00 AM 9.07 48.326 0.301 8.13 4.24 12.24
4/23/2022 9:45:00 AM 9.18 48.524 0.301 8.19 4.28 12.32
4/23/2022 10:00:00 AM 9.25 48.65 0.301 8.23 4.3 12.35
4/23/2022 10:15:00 AM 9.35 48.83 0.301 8.28 4.2 12.4
4/23/2022 10:30:00 AM 9.44 48.992 0.301 8.32 4.34 12.44
4/23/2022 10:45:00 AM 9.64 49.352 0.301 8.36 4.23 12.48
4/23/2022 11:00:00 AM 10 50 0.301 8.41 4.28 12.52
4/23/2022 11:15:00 AM 10.31 50.558 0.3 8.46 4.18 12.51
4/23/2022 11:30:00 AM 10.56 51.008 0.3 8.5 4.22 12.52
4/23/2022 11:45:00 AM 10.95 51.71 0.3 8.54 4.24 12.48
4/23/2022 12:00:00 PM 11.1 51.98 0.299 8.58 4.28 12.47
4/23/2022 12:15:00 PM 11.26 52.268 0.299 8.62 4.2 12.44
4/23/2022 12:30:00 PM 11.57 52.826 0.299 8.66 4.19 12.4
4/23/2022 12:45:00 PM 11.77 53.186 0.298 8.7 4.19 12.37
4/23/2022 1:00:00 PM 11.87 53.366 0.298 8.72 4.2 12.32
4/23/2022 1:15:00 PM 11.86 53.348 0.298 8.75 4.13 12.22
4/23/2022 1:30:00 PM 11.82 53.276 0.297 8.77 4.15 12.1
4/23/2022 1:45:00 PM 11.88 53.384 0.298 8.78 4.13 12.05
4/23/2022 2:00:00 PM 12.03 53.654 0.297 8.81 4.1 12.05
4/23/2022 2:15:00 PM 12.15 53.87 0.297 8.83 4.19 11.99
4/23/2022 2:30:00 PM 12.28 54.104 0.297 8.86 4.18 11.91
4/23/2022 2:45:00 PM 12.37 54.266 0.297 8.87 4.14 11.85
4/23/2022 3:00:00 PM 12.37 54.266 0.296 8.87 4.14 11.71
4/23/2022 3:15:00 PM 12.46 54.428 0.296 8.87 4.19 11.64
4/23/2022 3:30:00 PM 12.64 54.752 0.296 8.89 4.03 11.66
4/23/2022 3:45:00 PM 12.9 55.22 0.296 8.92 4.19 11.68
4/23/2022 4:00:00 PM 13.2 55.76 0.295 8.95 4.21 11.7
4/23/2022 4:15:00 PM 13.49 56.282 0.295 8.96 4.25 11.69
4/23/2022 4:30:00 PM 13.69 56.642 0.295 8.98 4.32 11.64
4/23/2022 4:45:00 PM 13.71 56.678 0.295 8.98 4.28 11.57
4/23/2022 5:00:00 PM 13.68 56.624 0.295 8.99 4.15 11.52
4/23/2022 5:15:00 PM 13.71 56.678 0.295 8.99 4.09 11.47
4/23/2022 5:30:00 PM 13.69 56.642 0.295 9 4.12 11.41
4/23/2022 5:45:00 PM 13.71 56.678 0.295 9 4.12 11.36
4/23/2022 6:00:00 PM 13.7 56.66 0.295 9 4.01 11.28
4/23/2022 6:15:00 PM 13.66 56.588 0.295 8.99 4.07 11.19
4/23/2022 6:30:00 PM 13.63 56.534 0.295 8.98 4.02 11.12
4/23/2022 6:45:00 PM 13.59 56.462 0.294 8.98 3.95 11.04
4/23/2022 7:00:00 PM 13.53 56.354 0.295 8.96 4.04 10.94
4/23/2022 7:15:00 PM 13.46 56.228 0.295 8.94 3.97 10.81
4/23/2022 7:30:00 PM 13.4 56.12 0.295 8.91 3.96 10.67
4/23/2022 7:45:00 PM 13.34 56.012 0.295 8.87 4.05 10.51
4/23/2022 8:00:00 PM 13.26 55.868 0.296 8.83 3.96 10.34
4/23/2022 8:15:00 PM 13.18 55.724 0.296 8.79 3.96 10.19
4/23/2022 8:30:00 PM 13.09 55.562 0.296 8.73 4.08 10.08
4/23/2022 8:45:00 PM 12.98 55.364 0.297 8.68 4.06 10.01
4/23/2022 9:00:00 PM 12.87 55.166 0.297 8.63 3.97 9.96
4/23/2022 9:15:00 PM 12.76 54.968 0.291 8.58 4.01 9.93
4/23/2022 9:30:00 PM 12.65 54.77 0.298 8.52 4.12 9.92
4/23/2022 9:45:00 PM 12.53 54.554 0.298 8.45 4.01 9.89
4/23/2022 10:00:00 PM 12.41 54.338 0.299 8.38 4.03 9.9
4/23/2022 10:15:00 PM 12.29 54.122 0.299 8.3 4.08 9.9
4/23/2022 10:30:00 PM 12.17 53.906 0.299 8.23 4.12 9.9
4/23/2022 10:45:00 PM 12.05 53.69 0.3 8.14 4.09 9.91
4/23/2022 11:00:00 PM 11.93 53.474 0.3 8.08 4.11 9.92
4/23/2022 11:15:00 PM 11.83 53.294 0.301 8 4.1 9.93
4/23/2022 11:30:00 PM 11.71 53.078 0.301 7.95 4.27 9.93
4/23/2022 11:45:00 PM 11.6 52.88 0.301 7.89 4.23 9.94
4/24/2022 12:00:00 AM 11.5 52.7 0.301 7.85 4.33 9.96
4/24/2022 12:15:00 AM 11.4 52.52 0.302 7.83 4.36 9.98
4/24/2022 12:30:00 AM 11.28 52.304 0.302 7.81 4.2 10
4/24/2022 12:45:00 AM 11.15 52.07 0.302 7.78 4.29 10.03
4/24/2022 1:00:00 AM 11.04 51.872 0.302 7.77 4.33 10.06
4/24/2022 1:15:00 AM 10.92 51.656 0.303 7.74 4.37 10.07
4/24/2022 1:30:00 AM 10.81 51.458 0.303 7.74 4.42 10.09
4/24/2022 1:45:00 AM 10.69 51.242 0.303 7.72 4.43 10.12
4/24/2022 2:00:00 AM 10.58 51.044 0.303 7.7 4.39 10.15
4/24/2022 2:15:00 AM 10.48 50.864 0.303 7.71 4.37 10.18
4/24/2022 2:30:00 AM 10.37 50.666 0.303 7.69 4.44 10.2
4/24/2022 2:45:00 AM 10.28 50.504 0.303 7.7 4.46 10.23
4/24/2022 3:00:00 AM 10.2 50.36 0.304 7.68 4.48 10.25
4/24/2022 3:15:00 AM 10.12 50.216 0.304 7.69 4.4 10.28
4/24/2022 3:30:00 AM 10.03 50.054 0.304 7.67 4.42 10.29
4/24/2022 3:45:00 AM 9.94 49.892 0.304 7.67 4.41 10.33
4/24/2022 4:00:00 AM 9.86 49.748 0.305 7.67 4.34 10.35
4/24/2022 4:15:00 AM 9.79 49.622 0.305 7.66 4.41 10.37
4/24/2022 4:30:00 AM 9.72 49.496 0.305 7.66 4.41 10.39
4/24/2022 4:45:00 AM 9.66 49.388 0.305 7.65 4.26 10.42
4/24/2022 5:00:00 AM 9.59 49.262 0.306 7.65 4.46 10.44
4/24/2022 5:15:00 AM 9.53 49.154 0.306 7.65 4.47 10.46
4/24/2022 5:30:00 AM 9.47 49.046 0.306 7.64 4.51 10.47
4/24/2022 5:45:00 AM 9.42 48.956 0.306 7.65 4.39 10.49
4/24/2022 6:00:00 AM 9.36 48.848 0.306 7.65 4.45 10.52
4/24/2022 6:15:00 AM 9.32 48.776 0.306 7.65 4.45 10.53
4/24/2022 6:30:00 AM 9.27 48.686 0.307 7.65 4.56 10.57
4/24/2022 6:45:00 AM 9.22 48.596 0.307 7.66 4.46 10.65
4/24/2022 7:00:00 AM 9.19 48.542 0.307 7.68 4.44 10.76
4/24/2022 7:15:00 AM 9.17 48.506 0.307 7.73 4.37 10.91
4/24/2022 7:30:00 AM 9.16 48.488 0.307 7.76 4.31 11.1
4/24/2022 7:45:00 AM 9.15 48.47 0.307 7.8 4.38 11.27
4/24/2022 8:00:00 AM 9.18 48.524 0.306 7.84 4.44 11.43
4/24/2022 8:15:00 AM 9.22 48.596 0.306 7.89 4.37 11.6
4/24/2022 8:30:00 AM 9.27 48.686 0.306 7.95 4.25 11.73
4/24/2022 8:45:00 AM 9.38 48.884 0.306 8 4.21 11.84
4/24/2022 9:00:00 AM 9.55 49.19 0.306 8.07 4.22 11.94
4/24/2022 9:15:00 AM 9.74 49.532 0.306 8.11 4.17 12.02
4/24/2022 9:30:00 AM 9.95 49.91 0.306 8.16 4.09 12.09
4/24/2022 9:45:00 AM 10.18 50.324 0.306 8.22 4.1 12.16
4/24/2022 10:00:00 AM 10.37 50.666 0.306 8.28 4.07 12.2
4/24/2022 10:15:00 AM 10.6 51.08 0.305 8.3 4.12 12.21
4/24/2022 10:30:00 AM 10.87 51.566 0.305 8.36 4 12.24
4/24/2022 10:45:00 AM 11.21 52.178 0.305 8.39 4.08 12.24
4/24/2022 11:00:00 AM 11.6 52.88 0.305 8.44 4.04 12.24
4/24/2022 11:15:00 AM 12.01 53.618 0.304 8.49 4 12.22
4/24/2022 11:30:00 AM 12.4 54.32 0.304 8.54 4.04 12.18
4/24/2022 11:45:00 AM 12.8 55.04 0.304 8.57 4.12 12.15
4/24/2022 12:00:00 PM 13.19 55.742 0.304 8.61 4.11 12.1
4/24/2022 12:15:00 PM 13.6 56.48 0.303 8.65 3.99 12.06
4/24/2022 12:30:00 PM 14.03 57.254 0.303 8.68 4.02 11.99
4/24/2022 12:45:00 PM 14.43 57.974 0.303 8.72 4.03 11.91
4/24/2022 1:00:00 PM 14.82 58.676 0.302 8.75 4 11.84
4/24/2022 1:15:00 PM 15.23 59.414 0.298 8.78 4.05 11.77
4/24/2022 1:30:00 PM 15.65 60.17 0.302 8.81 4.03 11.69
4/24/2022 1:45:00 PM 16.03 60.854 0.302 8.84 3.97 11.59
4/24/2022 2:00:00 PM 16.42 61.556 0.302 8.86 3.83 11.52
4/24/2022 2:15:00 PM 16.73 62.114 0.301 8.88 3.87 11.4
4/24/2022 2:30:00 PM 16.94 62.492 0.301 8.9 3.9 11.28
4/24/2022 2:45:00 PM 17.25 63.05 0.301 8.91 3.88 11.2
4/24/2022 3:00:00 PM 17.53 63.554 0.299 8.93 4.01 11.14
4/24/2022 3:15:00 PM 17.74 63.932 0.289 8.94 3.96 11.02
4/24/2022 3:30:00 PM 17.91 64.238 0.3 8.96 4.23 10.9
4/24/2022 3:45:00 PM 17.96 64.328 0.3 8.96 3.94 10.77
4/24/2022 4:00:00 PM 18.14 64.652 0.3 8.96 3.96 10.67
4/24/2022 4:15:00 PM 18.3 64.94 0.3 8.99 3.98 10.61
4/24/2022 4:30:00 PM 18.41 65.138 0.3 8.99 3.94 10.54
4/24/2022 4:45:00 PM 18.59 65.462 0.3 8.99 3.97 10.48
4/24/2022 5:00:00 PM 18.66 65.588 0.3 9.01 3.98 10.43
4/24/2022 5:15:00 PM 18.77 65.786 0.299 9.01 3.86 10.36
4/24/2022 5:30:00 PM 18.86 65.948 0.299 9.02 3.87 10.33
4/24/2022 5:45:00 PM 18.87 65.966 0.299 9.01 3.92 10.26
4/24/2022 6:00:00 PM 18.81 65.858 0.299 9.02 3.83 10.17
4/24/2022 6:15:00 PM 18.72 65.696 0.292 9.01 3.87 10.01
4/24/2022 6:30:00 PM 18.65 65.57 0.299 9 3.91 9.92
4/24/2022 6:45:00 PM 18.57 65.426 0.3 8.99 4.19 9.85
4/24/2022 7:00:00 PM 18.44 65.192 0.3 8.97 3.86 9.73
4/24/2022 7:15:00 PM 18.31 64.958 0.3 8.94 3.86 9.53
4/24/2022 7:30:00 PM 18.18 64.724 0.301 8.89 3.88 9.34
4/24/2022 7:45:00 PM 18.04 64.472 0.301 8.86 3.82 9.19
4/24/2022 8:00:00 PM 17.91 64.238 0.301 8.81 3.9 9.05
4/24/2022 8:15:00 PM 17.79 64.022 0.302 8.76 3.87 8.94
4/24/2022 8:30:00 PM 17.67 63.806 0.302 8.72 3.89 8.84
4/24/2022 8:45:00 PM 17.56 63.608 0.302 8.67 3.92 8.78
4/24/2022 9:00:00 PM 17.46 63.428 0.303 8.62 4.06 8.73
4/24/2022 9:15:00 PM 17.34 63.212 0.303 8.57 4.11 8.7
4/24/2022 9:30:00 PM 17.21 62.978 0.304 8.51 4.08 8.7
4/24/2022 9:45:00 PM 17.1 62.78 0.304 8.46 4.51 8.7
4/24/2022 10:00:00 PM 16.96 62.528 0.304 8.4 4.15 8.7
4/24/2022 10:15:00 PM 16.83 62.294 0.305 8.33 4.12 8.7
4/24/2022 10:30:00 PM 16.68 62.024 0.305 8.25 4.39 8.71
4/24/2022 10:45:00 PM 16.54 61.772 0.306 8.17 4.31 8.72
4/24/2022 11:00:00 PM 16.39 61.502 0.307 8.1 4.18 8.74
4/24/2022 11:15:00 PM 16.25 61.25 0.307 8.02 4.17 8.74
4/24/2022 11:30:00 PM 16.12 61.016 0.308 7.97 4.21 8.77
4/24/2022 11:45:00 PM 16 60.8 0.309 7.92 4.24 8.77
4/25/2022 12:00:00 AM 15.88 60.584 0.309 7.88 4.33 8.78
4/25/2022 12:15:00 AM 15.77 60.386 0.31 7.85 4.22 8.8
4/25/2022 12:30:00 AM 15.65 60.17 0.31 7.82 4.14 8.82
4/25/2022 12:45:00 AM 15.53 59.954 0.31 7.8 4.34 8.84
4/25/2022 1:00:00 AM 15.42 59.756 0.311 7.78 4.2 8.86
4/25/2022 1:15:00 AM 15.31 59.558 0.311 7.77 4.2 8.88
4/25/2022 1:30:00 AM 15.21 59.378 0.311 7.76 4.13 8.9
4/25/2022 1:45:00 AM 15.1 59.18 0.311 7.74 4.23 8.93
4/25/2022 2:00:00 AM 14.99 58.982 0.31 7.73 4.26 8.94
4/25/2022 2:15:00 AM 14.87 58.766 0.311 7.72 4.33 8.97
4/25/2022 2:30:00 AM 14.75 58.55 0.312 7.71 4.38 9
4/25/2022 2:45:00 AM 14.64 58.352 0.312 7.7 4.43 9.02
4/25/2022 3:00:00 AM 14.54 58.172 0.312 7.69 4.38 9.04
4/25/2022 3:15:00 AM 14.43 57.974 0.313 7.69 4.52 9.07
4/25/2022 3:30:00 AM 14.32 57.776 0.313 7.68 4.36 9.09
4/25/2022 3:45:00 AM 14.21 57.578 0.313 7.69 4.34 9.12
4/25/2022 4:00:00 AM 14.09 57.362 0.313 7.68 4.33 9.15
4/25/2022 4:15:00 AM 13.98 57.164 0.314 7.67 4.32 9.17
4/25/2022 4:30:00 AM 13.88 56.984 0.314 7.67 4.42 9.2
4/25/2022 4:45:00 AM 13.79 56.822 0.314 7.67 4.36 9.22
4/25/2022 5:00:00 AM 13.7 56.66 0.314 7.67 4.44 9.25
4/25/2022 5:15:00 AM 13.61 56.498 0.314 7.67 4.34 9.28
4/25/2022 5:30:00 AM 13.54 56.372 0.315 7.67 4.38 9.29
4/25/2022 5:45:00 AM 13.45 56.21 0.315 7.67 4.4 9.31
4/25/2022 6:00:00 AM 13.37 56.066 0.315 7.67 4.44 9.34
4/25/2022 6:15:00 AM 13.29 55.922 0.315 7.66 4.45 9.36
4/25/2022 6:30:00 AM 13.22 55.796 0.316 7.67 4.51 9.42
4/25/2022 6:45:00 AM 13.15 55.67 0.316 7.69 4.55 9.52
4/25/2022 7:00:00 AM 13.1 55.58 0.316 7.72 4.36 9.69
4/25/2022 7:15:00 AM 13.08 55.544 0.316 7.76 4.5 9.91
4/25/2022 7:30:00 AM 13.08 55.544 0.316 7.82 4.42 10.17
4/25/2022 7:45:00 AM 13.1 55.58 0.316 7.89 4.43 10.44
4/25/2022 8:00:00 AM 13.14 55.652 0.316 7.97 4.42 10.66
4/25/2022 8:15:00 AM 13.19 55.742 0.316 8.04 4.52 10.85
4/25/2022 8:30:00 AM 13.25 55.85 0.316 8.11 4.46 10.98
4/25/2022 8:45:00 AM 13.34 56.012 0.316 8.17 4.24 11.09
4/25/2022 9:00:00 AM 13.45 56.21 0.315 8.24 4.29 11.21
4/25/2022 9:15:00 AM 13.56 56.408 0.315 8.28 4.2 11.27
4/25/2022 9:30:00 AM 13.71 56.678 0.315 8.32 4.15 11.33
4/25/2022 9:45:00 AM 13.9 57.02 0.315 8.36 4.21 11.38
4/25/2022 10:00:00 AM 14.13 57.434 0.315 8.4 4.22 11.43
4/25/2022 10:15:00 AM 14.38 57.884 0.314 8.44 4.21 11.47
4/25/2022 10:30:00 AM 14.66 58.388 0.314 8.48 4.28 11.5
4/25/2022 10:45:00 AM 14.97 58.946 0.314 8.52 4.3 11.51
4/25/2022 11:00:00 AM 15.24 59.432 0.314 8.55 4.15 11.52
4/25/2022 11:15:00 AM 15.58 60.044 0.314 8.59 4.18 11.51
4/25/2022 11:30:00 AM 15.91 60.638 0.314 8.62 4.17 11.49
4/25/2022 11:45:00 AM 16.22 61.196 0.313 8.66 4.23 11.47
4/25/2022 12:00:00 PM 16.57 61.826 0.313 8.69 4.19 11.44
4/25/2022 12:15:00 PM 16.91 62.438 0.312 8.72 4.16 11.4
4/25/2022 12:30:00 PM 17.29 63.122 0.312 8.75 4.13 11.33
4/25/2022 12:45:00 PM 17.62 63.716 0.311 8.78 4.24 11.29
4/25/2022 1:00:00 PM 17.93 64.274 0.311 8.8 4.14 11.22
4/25/2022 1:15:00 PM 18.27 64.886 0.311 8.83 4.12 11.16
4/25/2022 1:30:00 PM 18.57 65.426 0.311 8.85 4.16 11.1
4/25/2022 1:45:00 PM 18.87 65.966 0.31 8.87 4.08 11.04
4/25/2022 2:00:00 PM 19.16 66.488 0.31 8.89 4.15 10.94
4/25/2022 2:15:00 PM 19.42 66.956 0.31 8.9 4.12 10.88
4/25/2022 2:30:00 PM 19.63 67.334 0.31 8.92 4.04 10.79
4/25/2022 2:45:00 PM 19.85 67.73 0.31 8.93 4.19 10.73
4/25/2022 3:00:00 PM 20.06 68.108 0.309 8.94 4.04 10.64
4/25/2022 3:15:00 PM 20.34 68.612 0.309 8.96 4.03 10.57
4/25/2022 3:30:00 PM 20.57 69.026 0.309 8.97 4.1 10.5
4/25/2022 3:45:00 PM 20.74 69.332 0.309 8.98 3.95 10.42
4/25/2022 4:00:00 PM 20.89 69.602 0.309 8.98 4.02 10.33
4/25/2022 4:15:00 PM 20.99 69.782 0.308 8.99 4.03 10.26
4/25/2022 4:30:00 PM 21.07 69.926 0.308 9 3.93 10.18
4/25/2022 4:45:00 PM 21.14 70.052 0.308 9.01 3.92 10.1
4/25/2022 5:00:00 PM 21.14 70.052 0.308 9.01 3.91 9.99
4/25/2022 5:15:00 PM 21.13 70.034 0.308 9.01 3.94 9.9
4/25/2022 5:30:00 PM 21.05 69.89 0.308 9.01 3.85 9.8
4/25/2022 5:45:00 PM 20.96 69.728 0.308 9 3.91 9.64
4/25/2022 6:00:00 PM 20.89 69.602 0.308 9 3.86 9.59
4/25/2022 6:15:00 PM 20.79 69.422 0.308 9 3.92 9.52
4/25/2022 6:30:00 PM 20.67 69.206 0.308 8.98 3.86 9.38
4/25/2022 6:45:00 PM 20.58 69.044 0.308 8.97 3.86 9.32
4/25/2022 7:00:00 PM 20.49 68.882 0.308 8.97 3.71 9.29
4/25/2022 7:15:00 PM 20.34 68.612 0.309 8.95 3.81 9.16
4/25/2022 7:30:00 PM 20.17 68.306 0.309 8.92 3.83 9.01
4/25/2022 7:45:00 PM 19.98 67.964 0.31 8.88 3.8 8.86
4/25/2022 8:00:00 PM 19.79 67.622 0.31 8.83 3.7 8.67
4/25/2022 8:15:00 PM 19.57 67.226 0.311 8.78 3.79 8.52
4/25/2022 8:30:00 PM 19.39 66.902 0.311 8.73 3.86 8.4
4/25/2022 8:45:00 PM 19.24 66.632 0.312 8.67 3.94 8.32
4/25/2022 9:00:00 PM 19.08 66.344 0.312 8.62 3.88 8.26
4/25/2022 9:15:00 PM 18.9 66.02 0.313 8.57 4 8.25
4/25/2022 9:30:00 PM 18.76 65.768 0.313 8.51 3.91 8.24
4/25/2022 9:45:00 PM 18.65 65.57 0.314 8.46 3.95 8.25
4/25/2022 10:00:00 PM 18.49 65.282 0.314 8.39 3.98 8.23
4/25/2022 10:15:00 PM 18.33 64.994 0.315 8.32 3.92 8.25
4/25/2022 10:30:00 PM 18.18 64.724 0.315 8.26 3.98 8.27
4/25/2022 10:45:00 PM 18.03 64.454 0.316 8.19 3.97 8.28
4/25/2022 11:00:00 PM 17.87 64.166 0.316 8.13 4.01 8.3
4/25/2022 11:15:00 PM 17.73 63.914 0.317 8.07 4.01 8.32
4/25/2022 11:30:00 PM 17.57 63.626 0.317 8 4.06 8.34
4/25/2022 11:45:00 PM 17.43 63.374 0.318 7.95 4.03 8.36
4/26/2022 12:00:00 AM 17.29 63.122 0.318 7.91 4.04 8.38
4/26/2022 12:15:00 AM 17.16 62.888 0.319 7.87 3.94 8.4
4/26/2022 12:30:00 AM 17.02 62.636 0.319 7.84 3.93 8.42
4/26/2022 12:45:00 AM 16.88 62.384 0.32 7.82 3.96 8.45
4/26/2022 1:00:00 AM 16.76 62.168 0.32 7.79 4.03 8.47
4/26/2022 1:15:00 AM 16.65 61.97 0.32 7.78 4.07 8.49
4/26/2022 1:30:00 AM 16.55 61.79 0.321 7.76 4.04 8.51
4/26/2022 1:45:00 AM 16.44 61.592 0.321 7.75 3.96 8.54
4/26/2022 2:00:00 AM 16.34 61.412 0.321 7.74 4.05 8.57
4/26/2022 2:15:00 AM 16.25 61.25 0.321 7.73 4.11 8.59
4/26/2022 2:30:00 AM 16.16 61.088 0.322 7.72 4.08 8.6
4/26/2022 2:45:00 AM 16.07 60.926 0.322 7.72 4.11 8.63
4/26/2022 3:00:00 AM 15.98 60.764 0.322 7.71 4.16 8.64
4/26/2022 3:15:00 AM 15.9 60.62 0.322 7.71 4.15 8.66
4/26/2022 3:30:00 AM 15.82 60.476 0.323 7.7 4.14 8.69
4/26/2022 3:45:00 AM 15.73 60.314 0.323 7.7 4.13 8.71
4/26/2022 4:00:00 AM 15.65 60.17 0.323 7.7 4.07 8.73
4/26/2022 4:15:00 AM 15.58 60.044 0.324 7.69 4.22 8.74
4/26/2022 4:30:00 AM 15.51 59.918 0.324 7.69 4.14 8.76
4/26/2022 4:45:00 AM 15.44 59.792 0.324 7.69 4.23 8.78
4/26/2022 5:00:00 AM 15.37 59.666 0.324 7.69 4.41 8.8
4/26/2022 5:15:00 AM 15.3 59.54 0.324 7.68 4.46 8.81
4/26/2022 5:30:00 AM 15.22 59.396 0.325 7.68 4.56 8.84
4/26/2022 5:45:00 AM 15.15 59.27 0.325 7.69 4.49 8.85
4/26/2022 6:00:00 AM 15.07 59.126 0.325 7.69 4.68 8.87
4/26/2022 6:15:00 AM 15.01 59.018 0.326 7.69 4.63 8.88
4/26/2022 6:30:00 AM 14.94 58.892 0.326 7.69 4.78 8.92
4/26/2022 6:45:00 AM 14.87 58.766 0.327 7.7 4.71 8.96
4/26/2022 7:00:00 AM 14.82 58.676 0.327 7.71 4.62 9.02
4/26/2022 7:15:00 AM 14.77 58.586 0.327 7.72 4.77 9.09
4/26/2022 7:30:00 AM 14.73 58.514 0.327 7.74 4.58 9.17
4/26/2022 7:45:00 AM 14.68 58.424 0.327 7.76 4.68 9.3
4/26/2022 8:00:00 AM 14.65 58.37 0.327 7.79 4.45 9.4
4/26/2022 8:15:00 AM 14.62 58.316 0.327 7.81 4.42 9.5
4/26/2022 8:30:00 AM 14.59 58.262 0.327 7.84 4.4 9.62
4/26/2022 8:45:00 AM 14.6 58.28 0.327 7.89 4.35 9.81
4/26/2022 9:00:00 AM 14.63 58.334 0.327 7.95 4.35 10.05
4/26/2022 9:15:00 AM 14.67 58.406 0.326 8.01 4.26 10.24
4/26/2022 9:30:00 AM 14.69 58.442 0.326 8.07 4.17 10.4
4/26/2022 9:45:00 AM 14.72 58.496 0.326 8.13 4.15 10.53
4/26/2022 10:00:00 AM 14.75 58.55 0.326 8.18 4.1 10.63
4/26/2022 10:15:00 AM 14.78 58.604 0.326 8.22 4.15 10.69
4/26/2022 10:30:00 AM 14.78 58.604 0.326 8.25 4.18 10.74
4/26/2022 10:45:00 AM 14.8 58.64 0.326 8.28 4.08 10.79
4/26/2022 11:00:00 AM 14.89 58.802 0.326 8.32 4.05 10.87
4/26/2022 11:15:00 AM 14.87 58.766 0.326 8.35 4.12 10.91
4/26/2022 11:30:00 AM 14.85 58.73 0.326 8.37 4.01 10.84
4/26/2022 11:45:00 AM 14.89 58.802 0.326 8.38 4.09 10.87
4/26/2022 12:00:00 PM 15 59 0.326 8.43 4.1 10.99
4/26/2022 12:15:00 PM 15.01 59.018 0.326 8.46 4.05 11.02
4/26/2022 12:30:00 PM 15.07 59.126 0.326 8.48 4.12 11.03
4/26/2022 12:45:00 PM 15.15 59.27 0.325 8.53 3.95 11.1
4/26/2022 1:00:00 PM 15.15 59.27 0.325 8.55 4.01 11.07
4/26/2022 1:15:00 PM 15.14 59.252 0.324 8.56 4.07 10.98
4/26/2022 1:30:00 PM 15.13 59.234 0.324 8.58 3.94 10.98
4/26/2022 1:45:00 PM 15.13 59.234 0.324 8.6 4.02 10.98
4/26/2022 2:00:00 PM 15.14 59.252 0.323 8.63 4.01 10.97
4/26/2022 2:15:00 PM 15.17 59.306 0.323 8.66 3.91 10.99
4/26/2022 2:30:00 PM 15.21 59.378 0.322 8.69 3.99 11.01
4/26/2022 2:45:00 PM 15.23 59.414 0.322 8.71 4.02 11.04
4/26/2022 3:00:00 PM 15.24 59.432 0.322 8.73 3.91 11.03
4/26/2022 3:15:00 PM 15.21 59.378 0.322 8.74 4.03 10.94
4/26/2022 3:30:00 PM 15.15 59.27 0.322 8.73 4 10.79
4/26/2022 3:45:00 PM 15.1 59.18 0.322 8.72 3.97 10.69
4/26/2022 4:00:00 PM 15.11 59.198 0.322 8.73 4 10.7
4/26/2022 4:15:00 PM 15.13 59.234 0.321 8.75 3.89 10.78
4/26/2022 4:30:00 PM 15.12 59.216 0.321 8.77 3.92 10.77
4/26/2022 4:45:00 PM 15.09 59.162 0.321 8.77 3.95 10.66
4/26/2022 5:00:00 PM 15.07 59.126 0.321 8.77 3.86 10.6
4/26/2022 5:15:00 PM 15.06 59.108 0.321 8.78 3.8 10.61
4/26/2022 5:30:00 PM 15 59 0.321 8.77 3.86 10.6
4/26/2022 5:45:00 PM 14.91 58.838 0.32 8.77 3.86 10.55
4/26/2022 6:00:00 PM 14.86 58.748 0.32 8.77 3.81 10.52
4/26/2022 6:15:00 PM 14.8 58.64 0.32 8.78 3.92 10.52
4/26/2022 6:30:00 PM 14.71 58.478 0.32 8.77 3.85 10.44
4/26/2022 6:45:00 PM 14.6 58.28 0.32 8.75 3.85 10.36
4/26/2022 7:00:00 PM 14.5 58.1 0.321 8.73 3.92 10.33
4/26/2022 7:15:00 PM 14.37 57.866 0.321 8.71 3.85 10.25
4/26/2022 7:30:00 PM 14.24 57.632 0.321 8.67 3.95 10.13
4/26/2022 7:45:00 PM 14.13 57.434 0.322 8.63 4.29 9.99
4/26/2022 8:00:00 PM 14.02 57.236 0.322 8.57 5.17 9.86
4/26/2022 8:15:00 PM 13.88 56.984 0.323 8.49 6.42 9.73
4/26/2022 8:30:00 PM 13.76 56.768 0.323 8.41 7.18 9.62
4/26/2022 8:45:00 PM 13.63 56.534 0.323 8.34 7.6 9.56
4/26/2022 9:00:00 PM 13.51 56.318 0.324 8.28 7.76 9.53
4/26/2022 9:15:00 PM 13.36 56.048 0.324 8.23 7.05 9.52
4/26/2022 9:30:00 PM 13.24 55.832 0.324 8.19 6.12 9.52
4/26/2022 9:45:00 PM 13.17 55.706 0.324 8.16 5.77 9.52
4/26/2022 10:00:00 PM 13.06 55.508 0.324 8.12 5.15 9.51
4/26/2022 10:15:00 PM 12.94 55.292 0.324 8.08 4.98 9.53
4/26/2022 10:30:00 PM 12.86 55.148 0.324 8.06 4.68 9.54
4/26/2022 10:45:00 PM 12.75 54.95 0.324 8.02 4.53 9.55
4/26/2022 11:00:00 PM 12.6 54.68 0.325 7.98 4.31 9.57
4/26/2022 11:15:00 PM 12.45 54.41 0.325 7.95 4.2 9.59
4/26/2022 11:30:00 PM 12.32 54.176 0.325 7.92 4.1 9.6
4/26/2022 11:45:00 PM 12.22 53.996 0.325 7.9 4.27 9.63
4/27/2022 12:00:00 AM 12.12 53.816 0.326 7.88 4.16 9.66
4/27/2022 12:15:00 AM 12.01 53.618 0.326 7.85 4.12 9.67
4/27/2022 12:30:00 AM 11.91 53.438 0.326 7.84 4.14 9.69
4/27/2022 12:45:00 AM 11.8 53.24 0.326 7.82 4 9.72
4/27/2022 1:00:00 AM 11.7 53.06 0.327 7.81 4 9.73
4/27/2022 1:15:00 AM 11.59 52.862 0.327 7.8 4.01 9.77
4/27/2022 1:30:00 AM 11.45 52.61 0.327 7.79 3.97 9.79
4/27/2022 1:45:00 AM 11.35 52.43 0.327 7.78 3.98 9.83
4/27/2022 2:00:00 AM 11.24 52.232 0.327 7.78 4.02 9.84
4/27/2022 2:15:00 AM 11.15 52.07 0.327 7.77 3.99 9.86
4/27/2022 2:30:00 AM 11.06 51.908 0.328 7.77 4.06 9.9
4/27/2022 2:45:00 AM 10.98 51.764 0.328 7.76 4.03 9.91
4/27/2022 3:00:00 AM 10.87 51.566 0.328 7.76 3.94 9.93
4/27/2022 3:15:00 AM 10.73 51.314 0.328 7.76 4.07 9.96
4/27/2022 3:30:00 AM 10.62 51.116 0.328 7.76 4.07 9.99
4/27/2022 3:45:00 AM 10.53 50.954 0.328 7.76 4.02 10.02
4/27/2022 4:00:00 AM 10.45 50.81 0.328 7.76 4.05 10.04
4/27/2022 4:15:00 AM 10.33 50.594 0.328 7.76 3.93 10.07
4/27/2022 4:30:00 AM 10.27 50.486 0.328 7.76 3.95 10.09
4/27/2022 4:45:00 AM 10.21 50.378 0.329 7.76 3.92 10.11
4/27/2022 5:00:00 AM 10.13 50.234 0.329 7.76 4.12 10.13
4/27/2022 5:15:00 AM 10 50 0.329 7.76 3.97 10.16
4/27/2022 5:30:00 AM 9.89 49.802 0.329 7.74 4.01 10.19
4/27/2022 5:45:00 AM 9.81 49.658 0.329 7.74 3.95 10.21
4/27/2022 6:00:00 AM 9.74 49.532 0.329 7.75 3.95 10.25
4/27/2022 6:15:00 AM 9.68 49.424 0.33 7.75 3.93 10.27
4/27/2022 6:30:00 AM 9.61 49.298 0.33 7.76 4.02 10.33
4/27/2022 6:45:00 AM 9.55 49.19 0.33 7.78 3.87 10.4
4/27/2022 7:00:00 AM 9.53 49.154 0.33 7.8 4.01 10.54
4/27/2022 7:15:00 AM 9.49 49.082 0.33 7.84 3.82 10.73
4/27/2022 7:30:00 AM 9.42 48.956 0.33 7.88 3.9 10.91
4/27/2022 7:45:00 AM 9.37 48.866 0.33 7.91 4.04 11.04
4/27/2022 8:00:00 AM 9.35 48.83 0.33 7.95 3.88 11.14
4/27/2022 8:15:00 AM 9.28 48.704 0.329 7.97 3.96 11.24
4/27/2022 8:30:00 AM 9.35 48.83 0.329 8.01 3.95 11.35
4/27/2022 8:45:00 AM 9.4 48.92 0.329 8.04 4 11.49
4/27/2022 9:00:00 AM 9.48 49.064 0.329 8.09 3.9 11.62
4/27/2022 9:15:00 AM 9.64 49.352 0.329 8.13 3.96 11.7
4/27/2022 9:30:00 AM 9.67 49.406 0.329 8.16 3.86 11.78
4/27/2022 9:45:00 AM 9.78 49.604 0.329 8.2 3.85 11.81
4/27/2022 10:00:00 AM 9.78 49.604 0.329 8.22 3.88 11.86
4/27/2022 10:15:00 AM 9.9 49.82 0.329 8.24 3.86 11.91
4/27/2022 10:30:00 AM 10.05 50.09 0.328 8.27 3.86 11.94
4/27/2022 10:45:00 AM 10.13 50.234 0.328 8.3 3.79 11.95
4/27/2022 11:00:00 AM 10.17 50.306 0.328 8.32 3.87 11.96
4/27/2022 11:15:00 AM 10.18 50.324 0.328 8.34 3.83 11.98
4/27/2022 11:30:00 AM 10.24 50.432 0.328 8.36 3.76 11.98
4/27/2022 11:45:00 AM 10.48 50.864 0.327 8.39 3.8 11.99
4/27/2022 12:00:00 PM 10.69 51.242 0.327 8.41 3.75 12
4/27/2022 12:15:00 PM 10.81 51.458 0.327 8.44 3.81 12
4/27/2022 12:30:00 PM 10.93 51.674 0.327 8.46 3.74 11.99
4/27/2022 12:45:00 PM 10.97 51.746 0.326 8.49 3.82 11.99
4/27/2022 1:00:00 PM 11 51.8 0.326 8.51 3.84 11.95
4/27/2022 1:15:00 PM 10.97 51.746 0.326 8.53 3.76 11.91
4/27/2022 1:30:00 PM 11.01 51.818 0.326 8.55 3.89 11.94
4/27/2022 1:45:00 PM 11.11 51.998 0.325 8.57 4.98 11.94
4/27/2022 2:00:00 PM 11.16 52.088 0.325 8.59 7.28 11.91
4/27/2022 2:15:00 PM 11.15 52.07 0.325 8.61 9.11 11.87
4/27/2022 2:30:00 PM 11.07 51.926 0.325 8.61 11.32 11.82
4/27/2022 2:45:00 PM 11.03 51.854 0.325 8.62 11.77 11.77
4/27/2022 3:00:00 PM 10.96 51.728 0.325 8.63 11.42 11.72
4/27/2022 3:15:00 PM 11.03 51.854 0.325 8.64 9.96 11.73
4/27/2022 3:30:00 PM 11.09 51.962 0.325 8.66 8.95 11.76
4/27/2022 3:45:00 PM 11.24 52.232 0.324 8.69 7.93 11.78
4/27/2022 4:00:00 PM 11.23 52.214 0.324 8.7 6.84 11.72
4/27/2022 4:15:00 PM 11.22 52.196 0.324 8.71 6.47 11.67
4/27/2022 4:30:00 PM 11.17 52.106 0.324 8.72 6.05 11.6
4/27/2022 4:45:00 PM 11.06 51.908 0.325 8.71 5.51 11.51
4/27/2022 5:00:00 PM 10.94 51.692 0.325 8.7 5.48 11.48
4/27/2022 5:15:00 PM 10.79 51.422 0.324 8.7 5.06 11.44
4/27/2022 5:30:00 PM 10.69 51.242 0.324 8.69 5.24 11.37
4/27/2022 5:45:00 PM 10.6 51.08 0.324 8.67 4.95 11.31
4/27/2022 6:00:00 PM 10.53 50.954 0.323 8.66 4.93 11.27
4/27/2022 6:15:00 PM 10.44 50.792 0.323 8.65 5.52 11.21
4/27/2022 6:30:00 PM 10.34 50.612 0.323 8.62 7.01 11.12
4/27/2022 6:45:00 PM 10.21 50.378 0.324 8.58 9.51 11.05
4/27/2022 7:00:00 PM 10.11 50.198 0.325 8.53 13.38 11
4/27/2022 7:15:00 PM 9.99 49.982 0.325 8.46 16.46 10.92
4/27/2022 7:30:00 PM 9.9 49.82 0.326 8.4 15.94 10.83
4/27/2022 7:45:00 PM 9.8 49.64 0.327 8.32 25.41 10.73
4/27/2022 8:00:00 PM 9.69 49.442 0.327 8.24 29.98 10.66
4/27/2022 8:15:00 PM 9.59 49.262 0.328 8.17 30.03 10.6
4/27/2022 8:30:00 PM 9.5 49.1 0.328 8.12 30.55 10.57
4/27/2022 8:45:00 PM 9.4 48.92 0.328 8.07 27.36 10.55
4/27/2022 9:00:00 PM 9.3 48.74 0.328 8.04 30.26 10.56
4/27/2022 9:15:00 PM 9.21 48.578 0.328 8.02 24.82 10.56
4/27/2022 9:30:00 PM 9.13 48.434 0.328 8 22 10.58
4/27/2022 9:45:00 PM 9.05 48.29 0.328 7.98 18.66 10.59
4/27/2022 10:00:00 PM 8.96 48.128 0.328 7.97 15.26 10.6
4/27/2022 10:15:00 PM 8.84 47.912 0.328 7.95 12.96 10.64
4/27/2022 10:30:00 PM 8.75 47.75 0.328 7.93 11.78 10.64
4/27/2022 10:45:00 PM 8.67 47.606 0.328 7.92 9.66 10.66
4/27/2022 11:00:00 PM 8.58 47.444 0.328 7.9 8.83 10.68
4/27/2022 11:15:00 PM 8.51 47.318 0.328 7.89 8.07 10.7
4/27/2022 11:30:00 PM 8.43 47.174 0.329 7.87 7.14 10.71
4/27/2022 11:45:00 PM 8.34 47.012 0.329 7.86 6.87 10.73
4/28/2022 12:00:00 AM 8.25 46.85 0.329 7.85 6.56 10.75
4/28/2022 12:15:00 AM 8.17 46.706 0.329 7.84 6.18 10.78
4/28/2022 12:30:00 AM 8.08 46.544 0.329 7.83 6.03 10.8
4/28/2022 12:45:00 AM 7.99 46.382 0.329 7.82 5.67 10.82
4/28/2022 1:00:00 AM 7.89 46.202 0.33 7.81 5.36 10.85
4/28/2022 1:15:00 AM 7.8 46.04 0.33 7.81 5.39 10.87
4/28/2022 1:30:00 AM 7.73 45.914 0.33 7.8 5.31 10.88
4/28/2022 1:45:00 AM 7.65 45.77 0.33 7.8 5.19 10.91
4/28/2022 2:00:00 AM 7.57 45.626 0.33 7.8 5.08 10.93
4/28/2022 2:15:00 AM 7.47 45.446 0.33 7.79 4.9 10.95
4/28/2022 2:30:00 AM 7.42 45.356 0.33 7.79 4.91 10.98
4/28/2022 2:45:00 AM 7.35 45.23 0.331 7.79 4.66 10.99
4/28/2022 3:00:00 AM 7.3 45.14 0.331 7.78 4.74 11.01
4/28/2022 3:15:00 AM 7.24 45.032 0.331 7.78 4.65 11.03
4/28/2022 3:30:00 AM 7.17 44.906 0.331 7.78 4.61 11.05
4/28/2022 3:45:00 AM 7.09 44.762 0.331 7.78 4.53 11.08
4/28/2022 4:00:00 AM 7.03 44.654 0.332 7.78 4.44 11.1
4/28/2022 4:15:00 AM 6.99 44.582 0.332 7.78 4.5 11.12
4/28/2022 4:30:00 AM 6.93 44.474 0.332 7.78 4.3 11.13
4/28/2022 4:45:00 AM 6.86 44.348 0.332 7.78 4.37 11.16
4/28/2022 5:00:00 AM 6.82 44.276 0.332 7.78 4.28 11.18
4/28/2022 5:15:00 AM 6.76 44.168 0.332 7.78 4.22 11.19
4/28/2022 5:30:00 AM 6.71 44.078 0.333 7.78 4.3 11.21
4/28/2022 5:45:00 AM 6.66 43.988 0.333 7.78 4.09 11.23
4/28/2022 6:00:00 AM 6.6 43.88 0.333 7.78 4.14 11.24
4/28/2022 6:15:00 AM 6.54 43.772 0.333 7.78 4.11 11.28
4/28/2022 6:30:00 AM 6.46 43.628 0.333 7.78 4.05 11.34
4/28/2022 6:45:00 AM 6.38 43.484 0.333 7.8 4.15 11.43
4/28/2022 7:00:00 AM 6.31 43.358 0.333 7.82 4.02 11.55
4/28/2022 7:15:00 AM 6.24 43.232 0.333 7.84 4 11.69
4/28/2022 7:30:00 AM 6.17 43.106 0.333 7.87 4.16 11.83
4/28/2022 7:45:00 AM 6.15 43.07 0.333 7.9 4 11.97
4/28/2022 8:00:00 AM 6.15 43.07 0.333 7.93 3.98 12.09
4/28/2022 8:15:00 AM 6.2 43.16 0.333 7.96 4.02 12.2
4/28/2022 8:30:00 AM 6.29 43.322 0.333 7.99 4.03 12.29
4/28/2022 8:45:00 AM 6.41 43.538 0.333 8.02 4.02 12.38
4/28/2022 9:00:00 AM 6.57 43.826 0.333 8.05 4.02 12.44
4/28/2022 9:15:00 AM 6.74 44.132 0.333 8.08 4.05 12.49
4/28/2022 9:30:00 AM 6.94 44.492 0.333 8.1 4.11 12.53
4/28/2022 9:45:00 AM 7.15 44.87 0.332 8.12 3.99 12.54
4/28/2022 10:00:00 AM 7.4 45.32 0.332 8.15 3.92 12.56
4/28/2022 10:15:00 AM 7.67 45.806 0.332 8.17 3.94 12.55
4/28/2022 10:30:00 AM 7.96 46.328 0.332 8.19 3.99 12.55
4/28/2022 10:45:00 AM 8.25 46.85 0.332 8.21 3.88 12.54
4/28/2022 11:00:00 AM 8.57 47.426 0.332 8.23 3.89 12.52
4/28/2022 11:15:00 AM 8.87 47.966 0.332 8.25 4 12.51
4/28/2022 11:30:00 AM 9.19 48.542 0.331 8.27 3.92 12.46
4/28/2022 11:45:00 AM 9.49 49.082 0.331 8.29 3.98 12.41
4/28/2022 12:00:00 PM 9.82 49.676 0.331 8.31 3.96 12.39
4/28/2022 12:15:00 PM 10.2 50.36 0.331 8.33 3.87 12.34
4/28/2022 12:30:00 PM 10.55 50.99 0.33 8.36 3.86 12.26
4/28/2022 12:45:00 PM 10.83 51.494 0.33 8.38 3.88 12.21
4/28/2022 1:00:00 PM 11.16 52.088 0.33 8.4 3.91 12.17
4/28/2022 1:15:00 PM 11.42 52.556 0.33 8.42 3.9 12.1
4/28/2022 1:30:00 PM 11.67 53.006 0.33 8.45 3.77 12.04
4/28/2022 1:45:00 PM 11.94 53.492 0.329 8.47 3.94 11.99
4/28/2022 2:00:00 PM 12.19 53.942 0.329 8.49 3.8 11.92
4/28/2022 2:15:00 PM 12.45 54.41 0.329 8.51 3.92 11.87
4/28/2022 2:30:00 PM 12.72 54.896 0.329 8.53 3.87 11.79
4/28/2022 2:45:00 PM 12.93 55.274 0.328 8.55 3.86 11.74
4/28/2022 3:00:00 PM 13.12 55.616 0.328 8.56 4.04 11.67
4/28/2022 3:15:00 PM 13.29 55.922 0.328 8.58 4.24 11.63
4/28/2022 3:30:00 PM 13.41 56.138 0.328 8.6 4.87 11.56
4/28/2022 3:45:00 PM 13.56 56.408 0.328 8.62 5.92 11.53
4/28/2022 4:00:00 PM 13.65 56.57 0.328 8.64 7.64 11.48
4/28/2022 4:15:00 PM 13.68 56.624 0.327 8.66 9.04 11.43
4/28/2022 4:30:00 PM 13.71 56.678 0.327 8.68 9.79 11.39
4/28/2022 4:45:00 PM 13.73 56.714 0.327 8.7 10.79 11.34
4/28/2022 5:00:00 PM 13.72 56.696 0.326 8.71 10.68 11.31
4/28/2022 5:15:00 PM 13.68 56.624 0.327 8.72 10.94 11.25
4/28/2022 5:30:00 PM 13.61 56.498 0.327 8.73 11.33 11.2
4/28/2022 5:45:00 PM 13.53 56.354 0.327 8.74 12.83 11.15
4/28/2022 6:00:00 PM 13.42 56.156 0.327 8.74 14.32 11.08
4/28/2022 6:15:00 PM 13.27 55.886 0.328 8.73 16.34 11.01
4/28/2022 6:30:00 PM 13.11 55.598 0.328 8.72 18.97 10.93
4/28/2022 6:45:00 PM 12.97 55.346 0.329 8.69 19.55 10.84
4/28/2022 7:00:00 PM 12.81 55.058 0.329 8.67 21.64 10.76
4/28/2022 7:15:00 PM 12.67 54.806 0.329 8.63 21.86 10.64
4/28/2022 7:30:00 PM 12.51 54.518 0.33 8.59 22.2 10.52
4/28/2022 7:45:00 PM 12.36 54.248 0.33 8.55 21.58 10.39
4/28/2022 8:00:00 PM 12.21 53.978 0.329 8.51 20.64 10.29
4/28/2022 8:15:00 PM 12.07 53.726 0.329 8.46 18.95 10.18
4/28/2022 8:30:00 PM 11.94 53.492 0.328 8.41 19.34 10.09
4/28/2022 8:45:00 PM 11.82 53.276 0.328 8.36 17.96 10.02
4/28/2022 9:00:00 PM 11.7 53.06 0.328 8.31 17.2 9.99
4/28/2022 9:15:00 PM 11.55 52.79 0.328 8.27 17.58 9.97
4/28/2022 9:30:00 PM 11.41 52.538 0.328 8.23 19.12 9.97
4/28/2022 9:45:00 PM 11.26 52.268 0.328 8.18 21.7 9.96
4/28/2022 10:00:00 PM 11.11 51.998 0.329 8.13 24.64 9.98
4/28/2022 10:15:00 PM 10.97 51.746 0.329 8.08 28.13 9.99
4/28/2022 10:30:00 PM 10.81 51.458 0.33 8.04 32.15 10.01
4/28/2022 10:45:00 PM 10.66 51.188 0.33 8 36.45 10.04
4/28/2022 11:00:00 PM 10.49 50.882 0.331 7.96 36.41 10.07
4/28/2022 11:15:00 PM 10.32 50.576 0.331 7.94 40.57 10.11
4/28/2022 11:30:00 PM 10.17 50.306 0.331 7.91 36.56 10.14
4/28/2022 11:45:00 PM 9.99 49.982 0.331 7.9 35.94 10.18
4/29/2022 12:00:00 AM 9.82 49.676 0.332 7.88 32.9 10.23
4/29/2022 12:15:00 AM 9.64 49.352 0.332 7.87 26.35 10.28
4/29/2022 12:30:00 AM 9.46 49.028 0.332 7.85 24.58 10.33
4/29/2022 12:45:00 AM 9.29 48.722 0.332 7.84 18.84 10.37
4/29/2022 1:00:00 AM 9.12 48.416 0.332 7.83 19.72 10.42
4/29/2022 1:15:00 AM 8.98 48.164 0.333 7.82 17.17 10.45
4/29/2022 1:30:00 AM 8.81 47.858 0.333 7.81 14.83 10.5
4/29/2022 1:45:00 AM 8.66 47.588 0.333 7.81 13.98 10.54
4/29/2022 2:00:00 AM 8.52 47.336 0.333 7.8 12.39 10.59
4/29/2022 2:15:00 AM 8.37 47.066 0.333 7.79 11.25 10.62
4/29/2022 2:30:00 AM 8.23 46.814 0.334 7.79 9.76 10.67
4/29/2022 2:45:00 AM 8.09 46.562 0.334 7.78 9.18 10.71
4/29/2022 3:00:00 AM 7.95 46.31 0.334 7.77 8.83 10.74
4/29/2022 3:15:00 AM 7.82 46.076 0.335 7.77 8 10.79
4/29/2022 3:30:00 AM 7.7 45.86 0.335 7.76 7.5 10.82
4/29/2022 3:45:00 AM 7.57 45.626 0.335 7.76 7.1 10.86
4/29/2022 4:00:00 AM 7.46 45.428 0.336 7.75 7.11 10.89
4/29/2022 4:15:00 AM 7.35 45.23 0.336 7.75 6.86 10.93
4/29/2022 4:30:00 AM 7.23 45.014 0.336 7.75 6.73 10.97
4/29/2022 4:45:00 AM 7.11 44.798 0.336 7.75 6.4 11.01
4/29/2022 5:00:00 AM 7 44.6 0.337 7.74 6.05 11.05
4/29/2022 5:15:00 AM 6.89 44.402 0.337 7.75 6.11 11.07
4/29/2022 5:30:00 AM 6.78 44.204 0.337 7.74 5.79 11.12
4/29/2022 5:45:00 AM 6.67 44.006 0.337 7.74 5.76 11.15
4/29/2022 6:00:00 AM 6.59 43.862 0.337 7.74 5.54 11.18
4/29/2022 6:15:00 AM 6.48 43.664 0.337 7.74 5.48 11.24
4/29/2022 6:30:00 AM 6.39 43.502 0.337 7.75 5.3 11.31
4/29/2022 6:45:00 AM 6.32 43.376 0.337 7.77 5.2 11.41
4/29/2022 7:00:00 AM 6.26 43.268 0.337 7.79 5.32 11.54
4/29/2022 7:15:00 AM 6.22 43.196 0.337 7.81 5.24 11.66
4/29/2022 7:30:00 AM 6.21 43.178 0.337 7.84 5.07 11.82
4/29/2022 7:45:00 AM 6.23 43.214 0.337 7.87 4.99 11.93
4/29/2022 8:00:00 AM 6.28 43.304 0.337 7.9 4.88 12.05
4/29/2022 8:15:00 AM 6.35 43.43 0.337 7.93 4.93 12.18
4/29/2022 8:30:00 AM 6.47 43.646 0.337 7.96 4.93 12.28
4/29/2022 8:45:00 AM 6.61 43.898 0.337 7.99 4.78 12.34
4/29/2022 9:00:00 AM 6.75 44.15 0.337 8.02 4.74 12.41
4/29/2022 9:15:00 AM 6.96 44.528 0.336 8.05 4.64 12.46
4/29/2022 9:30:00 AM 7.18 44.924 0.336 8.07 4.5 12.49
4/29/2022 9:45:00 AM 7.43 45.374 0.336 8.1 4.55 12.52
4/29/2022 10:00:00 AM 7.68 45.824 0.336 8.13 4.49 12.53
4/29/2022 10:15:00 AM 7.99 46.382 0.336 8.14 4.42 12.52
4/29/2022 10:30:00 AM 8.3 46.94 0.336 8.17 4.53 12.53
4/29/2022 10:45:00 AM 8.62 47.516 0.336 8.19 4.46 12.52
4/29/2022 11:00:00 AM 8.91 48.038 0.336 8.21 4.42 12.51
4/29/2022 11:15:00 AM 9.27 48.686 0.335 8.23 4.43 12.49
4/29/2022 11:30:00 AM 9.57 49.226 0.335 8.25 4.38 12.44
4/29/2022 11:45:00 AM 9.92 49.856 0.335 8.27 4.34 12.42
4/29/2022 12:00:00 PM 10.25 50.45 0.335 8.29 4.42 12.37
4/29/2022 12:15:00 PM 10.61 51.098 0.335 8.32 4.38 12.32
4/29/2022 12:30:00 PM 10.99 51.782 0.335 8.34 4.36 12.26
4/29/2022 12:45:00 PM 11.28 52.304 0.335 8.36 4.41 12.21
4/29/2022 1:00:00 PM 11.63 52.934 0.335 8.38 4.31 12.14
4/29/2022 1:15:00 PM 11.98 53.564 0.334 8.41 4.23 12.09
4/29/2022 1:30:00 PM 12.27 54.086 0.335 8.42 4.28 12.04
4/29/2022 1:45:00 PM 12.62 54.716 0.334 8.45 4.15 11.98
4/29/2022 2:00:00 PM 12.93 55.274 0.334 8.48 4.18 11.88
4/29/2022 2:15:00 PM 13.2 55.76 0.334 8.5 4.31 11.81
4/29/2022 2:30:00 PM 13.48 56.264 0.334 8.52 4.26 11.75
4/29/2022 2:45:00 PM 13.74 56.732 0.333 8.54 4.32 11.68
4/29/2022 3:00:00 PM 13.99 57.182 0.333 8.56 4.28 11.62
4/29/2022 3:15:00 PM 14.18 57.524 0.333 8.58 4.22 11.54
4/29/2022 3:30:00 PM 14.42 57.956 0.333 8.59 4.3 11.47
4/29/2022 3:45:00 PM 14.56 58.208 0.333 8.61 4.17 11.41
4/29/2022 4:00:00 PM 14.64 58.352 0.332 8.62 4.25 11.34
4/29/2022 4:15:00 PM 14.72 58.496 0.332 8.64 4.27 11.27
4/29/2022 4:30:00 PM 14.78 58.604 0.332 8.65 4.26 11.22
4/29/2022 4:45:00 PM 14.79 58.622 0.332 8.66 4.16 11.17
4/29/2022 5:00:00 PM 14.7 58.46 0.332 8.67 4.23 11.09
4/29/2022 5:15:00 PM 14.67 58.406 0.332 8.68 4.15 11.02
4/29/2022 5:30:00 PM 14.59 58.262 0.332 8.68 4.12 10.95
4/29/2022 5:45:00 PM 14.56 58.208 0.331 8.69 4.11 10.91
4/29/2022 6:00:00 PM 14.47 58.046 0.331 8.69 4.09 10.86
4/29/2022 6:15:00 PM 14.37 57.866 0.331 8.7 4.08 10.81
4/29/2022 6:30:00 PM 14.27 57.686 0.331 8.69 4.11 10.74
4/29/2022 6:45:00 PM 14.13 57.434 0.331 8.68 4.02 10.66
4/29/2022 7:00:00 PM 14.03 57.254 0.331 8.68 4.08 10.59
4/29/2022 7:15:00 PM 13.89 57.002 0.331 8.66 4.04 10.51
4/29/2022 7:30:00 PM 13.75 56.75 0.332 8.63 3.98 10.39
4/29/2022 7:45:00 PM 13.62 56.516 0.332 8.6 3.99 10.25
4/29/2022 8:00:00 PM 13.49 56.282 0.333 8.56 3.95 10.11
4/29/2022 8:15:00 PM 13.36 56.048 0.333 8.51 3.96 9.97
4/29/2022 8:30:00 PM 13.24 55.832 0.334 8.46 3.93 9.85
4/29/2022 8:45:00 PM 13.12 55.616 0.334 8.41 3.98 9.75
4/29/2022 9:00:00 PM 12.99 55.382 0.334 8.36 4.02 9.69
4/29/2022 9:15:00 PM 12.85 55.13 0.334 8.31 4.12 9.65
4/29/2022 9:30:00 PM 12.7 54.86 0.335 8.27 4.14 9.62
4/29/2022 9:45:00 PM 12.58 54.644 0.335 8.24 4.11 9.62
4/29/2022 10:00:00 PM 12.45 54.41 0.335 8.2 4.13 9.61
4/29/2022 10:15:00 PM 12.31 54.158 0.335 8.17 4.2 9.62
4/29/2022 10:30:00 PM 12.18 53.924 0.335 8.14 4.21 9.63
4/29/2022 10:45:00 PM 12.05 53.69 0.335 8.11 4.19 9.64
4/29/2022 11:00:00 PM 11.91 53.438 0.335 8.08 4.11 9.67
4/29/2022 11:15:00 PM 11.76 53.168 0.336 8.04 4.2 9.69
4/29/2022 11:30:00 PM 11.6 52.88 0.336 8.01 4.12 9.72
4/29/2022 11:45:00 PM 11.44 52.592 0.336 7.98 4.26 9.74
4/30/2022 12:00:00 AM 11.26 52.268 0.336 7.96 4.16 9.81
4/30/2022 12:15:00 AM 11.09 51.962 0.336 7.93 4.27 9.83
4/30/2022 12:30:00 AM 10.92 51.656 0.337 7.91 4.32 9.87
4/30/2022 12:45:00 AM 10.74 51.332 0.337 7.89 4.39 9.92
4/30/2022 1:00:00 AM 10.56 51.008 0.337 7.87 4.6 9.95
4/30/2022 1:15:00 AM 10.37 50.666 0.337 7.85 4.69 10.01
4/30/2022 1:30:00 AM 10.19 50.342 0.338 7.83 4.86 10.05
4/30/2022 1:45:00 AM 10 50 0.338 7.82 4.97 10.11
4/30/2022 2:00:00 AM 9.83 49.694 0.338 7.8 4.97 10.13
4/30/2022 2:15:00 AM 9.64 49.352 0.339 7.8 5.05 10.19
4/30/2022 2:30:00 AM 9.47 49.046 0.339 7.79 5.05 10.23
4/30/2022 2:45:00 AM 9.31 48.758 0.339 7.78 5.07 10.28
4/30/2022 3:00:00 AM 9.14 48.452 0.34 7.77 5.05 10.33
4/30/2022 3:15:00 AM 8.98 48.164 0.34 7.76 4.97 10.37
4/30/2022 3:30:00 AM 8.85 47.93 0.34 7.76 4.8 10.4
4/30/2022 3:45:00 AM 8.69 47.642 0.34 7.75 4.73 10.47
4/30/2022 4:00:00 AM 8.53 47.354 0.341 7.75 4.63 10.5
4/30/2022 4:15:00 AM 8.4 47.12 0.341 7.75 4.56 10.53
4/30/2022 4:30:00 AM 8.25 46.85 0.341 7.75 4.57 10.59
4/30/2022 4:45:00 AM 8.11 46.598 0.341 7.74 4.49 10.62
4/30/2022 5:00:00 AM 8 46.4 0.341 7.75 4.4 10.66
4/30/2022 5:15:00 AM 7.87 46.166 0.342 7.73 4.36 10.7
4/30/2022 5:30:00 AM 7.77 45.986 0.342 7.73 4.48 10.73
4/30/2022 5:45:00 AM 7.64 45.752 0.342 7.73 4.27 10.77
4/30/2022 6:00:00 AM 7.51 45.518 0.342 7.73 4.38 10.83
4/30/2022 6:15:00 AM 7.43 45.374 0.343 7.73 4.26 10.85
4/30/2022 6:30:00 AM 7.29 45.122 0.343 7.73 4.37 10.95
4/30/2022 6:45:00 AM 7.18 44.924 0.343 7.75 4.32 11.06
4/30/2022 7:00:00 AM 7.11 44.798 0.343 7.76 4.17 11.2
4/30/2022 7:15:00 AM 7.07 44.726 0.344 7.79 4.2 11.35
4/30/2022 7:30:00 AM 7.02 44.636 0.343 7.83 4.27 11.51
4/30/2022 7:45:00 AM 7.03 44.654 0.343 7.86 4.26 11.66
4/30/2022 8:00:00 AM 7.06 44.708 0.343 7.89 4.25 11.78
4/30/2022 8:15:00 AM 7.12 44.816 0.343 7.9 4.34 11.9
4/30/2022 8:30:00 AM 7.22 44.996 0.344 7.93 4.44 11.99
4/30/2022 8:45:00 AM 7.36 45.248 0.344 7.96 4.44 12.09
4/30/2022 9:00:00 AM 7.54 45.572 0.344 7.99 4.47 12.17
4/30/2022 9:15:00 AM 7.78 46.004 0.344 8.03 4.57 12.22
4/30/2022 9:30:00 AM 8.06 46.508 0.343 8.06 4.58 12.25
4/30/2022 9:45:00 AM 8.36 47.048 0.343 8.09 4.72 12.29
4/30/2022 10:00:00 AM 8.68 47.624 0.343 8.12 4.72 12.31
4/30/2022 10:15:00 AM 9 48.2 0.343 8.15 4.67 12.32
4/30/2022 10:30:00 AM 9.34 48.812 0.343 8.17 4.49 12.32
4/30/2022 10:45:00 AM 9.69 49.442 0.343 8.19 4.61 12.31
4/30/2022 11:00:00 AM 10.06 50.108 0.343 8.22 4.45 12.29
4/30/2022 11:15:00 AM 10.39 50.702 0.343 8.24 4.33 12.26
4/30/2022 11:30:00 AM 10.77 51.386 0.343 8.26 4.33 12.24
4/30/2022 11:45:00 AM 11.09 51.962 0.342 8.28 4.26 12.2
4/30/2022 12:00:00 PM 11.45 52.61 0.342 8.31 4.37 12.17
4/30/2022 12:15:00 PM 11.86 53.348 0.342 8.32 4.21 12.13
4/30/2022 12:30:00 PM 12.22 53.996 0.342 8.35 4.19 12.05
4/30/2022 12:45:00 PM 12.54 54.572 0.342 8.37 4.04 12.01
4/30/2022 1:00:00 PM 12.89 55.202 0.341 8.39 4.02 11.95
4/30/2022 1:15:00 PM 13.22 55.796 0.341 8.41 4.14 11.9
4/30/2022 1:30:00 PM 13.5 56.3 0.341 8.43 4.11 11.86
4/30/2022 1:45:00 PM 13.76 56.768 0.341 8.45 4.05 11.79
4/30/2022 2:00:00 PM 14.12 57.416 0.341 8.48 4.04 11.72
4/30/2022 2:15:00 PM 14.34 57.812 0.341 8.49 4 11.63
4/30/2022 2:30:00 PM 14.64 58.352 0.341 8.52 4.02 11.59
4/30/2022 2:45:00 PM 14.87 58.766 0.341 8.54 4 11.52
4/30/2022 3:00:00 PM 15.04 59.072 0.34 8.55 3.97 11.43
4/30/2022 3:15:00 PM 15.3 59.54 0.34 8.58 4.01 11.39
4/30/2022 3:30:00 PM 15.48 59.864 0.34 8.59 4.07 11.31
4/30/2022 3:45:00 PM 15.66 60.188 0.34 8.61 3.97 11.24
4/30/2022 4:00:00 PM 15.75 60.35 0.339 8.62 4.11 11.17
4/30/2022 4:15:00 PM 15.89 60.602 0.339 8.65 3.97 11.12
4/30/2022 4:30:00 PM 15.95 60.71 0.339 8.66 3.87 11.04
4/30/2022 4:45:00 PM 16.01 60.818 0.339 8.67 3.97 10.97
4/30/2022 5:00:00 PM 16.05 60.89 0.338 8.68 3.91 10.92
4/30/2022 5:15:00 PM 16.04 60.872 0.338 8.69 3.96 10.87
4/30/2022 5:30:00 PM 16.02 60.836 0.338 8.7 3.87 10.8
4/30/2022 5:45:00 PM 16 60.8 0.338 8.71 3.86 10.75
4/30/2022 6:00:00 PM 15.92 60.656 0.338 8.72 3.91 10.68
4/30/2022 6:15:00 PM 15.85 60.53 0.337 8.72 3.87 10.6
4/30/2022 6:30:00 PM 15.74 60.332 0.337 8.73 3.82 10.56
4/30/2022 6:45:00 PM 15.62 60.116 0.337 8.72 3.84 10.49
4/30/2022 7:00:00 PM 15.47 59.846 0.337 8.71 3.77 10.39
4/30/2022 7:15:00 PM 15.34 59.612 0.337 8.7 3.78 10.3
4/30/2022 7:30:00 PM 15.2 59.36 0.337 8.68 3.8 10.17
4/30/2022 7:45:00 PM 15.08 59.144 0.338 8.66 3.83 10.03
4/30/2022 8:00:00 PM 14.95 58.91 0.338 8.63 3.74 9.86
4/30/2022 8:15:00 PM 14.81 58.658 0.338 8.58 3.83 9.68
4/30/2022 8:30:00 PM 14.68 58.424 0.339 8.52 3.86 9.52
4/30/2022 8:45:00 PM 14.55 58.19 0.339 8.47 3.82 9.41
4/30/2022 9:00:00 PM 14.42 57.956 0.34 8.42 3.88 9.31
4/30/2022 9:15:00 PM 14.31 57.758 0.34 8.37 3.92 9.24
4/30/2022 9:30:00 PM 14.19 57.542 0.34 8.33 3.97 9.21
4/30/2022 9:45:00 PM 14.09 57.362 0.34 8.29 3.95 9.18
4/30/2022 10:00:00 PM 13.98 57.164 0.341 8.26 4.07 9.18
4/30/2022 10:15:00 PM 13.88 56.984 0.341 8.22 4.18 9.17
4/30/2022 10:30:00 PM 13.77 56.786 0.341 8.19 4.03 9.17
4/30/2022 10:45:00 PM 13.66 56.588 0.341 8.16 4.01 9.18
4/30/2022 11:00:00 PM 13.53 56.354 0.341 8.13 3.96 9.19
4/30/2022 11:15:00 PM 13.4 56.12 0.341 8.09 4.04 9.21
4/30/2022 11:30:00 PM 13.26 55.868 0.341 8.06 4.04 9.22
4/30/2022 11:45:00 PM 13.11 55.598 0.342 8.02 4.08 9.25
5/1/2022 12:00:00 AM 12.95 55.31 0.342 8 4.05 9.28
5/1/2022 12:15:00 AM 12.79 55.022 0.342 7.97 3.99 9.3
5/1/2022 12:30:00 AM 12.62 54.716 0.342 7.94 3.98 9.34
5/1/2022 12:45:00 AM 12.44 54.392 0.343 7.92 4.06 9.39
5/1/2022 1:00:00 AM 12.25 54.05 0.343 7.9 4.06 9.42
5/1/2022 1:15:00 AM 12.06 53.708 0.343 7.88 4.11 9.47
5/1/2022 1:30:00 AM 11.88 53.384 0.344 7.86 4.09 9.51
5/1/2022 1:45:00 AM 11.69 53.042 0.344 7.84 4.1 9.56
5/1/2022 2:00:00 AM 11.5 52.7 0.344 7.82 4.15 9.61
5/1/2022 2:15:00 AM 11.31 52.358 0.344 7.81 4.09 9.66
5/1/2022 2:30:00 AM 11.15 52.07 0.345 7.79 4.11 9.68
5/1/2022 2:45:00 AM 10.96 51.728 0.345 7.78 4.1 9.72
5/1/2022 3:00:00 AM 10.79 51.422 0.346 7.77 4.21 9.77
5/1/2022 3:15:00 AM 10.64 51.152 0.346 7.76 4.23 9.82
5/1/2022 3:30:00 AM 10.49 50.882 0.346 7.76 4.22 9.84
5/1/2022 3:45:00 AM 10.28 50.504 0.347 7.75 4.3 9.92
5/1/2022 4:00:00 AM 10.13 50.234 0.347 7.75 4.29 9.96
5/1/2022 4:15:00 AM 9.95 49.91 0.347 7.75 4.19 10.01
5/1/2022 4:30:00 AM 9.81 49.658 0.347 7.74 4.21 10.06
5/1/2022 4:45:00 AM 9.66 49.388 0.348 7.74 4.22 10.09
5/1/2022 5:00:00 AM 9.54 49.172 0.348 7.73 4.19 10.12
5/1/2022 5:15:00 AM 9.41 48.938 0.348 7.73 4.25 10.15
5/1/2022 5:30:00 AM 9.24 48.632 0.349 7.73 4.26 10.21
5/1/2022 5:45:00 AM 9.13 48.434 0.349 7.72 4.22 10.24
5/1/2022 6:00:00 AM 8.99 48.182 0.349 7.72 4.17 10.3
5/1/2022 6:15:00 AM 8.88 47.984 0.349 7.72 4.21 10.36
5/1/2022 6:30:00 AM 8.8 47.84 0.35 7.73 4.11 10.41
5/1/2022 6:45:00 AM 8.7 47.66 0.35 7.75 4.2 10.58
5/1/2022 7:00:00 AM 8.64 47.552 0.35 7.77 4.12 10.72
5/1/2022 7:15:00 AM 8.59 47.462 0.35 7.79 4.15 10.87
5/1/2022 7:30:00 AM 8.57 47.426 0.35 7.83 4.04 11.05
5/1/2022 7:45:00 AM 8.59 47.462 0.35 7.86 4.05 11.22
5/1/2022 8:00:00 AM 8.64 47.552 0.35 7.89 4.03 11.35
5/1/2022 8:15:00 AM 8.72 47.696 0.35 7.94 3.99 11.53
5/1/2022 8:30:00 AM 8.85 47.93 0.35 7.97 4.03 11.64
5/1/2022 8:45:00 AM 8.97 48.146 0.35 8.01 4.02 11.76
5/1/2022 9:00:00 AM 9.12 48.416 0.35 8.04 3.98 11.8
5/1/2022 9:15:00 AM 9.32 48.776 0.35 8.08 4.03 11.87
5/1/2022 9:30:00 AM 9.53 49.154 0.35 8.11 3.99 11.89
5/1/2022 9:45:00 AM 9.81 49.658 0.35 8.13 3.94 11.91
5/1/2022 10:00:00 AM 10.11 50.198 0.35 8.16 3.94 11.93
5/1/2022 10:15:00 AM 10.46 50.828 0.35 8.19 3.89 11.94
5/1/2022 10:30:00 AM 10.84 51.512 0.35 8.21 3.93 11.93
5/1/2022 10:45:00 AM 11.07 51.926 0.35 8.24 3.86 11.94
5/1/2022 11:00:00 AM 11.49 52.682 0.35 8.27 3.83 11.93
5/1/2022 11:15:00 AM 11.8 53.24 0.35 8.29 3.74 11.91
5/1/2022 11:30:00 AM 12.04 53.672 0.35 8.31 3.85 11.88
5/1/2022 11:45:00 AM 12.25 54.05 0.35 8.33 3.79 11.87
5/1/2022 12:00:00 PM 12.57 54.626 0.35 8.35 3.83 11.84
5/1/2022 12:15:00 PM 12.64 54.752 0.35 8.36 3.77 11.82
5/1/2022 12:30:00 PM 12.79 55.022 0.35 8.38 3.78 11.77
5/1/2022 12:45:00 PM 12.72 54.896 0.35 8.39 3.83 11.68
5/1/2022 1:00:00 PM 12.56 54.608 0.35 8.39 3.77 11.59
5/1/2022 1:15:00 PM 12.41 54.338 0.35 8.38 3.81 11.54
5/1/2022 1:30:00 PM 12.35 54.23 0.35 8.41 3.81 11.54
5/1/2022 1:45:00 PM 12.27 54.086 0.349 8.41 3.8 11.47
5/1/2022 2:00:00 PM 12.17 53.906 0.349 8.42 3.79 11.39
5/1/2022 2:15:00 PM 12.14 53.852 0.348 8.43 3.8 11.39
5/1/2022 2:30:00 PM 12.09 53.762 0.348 8.43 3.79 11.35
5/1/2022 2:45:00 PM 12.12 53.816 0.347 8.44 3.74 11.25
5/1/2022 3:00:00 PM 12.15 53.87 0.347 8.44 3.77 11.16
5/1/2022 3:15:00 PM 12.16 53.888 0.348 8.45 3.84 11.14
5/1/2022 3:30:00 PM 12.19 53.942 0.347 8.46 3.88 11.15
5/1/2022 3:45:00 PM 12.22 53.996 0.346 8.47 3.86 11.11
5/1/2022 4:00:00 PM 12.24 54.032 0.345 8.47 3.81 11.07
5/1/2022 4:15:00 PM 12.27 54.086 0.345 8.48 3.83 11.06
5/1/2022 4:30:00 PM 12.29 54.122 0.344 8.49 3.81 11.03
5/1/2022 4:45:00 PM 12.34 54.212 0.344 8.5 3.79 11.01
5/1/2022 5:00:00 PM 12.38 54.284 0.344 8.5 3.8 10.94
5/1/2022 5:15:00 PM 12.42 54.356 0.344 8.5 3.78 10.88
5/1/2022 5:30:00 PM 12.47 54.446 0.344 8.49 3.66 10.78
5/1/2022 5:45:00 PM 12.53 54.554 0.344 8.49 3.77 10.7
5/1/2022 6:00:00 PM 12.58 54.644 0.344 8.49 3.74 10.61
5/1/2022 6:15:00 PM 12.63 54.734 0.343 8.47 3.75 10.55
5/1/2022 6:30:00 PM 12.68 54.824 0.343 8.47 3.72 10.49
5/1/2022 6:45:00 PM 12.72 54.896 0.343 8.46 3.7 10.47
5/1/2022 7:00:00 PM 12.72 54.896 0.343 8.45 3.79 10.37
5/1/2022 7:15:00 PM 12.71 54.878 0.343 8.42 3.81 10.25
5/1/2022 7:30:00 PM 12.68 54.824 0.343 8.38 3.75 10.15
5/1/2022 7:45:00 PM 12.65 54.77 0.344 8.35 3.77 10.08
5/1/2022 8:00:00 PM 12.62 54.716 0.344 8.31 3.7 10.01
5/1/2022 8:15:00 PM 12.56 54.608 0.344 8.26 3.76 9.89
5/1/2022 8:30:00 PM 12.51 54.518 0.344 8.21 3.76 9.82
5/1/2022 8:45:00 PM 12.46 54.428 0.344 8.16 3.92 9.74
5/1/2022 9:00:00 PM 12.41 54.338 0.345 8.12 3.85 9.71
5/1/2022 9:15:00 PM 12.36 54.248 0.345 8.08 3.87 9.68
5/1/2022 9:30:00 PM 12.3 54.14 0.345 8.05 3.96 9.65
5/1/2022 9:45:00 PM 12.26 54.068 0.345 8.02 3.93 9.64
5/1/2022 10:00:00 PM 12.2 53.96 0.345 7.99 4.02 9.64
5/1/2022 10:15:00 PM 12.15 53.87 0.345 7.97 3.98 9.65
5/1/2022 10:30:00 PM 12.09 53.762 0.345 7.95 4.04 9.64
5/1/2022 10:45:00 PM 12.04 53.672 0.345 7.93 4.13 9.65
5/1/2022 11:00:00 PM 11.98 53.564 0.345 7.91 4.01 9.64
5/1/2022 11:15:00 PM 11.94 53.492 0.346 7.9 4.03 9.66
5/1/2022 11:30:00 PM 11.89 53.402 0.346 7.88 4.07 9.66
5/1/2022 11:45:00 PM 11.84 53.312 0.346 7.87 4.04 9.66
5/2/2022 12:00:00 AM 11.8 53.24 0.346 7.86 4.02 9.68
5/2/2022 12:15:00 AM 11.76 53.168 0.346 7.85 4.08 9.68
5/2/2022 12:30:00 AM 11.72 53.096 0.346 7.84 4.03 9.69
5/2/2022 12:45:00 AM 11.68 53.024 0.346 7.83 4.13 9.69
5/2/2022 1:00:00 AM 11.65 52.97 0.346 7.82 4.12 9.71
5/2/2022 1:15:00 AM 11.61 52.898 0.347 7.81 4.15 9.7
5/2/2022 1:30:00 AM 11.57 52.826 0.346 7.81 4.14 9.72
5/2/2022 1:45:00 AM 11.52 52.736 0.347 7.8 4.18 9.72
5/2/2022 2:00:00 AM 11.48 52.664 0.346 7.79 4.28 9.74
5/2/2022 2:15:00 AM 11.42 52.556 0.346 7.78 4.31 9.75
5/2/2022 2:30:00 AM 11.36 52.448 0.347 7.78 4.3 9.74
5/2/2022 2:45:00 AM 11.28 52.304 0.347 7.77 4.35 9.76
5/2/2022 3:00:00 AM 11.21 52.178 0.347 7.77 4.26 9.77
5/2/2022 3:15:00 AM 11.14 52.052 0.347 7.77 4.26 9.79
5/2/2022 3:30:00 AM 11.08 51.944 0.347 7.77 4.26 9.8
5/2/2022 3:45:00 AM 11.03 51.854 0.347 7.76 4.34 9.82
5/2/2022 4:00:00 AM 11 51.8 0.347 7.76 4.41 9.83
5/2/2022 4:15:00 AM 10.99 51.782 0.347 7.76 4.33 9.83
5/2/2022 4:30:00 AM 10.98 51.764 0.347 7.75 4.33 9.84
5/2/2022 4:45:00 AM 10.97 51.746 0.347 7.75 4.3 9.85
5/2/2022 5:00:00 AM 10.95 51.71 0.347 7.75 4.38 9.86
5/2/2022 5:15:00 AM 10.94 51.692 0.347 7.74 4.33 9.87
5/2/2022 5:30:00 AM 10.91 51.638 0.347 7.75 4.35 9.87
5/2/2022 5:45:00 AM 10.88 51.584 0.347 7.75 4.24 9.89
5/2/2022 6:00:00 AM 10.85 51.53 0.347 7.74 4.24 9.89
5/2/2022 6:15:00 AM 10.8 51.44 0.347 7.75 4.2 9.93
5/2/2022 6:30:00 AM 10.77 51.386 0.347 7.75 4.23 9.98
5/2/2022 6:45:00 AM 10.76 51.368 0.347 7.77 4.23 10.09
5/2/2022 7:00:00 AM 10.74 51.332 0.347 7.8 4.17 10.22
5/2/2022 7:15:00 AM 10.71 51.278 0.347 7.82 4.15 10.35
5/2/2022 7:30:00 AM 10.7 51.26 0.347 7.84 4.09 10.47
5/2/2022 7:45:00 AM 10.76 51.368 0.346 7.88 4.1 10.63
5/2/2022 8:00:00 AM 10.82 51.476 0.346 7.92 4.12 10.78
5/2/2022 8:15:00 AM 10.91 51.638 0.346 7.96 3.99 10.91
5/2/2022 8:30:00 AM 11.01 51.818 0.346 7.99 4.05 11.01
5/2/2022 8:45:00 AM 11.06 51.908 0.346 8.02 4.09 11.04
5/2/2022 9:00:00 AM 11.12 52.016 0.345 8.04 3.95 11.05
5/2/2022 9:15:00 AM 11.3 52.34 0.345 8.06 3.98 11.07
5/2/2022 9:30:00 AM 11.37 52.466 0.345 8.09 3.95 11.17
5/2/2022 9:45:00 AM 11.45 52.61 0.345 8.12 3.92 11.19
5/2/2022 10:00:00 AM 11.57 52.826 0.345 8.14 3.95 11.23
5/2/2022 10:15:00 AM 11.76 53.168 0.345 8.16 3.91 11.26
5/2/2022 10:30:00 AM 11.88 53.384 0.344 8.19 3.94 11.32
5/2/2022 10:45:00 AM 11.94 53.492 0.344 8.22 3.91 11.32
5/2/2022 11:00:00 AM 11.89 53.402 0.344 8.22 3.88 11.25
5/2/2022 11:15:00 AM 11.84 53.312 0.344 8.21 3.93 11.12
5/2/2022 11:30:00 AM 11.76 53.168 0.344 8.19 3.99 10.98
5/2/2022 11:45:00 AM 11.66 52.988 0.345 8.18 3.82 10.86
5/2/2022 12:00:00 PM 11.58 52.844 0.345 8.16 3.91 10.79
5/2/2022 12:15:00 PM 11.67 53.006 0.344 8.17 3.83 10.87
5/2/2022 12:30:00 PM 11.76 53.168 0.344 8.22 3.8 11.02
5/2/2022 12:45:00 PM 11.94 53.492 0.343 8.26 3.88 11.13
5/2/2022 1:00:00 PM 12.06 53.708 0.343 8.3 3.87 11.19
5/2/2022 1:15:00 PM 12.24 54.032 0.342 8.35 3.87 11.25
5/2/2022 1:30:00 PM 12.55 54.59 0.342 8.39 3.85 11.29
5/2/2022 1:45:00 PM 12.86 55.148 0.342 8.42 3.86 11.32
5/2/2022 2:00:00 PM 13.16 55.688 0.342 8.44 3.88 11.32
5/2/2022 2:15:00 PM 13.32 55.976 0.342 8.46 3.9 11.28
5/2/2022 2:30:00 PM 13.41 56.138 0.341 8.48 3.91 11.23
5/2/2022 2:45:00 PM 13.54 56.372 0.34 8.51 4.25 11.21
5/2/2022 3:00:00 PM 13.63 56.534 0.34 8.53 4.89 11.17
5/2/2022 3:15:00 PM 13.63 56.534 0.339 8.55 6.16 11.13
5/2/2022 3:30:00 PM 13.6 56.48 0.339 8.55 8.27 11.07
5/2/2022 3:45:00 PM 13.59 56.462 0.339 8.55 10.16 11.02
5/2/2022 4:00:00 PM 13.61 56.498 0.339 8.54 13.13 10.94
5/2/2022 4:15:00 PM 13.66 56.588 0.34 8.52 14.95 10.89
5/2/2022 4:30:00 PM 13.71 56.678 0.34 8.52 17.14 10.86
5/2/2022 4:45:00 PM 13.8 56.84 0.341 8.51 20.76 10.84
5/2/2022 5:00:00 PM 13.89 57.002 0.341 8.5 24.54 10.82
5/2/2022 5:15:00 PM 13.9 57.02 0.341 8.48 25.84 10.76
5/2/2022 5:30:00 PM 13.87 56.966 0.342 8.46 29.35 10.65
5/2/2022 5:45:00 PM 13.82 56.876 0.342 8.43 29.74 10.54
5/2/2022 6:00:00 PM 13.75 56.75 0.342 8.4 26.6 10.43
5/2/2022 6:15:00 PM 13.68 56.624 0.342 8.38 24.97 10.3
5/2/2022 6:30:00 PM 13.61 56.498 0.342 8.34 23.59 10.2
5/2/2022 6:45:00 PM 13.56 56.408 0.342 8.33 22.66 10.12
5/2/2022 7:00:00 PM 13.53 56.354 0.341 8.32 19.68 10.05
5/2/2022 7:15:00 PM 13.52 56.336 0.341 8.3 17.91 10
5/2/2022 7:30:00 PM 13.51 56.318 0.341 8.3 16.96 9.96
5/2/2022 7:45:00 PM 13.49 56.282 0.34 8.28 15.54 9.9
5/2/2022 8:00:00 PM 13.45 56.21 0.339 8.25 16.32 9.81
5/2/2022 8:15:00 PM 13.41 56.138 0.339 8.2 18.73 9.71
5/2/2022 8:30:00 PM 13.36 56.048 0.339 8.14 21.1 9.63
5/2/2022 8:45:00 PM 13.31 55.958 0.34 8.09 28.18 9.57
5/2/2022 9:00:00 PM 13.26 55.868 0.34 8.03 34.88 9.52
5/2/2022 9:15:00 PM 13.21 55.778 0.341 7.99 40.63 9.49
5/2/2022 9:30:00 PM 13.17 55.706 0.341 7.95 50.41 9.46
5/2/2022 9:45:00 PM 13.13 55.634 0.342 7.92 56.56 9.46
5/2/2022 10:00:00 PM 13.08 55.544 0.342 7.9 66.07 9.45
5/2/2022 10:15:00 PM 13.04 55.472 0.342 7.88 66.53 9.45
5/2/2022 10:30:00 PM 12.99 55.382 0.342 7.88 66.5 9.45
5/2/2022 10:45:00 PM 12.9 55.22 0.343 7.87 71.27 9.46
5/2/2022 11:00:00 PM 12.83 55.094 0.343 7.84 66.91 9.46
5/2/2022 11:15:00 PM 12.74 54.932 0.343 7.84 64.68 9.48
5/2/2022 11:30:00 PM 12.68 54.824 0.343 7.83 56.84 9.49
5/2/2022 11:45:00 PM 12.61 54.698 0.344 7.82 50.78 9.51
5/3/2022 12:00:00 AM 12.54 54.572 0.344 7.81 43.38 9.53
5/3/2022 12:15:00 AM 12.49 54.482 0.344 7.81 43.87 9.54
5/3/2022 12:30:00 AM 12.43 54.374 0.344 7.8 35.89 9.55
5/3/2022 12:45:00 AM 12.37 54.266 0.344 7.8 31.5 9.56
5/3/2022 1:00:00 AM 12.3 54.14 0.344 7.79 24.75 9.58
5/3/2022 1:15:00 AM 12.24 54.032 0.345 7.79 21.5 9.58
5/3/2022 1:30:00 AM 12.16 53.888 0.345 7.78 18.22 9.6
5/3/2022 1:45:00 AM 12.06 53.708 0.345 7.78 16.17 9.61
5/3/2022 2:00:00 AM 11.94 53.492 0.345 7.77 13.42 9.64
5/3/2022 2:15:00 AM 11.82 53.276 0.345 7.77 12.52 9.65
5/3/2022 2:30:00 AM 11.71 53.078 0.346 7.77 11.58 9.68
5/3/2022 2:45:00 AM 11.6 52.88 0.346 7.77 10 9.7
5/3/2022 3:00:00 AM 11.49 52.682 0.346 7.76 9.42 9.73
5/3/2022 3:15:00 AM 11.39 52.502 0.346 7.76 8.82 9.75
5/3/2022 3:30:00 AM 11.3 52.34 0.347 7.76 8.18 9.79
5/3/2022 3:45:00 AM 11.22 52.196 0.347 7.76 7.66 9.8
5/3/2022 4:00:00 AM 11.14 52.052 0.347 7.76 7.35 9.82
5/3/2022 4:15:00 AM 11.04 51.872 0.347 7.76 7.05 9.84
5/3/2022 4:30:00 AM 10.95 51.71 0.348 7.75 6.79 9.87
5/3/2022 4:45:00 AM 10.86 51.548 0.348 7.75 6.41 9.89
5/3/2022 5:00:00 AM 10.79 51.422 0.348 7.75 6.52 9.92
5/3/2022 5:15:00 AM 10.73 51.314 0.349 7.75 6.29 9.95
5/3/2022 5:30:00 AM 10.66 51.188 0.349 7.75 6.25 9.97
5/3/2022 5:45:00 AM 10.58 51.044 0.349 7.75 6.05 9.99
5/3/2022 6:00:00 AM 10.5 50.9 0.349 7.76 5.68 10.01
5/3/2022 6:15:00 AM 10.42 50.756 0.35 7.76 5.77 10.05
5/3/2022 6:30:00 AM 10.37 50.666 0.35 7.76 5.56 10.12
5/3/2022 6:45:00 AM 10.33 50.594 0.35 7.78 5.46 10.23
5/3/2022 7:00:00 AM 10.29 50.522 0.35 7.8 5.21 10.38
5/3/2022 7:15:00 AM 10.27 50.486 0.35 7.83 5.27 10.54
5/3/2022 7:30:00 AM 10.29 50.522 0.35 7.86 5.13 10.7
5/3/2022 7:45:00 AM 10.32 50.576 0.35 7.89 5.2 10.84
5/3/2022 8:00:00 AM 10.38 50.684 0.35 7.93 5.11 10.99
5/3/2022 8:15:00 AM 10.5 50.9 0.35 7.97 5.02 11.09
5/3/2022 8:30:00 AM 10.55 50.99 0.35 8 4.95 11.19
5/3/2022 8:45:00 AM 10.68 51.224 0.35 8.03 4.98 11.26
5/3/2022 9:00:00 AM 10.82 51.476 0.35 8.05 4.83 11.29
5/3/2022 9:15:00 AM 11.05 51.89 0.35 8.09 4.93 11.37
5/3/2022 9:30:00 AM 11.23 52.214 0.349 8.13 4.73 11.45
5/3/2022 9:45:00 AM 11.39 52.502 0.349 8.16 4.65 11.49
5/3/2022 10:00:00 AM 11.53 52.754 0.349 8.18 4.68 11.5
5/3/2022 10:15:00 AM 11.65 52.97 0.349 8.2 4.7 11.54
5/3/2022 10:30:00 AM 11.85 53.33 0.349 8.23 4.7 11.55
5/3/2022 10:45:00 AM 12.12 53.816 0.349 8.26 4.61 11.57
5/3/2022 11:00:00 AM 12.45 54.41 0.349 8.28 4.56 11.6
5/3/2022 11:15:00 AM 12.74 54.932 0.349 8.3 4.56 11.59
5/3/2022 11:30:00 AM 13.02 55.436 0.349 8.32 4.53 11.58
5/3/2022 11:45:00 AM 13.2 55.76 0.349 8.34 4.59 11.55
5/3/2022 12:00:00 PM 13.24 55.832 0.349 8.35 4.55 11.49
5/3/2022 12:15:00 PM 13.27 55.886 0.349 8.37 4.39 11.43
5/3/2022 12:30:00 PM 13.25 55.85 0.349 8.37 4.42 11.34
5/3/2022 12:45:00 PM 13.43 56.174 0.349 8.39 4.38 11.36
5/3/2022 1:00:00 PM 13.56 56.408 0.348 8.42 4.48 11.39
5/3/2022 1:15:00 PM 13.7 56.66 0.348 8.44 4.42 11.4
5/3/2022 1:30:00 PM 13.77 56.786 0.348 8.46 4.35 11.36
5/3/2022 1:45:00 PM 13.88 56.984 0.347 8.47 4.29 11.32
5/3/2022 2:00:00 PM 14.11 57.398 0.347 8.5 4.35 11.31
5/3/2022 2:15:00 PM 14.29 57.722 0.347 8.52 4.35 11.25
5/3/2022 2:30:00 PM 14.36 57.848 0.346 8.54 4.43 11.21
5/3/2022 2:45:00 PM 14.32 57.776 0.346 8.55 4.32 11.13
5/3/2022 3:00:00 PM 14.28 57.704 0.346 8.56 4.37 11.05
5/3/2022 3:15:00 PM 14.25 57.65 0.346 8.55 4.28 10.95
5/3/2022 3:30:00 PM 14.29 57.722 0.345 8.57 4.25 10.92
5/3/2022 3:45:00 PM 14.29 57.722 0.345 8.58 4.26 10.86
5/3/2022 4:00:00 PM 14.33 57.794 0.345 8.59 4.23 10.82
5/3/2022 4:15:00 PM 14.37 57.866 0.345 8.59 4.17 10.75
5/3/2022 4:30:00 PM 14.44 57.992 0.345 8.6 4.18 10.7
5/3/2022 4:45:00 PM 14.5 58.1 0.344 8.61 4.17 10.64
5/3/2022 5:00:00 PM 14.59 58.262 0.344 8.61 4.15 10.6
5/3/2022 5:15:00 PM 14.68 58.424 0.344 8.62 4.2 10.57
5/3/2022 5:30:00 PM 14.77 58.586 0.343 8.63 3.66 10.56
5/3/2022 5:45:00 PM 14.81 58.658 0.343 8.64 3.79 10.53
5/3/2022 6:00:00 PM 14.82 58.676 0.343 8.64 3.75 10.48
5/3/2022 6:15:00 PM 14.82 58.676 0.342 8.62 3.9 10.37
5/3/2022 6:30:00 PM 14.83 58.694 0.342 8.61 4.36 10.28
5/3/2022 6:45:00 PM 14.84 58.712 0.342 8.6 5.66 10.21
5/3/2022 7:00:00 PM 14.83 58.694 0.343 8.58 7.86 10.12
5/3/2022 7:15:00 PM 14.81 58.658 0.343 8.52 11.99 9.97
5/3/2022 7:30:00 PM 14.77 58.586 0.345 8.44 17.86 9.76
5/3/2022 7:45:00 PM 14.74 58.532 0.346 8.36 23.76 9.59
5/3/2022 8:00:00 PM 14.72 58.496 0.347 8.28 29.58 9.45
5/3/2022 8:15:00 PM 14.68 58.424 0.347 8.2 35.23 9.32
5/3/2022 8:30:00 PM 14.65 58.37 0.348 8.12 42.91 9.22
5/3/2022 8:45:00 PM 14.61 58.298 0.348 8.05 46.78 9.16
5/3/2022 9:00:00 PM 14.55 58.19 0.348 8.01 48.95 9.12
5/3/2022 9:15:00 PM 14.5 58.1 0.349 7.97 49.14 9.09
5/3/2022 9:30:00 PM 14.45 58.01 0.348 7.94 43.85 9.08
5/3/2022 9:45:00 PM 14.4 57.92 0.347 7.92 41.39 9.07
5/3/2022 10:00:00 PM 14.34 57.812 0.347 7.91 34.16 9.06
5/3/2022 10:15:00 PM 14.28 57.704 0.347 7.89 31.21 9.05
5/3/2022 10:30:00 PM 14.23 57.614 0.346 7.89 26.68 9.07
5/3/2022 10:45:00 PM 14.18 57.524 0.347 7.88 24.43 9.07
5/3/2022 11:00:00 PM 14.14 57.452 0.347 7.88 21.58 9.09
5/3/2022 11:15:00 PM 14.09 57.362 0.347 7.87 19.07 9.1
5/3/2022 11:30:00 PM 14.05 57.29 0.346 7.86 18.96 9.1
5/3/2022 11:45:00 PM 14 57.2 0.346 7.85 18.41 9.1
5/4/2022 12:00:00 AM 13.95 57.11 0.346 7.84 18.74 9.11
5/4/2022 12:15:00 AM 13.91 57.038 0.346 7.84 18.12 9.12
5/4/2022 12:30:00 AM 13.87 56.966 0.346 7.83 19.29 9.13
5/4/2022 12:45:00 AM 13.83 56.894 0.346 7.82 17.14 9.14
5/4/2022 1:00:00 AM 13.78 56.804 0.346 7.81 16.07 9.14
5/4/2022 1:15:00 AM 13.73 56.714 0.347 7.81 15.16 9.15
5/4/2022 1:30:00 AM 13.69 56.642 0.347 7.8 13.48 9.16
5/4/2022 1:45:00 AM 13.65 56.57 0.347 7.79 12.33 9.13
5/4/2022 2:00:00 AM 13.61 56.498 0.347 7.79 11.68 9.15
5/4/2022 2:15:00 AM 13.57 56.426 0.347 7.78 10.27 9.16
5/4/2022 2:30:00 AM 13.52 56.336 0.347 7.78 9.99 9.18
5/4/2022 2:45:00 AM 13.47 56.246 0.348 7.78 9.21 9.19
5/4/2022 3:00:00 AM 13.41 56.138 0.348 7.78 8.45 9.21
5/4/2022 3:15:00 AM 13.35 56.03 0.348 7.78 8.07 9.21
5/4/2022 3:30:00 AM 13.29 55.922 0.348 7.77 7.32 9.22
5/4/2022 3:45:00 AM 13.24 55.832 0.349 7.77 7.2 9.24
5/4/2022 4:00:00 AM 13.19 55.742 0.349 7.77 6.66 9.25
5/4/2022 4:15:00 AM 13.15 55.67 0.349 7.77 6.5 9.26
5/4/2022 4:30:00 AM 13.11 55.598 0.349 7.76 6.36 9.27
5/4/2022 4:45:00 AM 13.08 55.544 0.35 7.76 6.12 9.28
5/4/2022 5:00:00 AM 13.05 55.49 0.35 7.76 6.1 9.28
5/4/2022 5:15:00 AM 13.02 55.436 0.35 7.76 5.99 9.3
5/4/2022 5:30:00 AM 12.99 55.382 0.35 7.76 5.81 9.31
5/4/2022 5:45:00 AM 12.96 55.328 0.35 7.76 5.65 9.33
5/4/2022 6:00:00 AM 12.93 55.274 0.35 7.76 5.53 9.31
5/4/2022 6:15:00 AM 12.89 55.202 0.351 7.76 5.57 9.35
5/4/2022 6:30:00 AM 12.87 55.166 0.351 7.77 5.53 9.37
5/4/2022 6:45:00 AM 12.84 55.112 0.351 7.78 5.39 9.41
5/4/2022 7:00:00 AM 12.81 55.058 0.351 7.78 5.35 9.44
5/4/2022 7:15:00 AM 12.79 55.022 0.351 7.79 5.15 9.49
5/4/2022 7:30:00 AM 12.77 54.986 0.351 7.8 5.17 9.53
5/4/2022 7:45:00 AM 12.76 54.968 0.351 7.81 5.17 9.6
5/4/2022 8:00:00 AM 12.76 54.968 0.35 7.83 5.06 9.7
5/4/2022 8:15:00 AM 12.76 54.968 0.35 7.85 5.07 9.79
5/4/2022 8:30:00 AM 12.76 54.968 0.35 7.86 5.18 9.84
5/4/2022 8:45:00 AM 12.75 54.95 0.35 7.88 5.08 9.87
5/4/2022 9:00:00 AM 12.73 54.914 0.348 7.89 5.22 9.89
5/4/2022 9:15:00 AM 12.72 54.896 0.346 7.9 5.29 9.93
5/4/2022 9:30:00 AM 12.77 54.986 0.344 7.92 5.51 10.05
5/4/2022 9:45:00 AM 12.82 55.076 0.344 7.96 6.15 10.22
5/4/2022 10:00:00 AM 12.92 55.256 0.344 7.99 6.35 10.35
5/4/2022 10:15:00 AM 13.06 55.508 0.344 8.03 6.16 10.48
5/4/2022 10:30:00 AM 13.2 55.76 0.344 8.07 6.09 10.59
5/4/2022 10:45:00 AM 13.29 55.922 0.345 8.11 5.43 10.64
5/4/2022 11:00:00 AM 13.38 56.084 0.345 8.13 5.08 10.66
5/4/2022 11:15:00 AM 13.52 56.336 0.345 8.16 5.09 10.71
5/4/2022 11:30:00 AM 13.72 56.696 0.344 8.19 5.41 10.78
5/4/2022 11:45:00 AM 14.08 57.344 0.344 8.22 6.88 10.82
5/4/2022 12:00:00 PM 14.27 57.686 0.344 8.25 7.36 10.85
5/4/2022 12:15:00 PM 14.44 57.992 0.344 8.27 7.47 10.82
5/4/2022 12:30:00 PM 14.54 58.172 0.344 8.29 6.87 10.8
5/4/2022 12:45:00 PM 14.57 58.226 0.344 8.3 6.51 10.72
5/4/2022 1:00:00 PM 14.53 58.154 0.343 8.31 6.33 10.7
5/4/2022 1:15:00 PM 14.53 58.154 0.343 8.33 7.06 10.71
5/4/2022 1:30:00 PM 14.64 58.352 0.344 8.35 7.08 10.74
5/4/2022 1:45:00 PM 14.72 58.496 0.349 8.37 7.64 10.75
5/4/2022 2:00:00 PM 14.74 58.532 0.355 8.38 8.89 10.69
5/4/2022 2:15:00 PM 14.76 58.568 0.359 8.39 9.67 10.6
5/4/2022 2:30:00 PM 14.73 58.514 0.359 8.39 11.63 10.55
5/4/2022 2:45:00 PM 14.67 58.406 0.358 8.39 12.75 10.49
5/4/2022 3:00:00 PM 14.66 58.388 0.358 8.39 14.28 10.48
5/4/2022 3:15:00 PM 14.72 58.496 0.357 8.41 14.97 10.47
5/4/2022 3:30:00 PM 14.76 58.568 0.356 8.42 15.34 10.42
5/4/2022 3:45:00 PM 14.8 58.64 0.354 8.41 18.25 10.31
5/4/2022 4:00:00 PM 14.79 58.622 0.352 8.36 30.91 10.13
5/4/2022 4:15:00 PM 14.76 58.568 0.35 8.27 47.38 9.9
5/4/2022 4:30:00 PM 14.74 58.532 0.348 8.18 72.65 9.72
5/4/2022 4:45:00 PM 14.73 58.514 0.345 8.11 89.09 9.58
5/4/2022 5:00:00 PM 14.74 58.532 0.343 8.07 91.22 9.53
5/4/2022 5:15:00 PM 14.76 58.568 0.341 8.06 80.48 9.54
5/4/2022 5:30:00 PM 14.81 58.658 0.338 8.09 54.57 9.64
5/4/2022 5:45:00 PM 14.82 58.676 0.335 8.12 46.38 9.69
5/4/2022 6:00:00 PM 14.79 58.622 0.332 8.12 47.23 9.66
5/4/2022 6:15:00 PM 14.76 58.568 0.33 8.11 46.29 9.65
5/4/2022 6:30:00 PM 14.71 58.478 0.327 8.1 45.96 9.62
5/4/2022 6:45:00 PM 14.65 58.37 0.325 8.08 43.7 9.59
5/4/2022 7:00:00 PM 14.59 58.262 0.324 8.07 43.63 9.56
5/4/2022 7:15:00 PM 14.5 58.1 0.323 8.04 41.9 9.5
5/4/2022 7:30:00 PM 14.4 57.92 0.323 8.01 42.74 9.46
5/4/2022 7:45:00 PM 14.33 57.794 0.323 8 40.48 9.43
5/4/2022 8:00:00 PM 14.27 57.686 0.324 7.99 34.58 9.43
5/4/2022 8:15:00 PM 14.23 57.614 0.325 7.98 25.73 9.41
5/4/2022 8:30:00 PM 14.18 57.524 0.326 7.98 24.73 9.41
5/4/2022 8:45:00 PM 14.12 57.416 0.328 7.97 18.85 9.41
5/4/2022 9:00:00 PM 14.06 57.308 0.329 7.97 16.15 9.41
5/4/2022 9:15:00 PM 14 57.2 0.329 7.95 13.7 9.42
5/4/2022 9:30:00 PM 13.93 57.074 0.33 7.94 11.98 9.43
5/4/2022 9:45:00 PM 13.86 56.948 0.331 7.93 10.79 9.43
5/4/2022 10:00:00 PM 13.78 56.804 0.332 7.92 10.04 9.44
5/4/2022 10:15:00 PM 13.7 56.66 0.332 7.9 9.89 9.45
5/4/2022 10:30:00 PM 13.62 56.516 0.333 7.89 9.66 9.46
5/4/2022 10:45:00 PM 13.54 56.372 0.333 7.88 9.66 9.47
5/4/2022 11:00:00 PM 13.46 56.228 0.334 7.87 10.56 9.48
5/4/2022 11:15:00 PM 13.37 56.066 0.334 7.86 8.9 9.5
5/4/2022 11:30:00 PM 13.27 55.886 0.334 7.85 9 9.52
5/4/2022 11:45:00 PM 13.17 55.706 0.335 7.84 8.53 9.53
5/5/2022 12:00:00 AM 13.09 55.562 0.335 7.83 8.51 9.55
5/5/2022 12:15:00 AM 12.99 55.382 0.336 7.82 8.82 9.56
5/5/2022 12:30:00 AM 12.9 55.22 0.336 7.81 8.62 9.58
5/5/2022 12:45:00 AM 12.82 55.076 0.337 7.82 8.48 9.6
5/5/2022 1:00:00 AM 12.75 54.95 0.337 7.81 8.15 9.61
5/5/2022 1:15:00 AM 12.68 54.824 0.338 7.81 8.14 9.63
5/5/2022 1:30:00 AM 12.58 54.644 0.339 7.8 7.93 9.65
5/5/2022 1:45:00 AM 12.49 54.482 0.339 7.79 7.96 9.67
5/5/2022 2:00:00 AM 12.39 54.302 0.34 7.79 7.93 9.67
5/5/2022 2:15:00 AM 12.29 54.122 0.34 7.79 7.72 9.7
5/5/2022 2:30:00 AM 12.19 53.942 0.341 7.79 7.86 9.73
5/5/2022 2:45:00 AM 12.09 53.762 0.341 7.79 7.76 9.75
5/5/2022 3:00:00 AM 12 53.6 0.341 7.79 7.42 9.77
5/5/2022 3:15:00 AM 11.91 53.438 0.342 7.78 7.41 9.79
5/5/2022 3:30:00 AM 11.82 53.276 0.342 7.78 7.3 9.82
5/5/2022 3:45:00 AM 11.73 53.114 0.342 7.79 7.41 9.84
5/5/2022 4:00:00 AM 11.64 52.952 0.342 7.79 6.79 9.86
5/5/2022 4:15:00 AM 11.55 52.79 0.342 7.78 6.87 9.87
5/5/2022 4:30:00 AM 11.46 52.628 0.342 7.77 7.06 9.9
5/5/2022 4:45:00 AM 11.38 52.484 0.342 7.78 7.11 9.91
5/5/2022 5:00:00 AM 11.29 52.322 0.342 7.78 6.9 9.95
5/5/2022 5:15:00 AM 11.22 52.196 0.342 7.75 6.67 9.97
5/5/2022 5:30:00 AM 11.16 52.088 0.342 7.76 6.41 9.99
5/5/2022 5:45:00 AM 11.1 51.98 0.342 7.76 6.44 10
5/5/2022 6:00:00 AM 11.02 51.836 0.342 7.76 6.78 10.03
5/5/2022 6:15:00 AM 10.94 51.692 0.342 7.76 6.53 10.07
5/5/2022 6:30:00 AM 10.84 51.512 0.341 7.77 6.34 10.13
5/5/2022 6:45:00 AM 10.77 51.386 0.341 7.8 6.24 10.22
5/5/2022 7:00:00 AM 10.71 51.278 0.341 7.82 5.95 10.34
5/5/2022 7:15:00 AM 10.68 51.224 0.341 7.84 6.1 10.46
5/5/2022 7:30:00 AM 10.66 51.188 0.341 7.85 5.96 10.58
5/5/2022 7:45:00 AM 10.67 51.206 0.341 7.89 5.87 10.68
5/5/2022 8:00:00 AM 10.71 51.278 0.341 7.91 5.93 10.77
5/5/2022 8:15:00 AM 10.79 51.422 0.341 7.95 5.84 10.87
5/5/2022 8:30:00 AM 10.9 51.62 0.34 7.97 5.65 10.94
5/5/2022 8:45:00 AM 11.02 51.836 0.34 8 5.49 11.01
5/5/2022 9:00:00 AM 11.17 52.106 0.34 8.03 5.64 11.07
5/5/2022 9:15:00 AM 11.35 52.43 0.34 8.07 5.43 11.12
5/5/2022 9:30:00 AM 11.54 52.772 0.34 8.1 5.44 11.17
5/5/2022 9:45:00 AM 11.72 53.096 0.34 8.12 5.61 11.21
5/5/2022 10:00:00 AM 11.91 53.438 0.34 8.15 5.5 11.25
5/5/2022 10:15:00 AM 12.12 53.816 0.34 8.17 5.46 11.26
5/5/2022 10:30:00 AM 12.34 54.212 0.34 8.19 5.33 11.27
5/5/2022 10:45:00 AM 12.62 54.716 0.34 8.22 5.29 11.28
5/5/2022 11:00:00 AM 12.94 55.292 0.34 8.24 5.15 11.28
5/5/2022 11:15:00 AM 13.29 55.922 0.34 8.27 5.18 11.28
5/5/2022 11:30:00 AM 13.61 56.498 0.34 8.29 5.17 11.26
5/5/2022 11:45:00 AM 13.93 57.074 0.34 8.32 5.19 11.22
5/5/2022 12:00:00 PM 14.19 57.542 0.34 8.34 5.08 11.2
5/5/2022 12:15:00 PM 14.45 58.01 0.34 8.37 5.03 11.18
5/5/2022 12:30:00 PM 14.75 58.55 0.34 8.39 4.95 11.14
5/5/2022 12:45:00 PM 15.02 59.036 0.34 8.42 5.14 11.11
5/5/2022 1:00:00 PM 15.28 59.504 0.34 8.43 4.89 11.08
5/5/2022 1:15:00 PM 15.58 60.044 0.34 8.46 4.92 11.06
5/5/2022 1:30:00 PM 15.84 60.512 0.34 8.48 4.79 11.01
5/5/2022 1:45:00 PM 16.04 60.872 0.34 8.5 4.95 10.94
5/5/2022 2:00:00 PM 16.27 61.286 0.34 8.52 5.47 10.89
5/5/2022 2:15:00 PM 16.5 61.7 0.34 8.54 6.22 10.84
5/5/2022 2:30:00 PM 16.65 61.97 0.34 8.56 7.71 10.78
5/5/2022 2:45:00 PM 16.81 62.258 0.339 8.58 11.27 10.71
5/5/2022 3:00:00 PM 16.91 62.438 0.339 8.58 13.15 10.65
5/5/2022 3:15:00 PM 17.07 62.726 0.34 8.59 17.57 10.59
5/5/2022 3:30:00 PM 17.21 62.978 0.341 8.59 21.46 10.53
5/5/2022 3:45:00 PM 17.28 63.104 0.343 8.59 23.95 10.45
5/5/2022 4:00:00 PM 17.35 63.23 0.345 8.58 28.53 10.36
5/5/2022 4:15:00 PM 17.36 63.248 0.347 8.55 36.17 10.21
5/5/2022 4:30:00 PM 17.36 63.248 0.347 8.5 46.87 10.04
5/5/2022 4:45:00 PM 17.35 63.23 0.345 8.43 66.93 9.85
5/5/2022 5:00:00 PM 17.35 63.23 0.344 8.34 99.53 9.62
5/5/2022 5:15:00 PM 17.34 63.212 0.344 8.24 146.91 9.39
5/5/2022 5:30:00 PM 17.33 63.194 0.343 8.15 191.5 9.18
5/5/2022 5:45:00 PM 17.26 63.068 0.343 8.08 229.51 9.03
5/5/2022 6:00:00 PM 17.2 62.96 0.342 8.03 217.47 8.96
5/5/2022 6:15:00 PM 17.14 62.852 0.342 8.01 215.94 8.92
5/5/2022 6:30:00 PM 17.03 62.654 0.341 7.99 187.46 8.9
5/5/2022 6:45:00 PM 16.93 62.474 0.34 7.98 173.34 8.88
5/5/2022 7:00:00 PM 16.85 62.33 0.34 7.97 162.43 8.87
5/5/2022 7:15:00 PM 16.77 62.186 0.339 7.96 155.52 8.85
5/5/2022 7:30:00 PM 16.67 62.006 0.339 7.95 147.41 8.83
5/5/2022 7:45:00 PM 16.58 61.844 0.339 7.94 134.48 8.81
5/5/2022 8:00:00 PM 16.5 61.7 0.34 7.93 128.87 8.79
5/5/2022 8:15:00 PM 16.41 61.538 0.34 7.91 130.82 8.78
5/5/2022 8:30:00 PM 16.29 61.322 0.34 7.9 113.86 8.77
5/5/2022 8:45:00 PM 16.19 61.142 0.34 7.89 110.88 8.75
5/5/2022 9:00:00 PM 16.11 60.998 0.34 7.88 101.1 8.75
5/5/2022 9:15:00 PM 16.01 60.818 0.34 7.87 91.5 8.77
5/5/2022 9:30:00 PM 15.89 60.602 0.34 7.86 85.87 8.77
5/5/2022 9:45:00 PM 15.79 60.422 0.34 7.85 83.81 8.8
5/5/2022 10:00:00 PM 15.69 60.242 0.34 7.85 74.72 8.82
5/5/2022 10:15:00 PM 15.58 60.044 0.34 7.84 65.19 8.83
5/5/2022 10:30:00 PM 15.47 59.846 0.34 7.84 56.48 8.86
5/5/2022 10:45:00 PM 15.36 59.648 0.34 7.83 49.15 8.88
5/5/2022 11:00:00 PM 15.25 59.45 0.34 7.83 39.02 8.9
5/5/2022 11:15:00 PM 15.13 59.234 0.34 7.82 33.73 8.92
5/5/2022 11:30:00 PM 15 59 0.34 7.82 29.23 8.95
5/5/2022 11:45:00 PM 14.88 58.784 0.34 7.82 23.35 8.98
5/6/2022 12:00:00 AM 14.76 58.568 0.341 7.81 19.7 9.01
5/6/2022 12:15:00 AM 14.64 58.352 0.341 7.81 18.48 9.02
5/6/2022 12:30:00 AM 14.52 58.136 0.341 7.8 16.27 9.05
5/6/2022 12:45:00 AM 14.42 57.956 0.341 7.81 14.34 9.08
5/6/2022 1:00:00 AM 14.31 57.758 0.342 7.8 12.93 9.1
5/6/2022 1:15:00 AM 14.21 57.578 0.342 7.79 11.62 9.12
5/6/2022 1:30:00 AM 14.1 57.38 0.342 7.78 11.06 9.15
5/6/2022 1:45:00 AM 13.99 57.182 0.343 7.78 10.49 9.17
5/6/2022 2:00:00 AM 13.89 57.002 0.343 7.77 9.82 9.19
5/6/2022 2:15:00 AM 13.79 56.822 0.343 7.77 9.32 9.22
5/6/2022 2:30:00 AM 13.69 56.642 0.344 7.76 9.46 9.24
5/6/2022 2:45:00 AM 13.6 56.48 0.344 7.76 9.2 9.25
5/6/2022 3:00:00 AM 13.51 56.318 0.344 7.76 9.2 9.28
5/6/2022 3:15:00 AM 13.43 56.174 0.345 7.76 8.93 9.3
5/6/2022 3:30:00 AM 13.34 56.012 0.345 7.76 8.58 9.33
5/6/2022 3:45:00 AM 13.25 55.85 0.345 7.76 8.57 9.35
5/6/2022 4:00:00 AM 13.18 55.724 0.345 7.76 8.29 9.37
5/6/2022 4:15:00 AM 13.1 55.58 0.345 7.76 8.2 9.39
5/6/2022 4:30:00 AM 13.03 55.454 0.346 7.75 8.23 9.4
5/6/2022 4:45:00 AM 12.95 55.31 0.346 7.75 8.19 9.42
5/6/2022 5:00:00 AM 12.88 55.184 0.346 7.75 8.19 9.44
5/6/2022 5:15:00 AM 12.81 55.058 0.346 7.75 7.93 9.46
5/6/2022 5:30:00 AM 12.75 54.95 0.347 7.75 8.03 9.47
5/6/2022 5:45:00 AM 12.69 54.842 0.347 7.75 7.77 9.49
5/6/2022 6:00:00 AM 12.63 54.734 0.347 7.75 7.69 9.51
5/6/2022 6:15:00 AM 12.56 54.608 0.347 7.75 7.67 9.54
5/6/2022 6:30:00 AM 12.49 54.482 0.347 7.75 7.55 9.57
5/6/2022 6:45:00 AM 12.44 54.392 0.347 7.77 7.47 9.6
5/6/2022 7:00:00 AM 12.38 54.284 0.347 7.76 7.38 9.63
5/6/2022 7:15:00 AM 12.34 54.212 0.347 7.77 6.91 9.68
5/6/2022 7:30:00 AM 12.3 54.14 0.347 7.78 7.14 9.72
5/6/2022 7:45:00 AM 12.28 54.104 0.347 7.79 7.22 9.79
5/6/2022 8:00:00 AM 12.26 54.068 0.347 7.81 7.03 9.87
5/6/2022 8:15:00 AM 12.27 54.086 0.347 7.84 6.87 9.98
5/6/2022 8:30:00 AM 12.29 54.122 0.347 7.87 6.61 10.13
5/6/2022 8:45:00 AM 12.32 54.176 0.348 7.91 6.81 10.25
5/6/2022 9:00:00 AM 12.35 54.23 0.348 7.94 6.58 10.36
5/6/2022 9:15:00 AM 12.36 54.248 0.348 7.97 6.4 10.43
5/6/2022 9:30:00 AM 12.37 54.266 0.348 7.99 6.32 10.49
5/6/2022 9:45:00 AM 12.4 54.32 0.348 8.01 6.14 10.55
5/6/2022 10:00:00 AM 12.42 54.356 0.347 8.04 6.34 10.63
5/6/2022 10:15:00 AM 12.47 54.446 0.347 8.07 6.16 10.7
5/6/2022 10:30:00 AM 12.5 54.5 0.347 8.09 6.13 10.76
5/6/2022 10:45:00 AM 12.54 54.572 0.347 8.12 6.13 10.8
5/6/2022 11:00:00 AM 12.58 54.644 0.347 8.14 6.01 10.82
5/6/2022 11:15:00 AM 12.61 54.698 0.346 8.16 6.15 10.84
5/6/2022 11:30:00 AM 12.64 54.752 0.346 8.18 5.96 10.87
5/6/2022 11:45:00 AM 12.66 54.788 0.346 8.2 6.09 10.87
5/6/2022 12:00:00 PM 12.67 54.806 0.345 8.21 6.04 10.88
5/6/2022 12:15:00 PM 12.67 54.806 0.345 8.22 5.89 10.87
5/6/2022 12:30:00 PM 12.69 54.842 0.344 8.23 6.14 10.86
5/6/2022 12:45:00 PM 12.72 54.896 0.344 8.25 5.85 10.88
5/6/2022 1:00:00 PM 12.76 54.968 0.343 8.27 6.18 10.9
5/6/2022 1:15:00 PM 12.79 55.022 0.343 8.29 5.99 10.92
5/6/2022 1:30:00 PM 12.83 55.094 0.342 8.31 6.16 10.92
5/6/2022 1:45:00 PM 12.87 55.166 0.342 8.32 6.28 10.93
5/6/2022 2:00:00 PM 12.94 55.292 0.342 8.33 6.05 10.93
5/6/2022 2:15:00 PM 13 55.4 0.341 8.35 5.93 10.96
5/6/2022 2:30:00 PM 13.06 55.508 0.341 8.37 5.84 10.95
5/6/2022 2:45:00 PM 13.07 55.526 0.341 8.39 5.97 10.91
5/6/2022 3:00:00 PM 13.08 55.544 0.341 8.38 5.79 10.82
5/6/2022 3:15:00 PM 13.08 55.544 0.341 8.39 6 10.76
5/6/2022 3:30:00 PM 13.09 55.562 0.34 8.39 6 10.7
5/6/2022 3:45:00 PM 13.08 55.544 0.34 8.38 6.11 10.65
5/6/2022 4:00:00 PM 13.1 55.58 0.339 8.39 6.19 10.64
5/6/2022 4:15:00 PM 13.15 55.67 0.338 8.4 6.49 10.67
5/6/2022 4:30:00 PM 13.2 55.76 0.337 8.41 6.51 10.67
5/6/2022 4:45:00 PM 13.24 55.832 0.337 8.42 6.76 10.66
5/6/2022 5:00:00 PM 13.27 55.886 0.339 8.42 6.64 10.64
5/6/2022 5:15:00 PM 13.28 55.904 0.341 8.42 7.18 10.61
5/6/2022 5:30:00 PM 13.26 55.868 0.342 8.41 6.86 10.57
5/6/2022 5:45:00 PM 13.24 55.832 0.342 8.39 7.07 10.49
5/6/2022 6:00:00 PM 13.2 55.76 0.342 8.36 7.47 10.36
5/6/2022 6:15:00 PM 13.16 55.688 0.342 8.31 7.59 10.21
5/6/2022 6:30:00 PM 13.14 55.652 0.342 8.28 7.81 10.16
5/6/2022 6:45:00 PM 13.11 55.598 0.342 8.26 8.03 10.15
5/6/2022 7:00:00 PM 13.08 55.544 0.341 8.24 8.4 10.12
5/6/2022 7:15:00 PM 13.04 55.472 0.34 8.21 8.53 10.04
5/6/2022 7:30:00 PM 13 55.4 0.338 8.16 9.59 9.95
5/6/2022 7:45:00 PM 12.94 55.292 0.336 8.12 9.46 9.89
5/6/2022 8:00:00 PM 12.89 55.202 0.334 8.07 10.11 9.83
5/6/2022 8:15:00 PM 12.84 55.112 0.33 8.04 10.52 9.8
5/6/2022 8:30:00 PM 12.78 55.004 0.327 8.01 11.76 9.77
5/6/2022 8:45:00 PM 12.72 54.896 0.324 7.97 12.48 9.75
5/6/2022 9:00:00 PM 12.66 54.788 0.321 7.94 14.35 9.75
5/6/2022 9:15:00 PM 12.59 54.662 0.317 7.92 15.15 9.74
5/6/2022 9:30:00 PM 12.52 54.536 0.314 7.89 16.48 9.76
5/6/2022 9:45:00 PM 12.46 54.428 0.311 7.88 18.4 9.77
5/6/2022 10:00:00 PM 12.4 54.32 0.309 7.86 24.72 9.76
5/6/2022 10:15:00 PM 12.34 54.212 0.307 7.85 19.98 9.78
5/6/2022 10:30:00 PM 12.28 54.104 0.306 7.85 21.06 9.8
5/6/2022 10:45:00 PM 12.23 54.014 0.305 7.84 22.3 9.8
5/6/2022 11:00:00 PM 12.18 53.924 0.304 7.83 26.7 9.81
5/6/2022 11:15:00 PM 12.13 53.834 0.304 7.83 23.41 9.83
5/6/2022 11:30:00 PM 12.09 53.762 0.303 7.82 23.56 9.84
5/6/2022 11:45:00 PM 12.05 53.69 0.304 7.81 23.25 9.85
5/7/2022 12:00:00 AM 12.01 53.618 0.304 7.82 137.01 9.86
5/7/2022 12:15:00 AM 11.96 53.528 0.305 7.82 21.62 9.87
5/7/2022 12:30:00 AM 11.93 53.474 0.306 7.81 21.32 9.88
5/7/2022 12:45:00 AM 11.9 53.42 0.307 7.81 16.65 9.89
5/7/2022 1:00:00 AM 11.86 53.348 0.308 7.8 20.1 9.89
5/7/2022 1:15:00 AM 11.83 53.294 0.309 7.81 20.34 9.9
5/7/2022 1:30:00 AM 11.8 53.24 0.31 7.8 18.81 9.91
5/7/2022 1:45:00 AM 11.77 53.186 0.31 7.8 17.83 9.92
5/7/2022 2:00:00 AM 11.74 53.132 0.311 7.8 17.54 9.92
5/7/2022 2:15:00 AM 11.71 53.078 0.311 7.8 16.86 9.93
5/7/2022 2:30:00 AM 11.67 53.006 0.312 7.8 16.43 9.94
5/7/2022 2:45:00 AM 11.63 52.934 0.312 7.8 15.97 9.95
5/7/2022 3:00:00 AM 11.6 52.88 0.312 7.8 14.22 9.96
5/7/2022 3:15:00 AM 11.56 52.808 0.312 7.8 15.58 9.97
5/7/2022 3:30:00 AM 11.52 52.736 0.312 7.8 14.68 9.98
5/7/2022 3:45:00 AM 11.48 52.664 0.313 7.8 14.36 9.99
5/7/2022 4:00:00 AM 11.44 52.592 0.313 7.81 14.35 10
5/7/2022 4:15:00 AM 11.41 52.538 0.313 7.8 13.72 10.01
5/7/2022 4:30:00 AM 11.38 52.484 0.313 7.8 13.5 10
5/7/2022 4:45:00 AM 11.35 52.43 0.314 7.8 14.47 10.03
5/7/2022 5:00:00 AM 11.32 52.376 0.314 7.8 13.53 10.02
5/7/2022 5:15:00 AM 11.28 52.304 0.315 7.8 13.4 10.03
5/7/2022 5:30:00 AM 11.24 52.232 0.315 7.8 12.96 10.03
5/7/2022 5:45:00 AM 11.2 52.16 0.316 7.8 12.95 10.04
5/7/2022 6:00:00 AM 11.16 52.088 0.316 7.8 12.46 10.05
5/7/2022 6:15:00 AM 11.12 52.016 0.316 7.8 12.35 10.09
5/7/2022 6:30:00 AM 11.08 51.944 0.317 7.8 12.42 10.09
5/7/2022 6:45:00 AM 11.04 51.872 0.317 7.8 11.81 10.14
5/7/2022 7:00:00 AM 11.01 51.818 0.317 7.81 12.19 10.17
5/7/2022 7:15:00 AM 11 51.8 0.317 7.83 11.15 10.22
5/7/2022 7:30:00 AM 10.99 51.782 0.317 7.84 11.16 10.29
5/7/2022 7:45:00 AM 10.98 51.764 0.317 7.86 11.08 10.37
5/7/2022 8:00:00 AM 10.98 51.764 0.317 7.88 10.79 10.45
5/7/2022 8:15:00 AM 10.99 51.782 0.318 7.9 10.59 10.5
5/7/2022 8:30:00 AM 11 51.8 0.318 7.92 10.41 10.58
5/7/2022 8:45:00 AM 11 51.8 0.318 7.95 9.92 10.64
5/7/2022 9:00:00 AM 11 51.8 0.318 7.97 9.59 10.68
5/7/2022 9:15:00 AM 11.01 51.818 0.318 7.98 9.77 10.73
5/7/2022 9:30:00 AM 11.04 51.872 0.318 8.01 9.33 10.78
5/7/2022 9:45:00 AM 11.07 51.926 0.318 8.03 8.98 10.82
5/7/2022 10:00:00 AM 11.11 51.998 0.318 8.05 9.1 10.86